<?xml version="1.0" encoding="UTF-8" standalone="no" ?>
<gpx xmlns="http://www.topografix.com/GPX/1/1" xmlns:xsi="http://www.w3.org/2001/XMLSchema-instance" xsi:schemaLocation="http://www.topografix.com/GPX/1/1 http://www.topografix.com/GPX/1/1/gpx.xsd" version="1.1" creator="VisuGPX - https://www.visugpx.com">
  <metadata>
    <name>Contrazy Marche 19 juil. 2020 à 09:15</name>
  </metadata>
  <trk>
    <name><![CDATA[Contrazy Marche 19 juil. 2020 à 09:15]]></name>
    <trkseg>
      <trkpt lat="43.05899" lon="1.21414">
        <ele>562.8</ele>
        <time>2020-07-19T07:15:54Z</time>
      </trkpt>
      <trkpt lat="43.059" lon="1.21408">
        <ele>563.9</ele>
        <time>2020-07-19T07:16:10Z</time>
      </trkpt>
      <trkpt lat="43.05897" lon="1.21403">
        <ele>565.4</ele>
        <time>2020-07-19T07:17:00Z</time>
      </trkpt>
      <trkpt lat="43.05898" lon="1.21398">
        <ele>565.3</ele>
        <time>2020-07-19T07:17:14Z</time>
      </trkpt>
      <trkpt lat="43.05896" lon="1.21401">
        <ele>564.8</ele>
        <time>2020-07-19T07:17:23Z</time>
      </trkpt>
      <trkpt lat="43.05898" lon="1.214">
        <ele>563.1</ele>
        <time>2020-07-19T07:19:31Z</time>
      </trkpt>
      <trkpt lat="43.05903" lon="1.21406">
        <ele>563.6</ele>
        <time>2020-07-19T07:19:36Z</time>
      </trkpt>
      <trkpt lat="43.05907" lon="1.21405">
        <ele>563.5</ele>
        <time>2020-07-19T07:19:43Z</time>
      </trkpt>
      <trkpt lat="43.05904" lon="1.21402">
        <ele>563.7</ele>
        <time>2020-07-19T07:19:52Z</time>
      </trkpt>
      <trkpt lat="43.05902" lon="1.21401">
        <ele>563.6</ele>
        <time>2020-07-19T07:20:31Z</time>
      </trkpt>
      <trkpt lat="43.05896" lon="1.21406">
        <ele>563</ele>
        <time>2020-07-19T07:20:36Z</time>
      </trkpt>
      <trkpt lat="43.05894" lon="1.2141">
        <ele>563</ele>
        <time>2020-07-19T07:20:42Z</time>
      </trkpt>
      <trkpt lat="43.05892" lon="1.21419">
        <ele>562.8</ele>
        <time>2020-07-19T07:20:47Z</time>
      </trkpt>
      <trkpt lat="43.0589" lon="1.21424">
        <ele>562.6</ele>
        <time>2020-07-19T07:20:53Z</time>
      </trkpt>
      <trkpt lat="43.05892" lon="1.21419">
        <ele>561.3</ele>
        <time>2020-07-19T07:21:24Z</time>
      </trkpt>
      <trkpt lat="43.05891" lon="1.21413">
        <ele>561.1</ele>
        <time>2020-07-19T07:21:30Z</time>
      </trkpt>
      <trkpt lat="43.05886" lon="1.2141">
        <ele>561.3</ele>
        <time>2020-07-19T07:21:34Z</time>
      </trkpt>
      <trkpt lat="43.05885" lon="1.21405">
        <ele>561.7</ele>
        <time>2020-07-19T07:21:39Z</time>
      </trkpt>
      <trkpt lat="43.05883" lon="1.214">
        <ele>561.9</ele>
        <time>2020-07-19T07:21:46Z</time>
      </trkpt>
      <trkpt lat="43.0588" lon="1.21397">
        <ele>562.1</ele>
        <time>2020-07-19T07:21:51Z</time>
      </trkpt>
      <trkpt lat="43.05875" lon="1.21394">
        <ele>561.9</ele>
        <time>2020-07-19T07:21:56Z</time>
      </trkpt>
      <trkpt lat="43.05871" lon="1.21393">
        <ele>561.7</ele>
        <time>2020-07-19T07:22:00Z</time>
      </trkpt>
      <trkpt lat="43.05867" lon="1.21392">
        <ele>561.7</ele>
        <time>2020-07-19T07:22:05Z</time>
      </trkpt>
      <trkpt lat="43.05864" lon="1.21389">
        <ele>561.8</ele>
        <time>2020-07-19T07:22:12Z</time>
      </trkpt>
      <trkpt lat="43.0586" lon="1.21386">
        <ele>562.3</ele>
        <time>2020-07-19T07:22:17Z</time>
      </trkpt>
      <trkpt lat="43.05858" lon="1.21381">
        <ele>562.8</ele>
        <time>2020-07-19T07:22:24Z</time>
      </trkpt>
      <trkpt lat="43.05856" lon="1.21377">
        <ele>563.1</ele>
        <time>2020-07-19T07:22:31Z</time>
      </trkpt>
      <trkpt lat="43.05855" lon="1.21368">
        <ele>563.5</ele>
        <time>2020-07-19T07:22:36Z</time>
      </trkpt>
      <trkpt lat="43.05851" lon="1.21365">
        <ele>564.2</ele>
        <time>2020-07-19T07:22:41Z</time>
      </trkpt>
      <trkpt lat="43.05847" lon="1.21364">
        <ele>565.3</ele>
        <time>2020-07-19T07:22:46Z</time>
      </trkpt>
      <trkpt lat="43.05843" lon="1.21361">
        <ele>566</ele>
        <time>2020-07-19T07:22:50Z</time>
      </trkpt>
      <trkpt lat="43.0584" lon="1.21357">
        <ele>566.9</ele>
        <time>2020-07-19T07:22:57Z</time>
      </trkpt>
      <trkpt lat="43.05838" lon="1.21352">
        <ele>568.2</ele>
        <time>2020-07-19T07:23:04Z</time>
      </trkpt>
      <trkpt lat="43.05834" lon="1.21349">
        <ele>570</ele>
        <time>2020-07-19T07:23:10Z</time>
      </trkpt>
      <trkpt lat="43.05831" lon="1.21344">
        <ele>571.1</ele>
        <time>2020-07-19T07:23:16Z</time>
      </trkpt>
      <trkpt lat="43.05833" lon="1.21338">
        <ele>572.1</ele>
        <time>2020-07-19T07:23:23Z</time>
      </trkpt>
      <trkpt lat="43.05831" lon="1.21334">
        <ele>572.9</ele>
        <time>2020-07-19T07:23:30Z</time>
      </trkpt>
      <trkpt lat="43.05829" lon="1.21328">
        <ele>573.6</ele>
        <time>2020-07-19T07:23:35Z</time>
      </trkpt>
      <trkpt lat="43.05829" lon="1.21323">
        <ele>574.2</ele>
        <time>2020-07-19T07:23:41Z</time>
      </trkpt>
      <trkpt lat="43.05826" lon="1.21316">
        <ele>574.7</ele>
        <time>2020-07-19T07:23:45Z</time>
      </trkpt>
      <trkpt lat="43.05824" lon="1.21311">
        <ele>575.6</ele>
        <time>2020-07-19T07:23:50Z</time>
      </trkpt>
      <trkpt lat="43.0582" lon="1.21307">
        <ele>576</ele>
        <time>2020-07-19T07:23:54Z</time>
      </trkpt>
      <trkpt lat="43.05818" lon="1.21302">
        <ele>576.4</ele>
        <time>2020-07-19T07:23:59Z</time>
      </trkpt>
      <trkpt lat="43.05816" lon="1.21297">
        <ele>576.8</ele>
        <time>2020-07-19T07:24:03Z</time>
      </trkpt>
      <trkpt lat="43.05811" lon="1.21292">
        <ele>577.4</ele>
        <time>2020-07-19T07:24:07Z</time>
      </trkpt>
      <trkpt lat="43.05808" lon="1.21288">
        <ele>578.3</ele>
        <time>2020-07-19T07:24:12Z</time>
      </trkpt>
      <trkpt lat="43.05804" lon="1.21286">
        <ele>579.4</ele>
        <time>2020-07-19T07:24:20Z</time>
      </trkpt>
      <trkpt lat="43.05802" lon="1.21282">
        <ele>580.4</ele>
        <time>2020-07-19T07:24:25Z</time>
      </trkpt>
      <trkpt lat="43.05799" lon="1.21277">
        <ele>582.1</ele>
        <time>2020-07-19T07:24:34Z</time>
      </trkpt>
      <trkpt lat="43.05797" lon="1.21272">
        <ele>582.8</ele>
        <time>2020-07-19T07:24:39Z</time>
      </trkpt>
      <trkpt lat="43.05794" lon="1.21267">
        <ele>583.4</ele>
        <time>2020-07-19T07:24:44Z</time>
      </trkpt>
      <trkpt lat="43.05791" lon="1.21263">
        <ele>584.3</ele>
        <time>2020-07-19T07:24:49Z</time>
      </trkpt>
      <trkpt lat="43.05787" lon="1.2126">
        <ele>585.5</ele>
        <time>2020-07-19T07:24:54Z</time>
      </trkpt>
      <trkpt lat="43.05784" lon="1.21255">
        <ele>586.9</ele>
        <time>2020-07-19T07:25:01Z</time>
      </trkpt>
      <trkpt lat="43.05779" lon="1.21253">
        <ele>588</ele>
        <time>2020-07-19T07:25:06Z</time>
      </trkpt>
      <trkpt lat="43.05776" lon="1.21253">
        <ele>588.7</ele>
        <time>2020-07-19T07:25:10Z</time>
      </trkpt>
      <trkpt lat="43.05772" lon="1.2125">
        <ele>589.7</ele>
        <time>2020-07-19T07:25:14Z</time>
      </trkpt>
      <trkpt lat="43.05766" lon="1.21244">
        <ele>591</ele>
        <time>2020-07-19T07:25:19Z</time>
      </trkpt>
      <trkpt lat="43.05763" lon="1.21241">
        <ele>592.3</ele>
        <time>2020-07-19T07:25:26Z</time>
      </trkpt>
      <trkpt lat="43.0576" lon="1.21237">
        <ele>593.8</ele>
        <time>2020-07-19T07:25:35Z</time>
      </trkpt>
      <trkpt lat="43.05756" lon="1.21234">
        <ele>594.8</ele>
        <time>2020-07-19T07:25:40Z</time>
      </trkpt>
      <trkpt lat="43.05753" lon="1.2123">
        <ele>595.8</ele>
        <time>2020-07-19T07:25:44Z</time>
      </trkpt>
      <trkpt lat="43.05749" lon="1.21227">
        <ele>596.4</ele>
        <time>2020-07-19T07:25:48Z</time>
      </trkpt>
      <trkpt lat="43.05745" lon="1.21223">
        <ele>597.7</ele>
        <time>2020-07-19T07:25:53Z</time>
      </trkpt>
      <trkpt lat="43.05741" lon="1.21221">
        <ele>599</ele>
        <time>2020-07-19T07:25:58Z</time>
      </trkpt>
      <trkpt lat="43.05737" lon="1.2122">
        <ele>599.9</ele>
        <time>2020-07-19T07:26:02Z</time>
      </trkpt>
      <trkpt lat="43.05734" lon="1.21217">
        <ele>600.7</ele>
        <time>2020-07-19T07:26:06Z</time>
      </trkpt>
      <trkpt lat="43.0573" lon="1.2122">
        <ele>603.6</ele>
        <time>2020-07-19T07:26:20Z</time>
      </trkpt>
      <trkpt lat="43.05728" lon="1.21221">
        <ele>603.8</ele>
        <time>2020-07-19T07:26:27Z</time>
      </trkpt>
      <trkpt lat="43.0572" lon="1.21223">
        <ele>604.8</ele>
        <time>2020-07-19T07:26:32Z</time>
      </trkpt>
      <trkpt lat="43.05716" lon="1.21225">
        <ele>605.5</ele>
        <time>2020-07-19T07:26:36Z</time>
      </trkpt>
      <trkpt lat="43.05712" lon="1.21227">
        <ele>606.5</ele>
        <time>2020-07-19T07:26:41Z</time>
      </trkpt>
      <trkpt lat="43.05708" lon="1.21232">
        <ele>607.5</ele>
        <time>2020-07-19T07:26:46Z</time>
      </trkpt>
      <trkpt lat="43.05707" lon="1.21239">
        <ele>608.7</ele>
        <time>2020-07-19T07:26:51Z</time>
      </trkpt>
      <trkpt lat="43.05706" lon="1.21245">
        <ele>609.6</ele>
        <time>2020-07-19T07:26:55Z</time>
      </trkpt>
      <trkpt lat="43.05702" lon="1.21247">
        <ele>610.2</ele>
        <time>2020-07-19T07:26:59Z</time>
      </trkpt>
      <trkpt lat="43.05698" lon="1.21249">
        <ele>610.9</ele>
        <time>2020-07-19T07:27:03Z</time>
      </trkpt>
      <trkpt lat="43.05695" lon="1.21253">
        <ele>611.7</ele>
        <time>2020-07-19T07:27:11Z</time>
      </trkpt>
      <trkpt lat="43.05692" lon="1.21256">
        <ele>612.4</ele>
        <time>2020-07-19T07:27:17Z</time>
      </trkpt>
      <trkpt lat="43.05689" lon="1.2126">
        <ele>612.9</ele>
        <time>2020-07-19T07:27:24Z</time>
      </trkpt>
      <trkpt lat="43.05686" lon="1.21267">
        <ele>613.1</ele>
        <time>2020-07-19T07:27:29Z</time>
      </trkpt>
      <trkpt lat="43.05684" lon="1.21273">
        <ele>613.6</ele>
        <time>2020-07-19T07:27:33Z</time>
      </trkpt>
      <trkpt lat="43.05681" lon="1.21277">
        <ele>615</ele>
        <time>2020-07-19T07:27:39Z</time>
      </trkpt>
      <trkpt lat="43.05677" lon="1.21279">
        <ele>615.3</ele>
        <time>2020-07-19T07:27:43Z</time>
      </trkpt>
      <trkpt lat="43.05673" lon="1.21281">
        <ele>616.1</ele>
        <time>2020-07-19T07:27:48Z</time>
      </trkpt>
      <trkpt lat="43.0567" lon="1.21284">
        <ele>617</ele>
        <time>2020-07-19T07:27:54Z</time>
      </trkpt>
      <trkpt lat="43.05667" lon="1.21289">
        <ele>617.7</ele>
        <time>2020-07-19T07:27:58Z</time>
      </trkpt>
      <trkpt lat="43.05663" lon="1.21293">
        <ele>619</ele>
        <time>2020-07-19T07:28:03Z</time>
      </trkpt>
      <trkpt lat="43.05659" lon="1.21292">
        <ele>619.8</ele>
        <time>2020-07-19T07:28:07Z</time>
      </trkpt>
      <trkpt lat="43.0565" lon="1.21286">
        <ele>618.8</ele>
        <time>2020-07-19T07:28:11Z</time>
      </trkpt>
      <trkpt lat="43.05644" lon="1.21283">
        <ele>617.5</ele>
        <time>2020-07-19T07:28:15Z</time>
      </trkpt>
      <trkpt lat="43.05642" lon="1.21288">
        <ele>616.7</ele>
        <time>2020-07-19T07:28:27Z</time>
      </trkpt>
      <trkpt lat="43.05638" lon="1.21286">
        <ele>617.6</ele>
        <time>2020-07-19T07:28:33Z</time>
      </trkpt>
      <trkpt lat="43.05633" lon="1.21284">
        <ele>618.6</ele>
        <time>2020-07-19T07:28:37Z</time>
      </trkpt>
      <trkpt lat="43.05624" lon="1.21282">
        <ele>618.9</ele>
        <time>2020-07-19T07:28:41Z</time>
      </trkpt>
      <trkpt lat="43.0562" lon="1.21281">
        <ele>618.3</ele>
        <time>2020-07-19T07:28:45Z</time>
      </trkpt>
      <trkpt lat="43.05615" lon="1.21279">
        <ele>617.4</ele>
        <time>2020-07-19T07:28:50Z</time>
      </trkpt>
      <trkpt lat="43.05612" lon="1.21276">
        <ele>618.1</ele>
        <time>2020-07-19T07:28:55Z</time>
      </trkpt>
      <trkpt lat="43.0561" lon="1.21271">
        <ele>618.4</ele>
        <time>2020-07-19T07:29:02Z</time>
      </trkpt>
      <trkpt lat="43.05608" lon="1.21266">
        <ele>618.9</ele>
        <time>2020-07-19T07:29:07Z</time>
      </trkpt>
      <trkpt lat="43.05605" lon="1.21263">
        <ele>618.8</ele>
        <time>2020-07-19T07:29:12Z</time>
      </trkpt>
      <trkpt lat="43.05602" lon="1.21262">
        <ele>619.4</ele>
        <time>2020-07-19T07:29:19Z</time>
      </trkpt>
      <trkpt lat="43.05599" lon="1.21259">
        <ele>618.3</ele>
        <time>2020-07-19T07:29:26Z</time>
      </trkpt>
      <trkpt lat="43.05595" lon="1.21257">
        <ele>617.5</ele>
        <time>2020-07-19T07:29:30Z</time>
      </trkpt>
      <trkpt lat="43.05589" lon="1.21252">
        <ele>617.7</ele>
        <time>2020-07-19T07:29:35Z</time>
      </trkpt>
      <trkpt lat="43.05588" lon="1.21255">
        <ele>618</ele>
        <time>2020-07-19T07:29:49Z</time>
      </trkpt>
      <trkpt lat="43.0558" lon="1.21254">
        <ele>618.2</ele>
        <time>2020-07-19T07:29:54Z</time>
      </trkpt>
      <trkpt lat="43.05576" lon="1.21251">
        <ele>618.4</ele>
        <time>2020-07-19T07:29:59Z</time>
      </trkpt>
      <trkpt lat="43.05572" lon="1.21248">
        <ele>618.5</ele>
        <time>2020-07-19T07:30:06Z</time>
      </trkpt>
      <trkpt lat="43.05567" lon="1.21247">
        <ele>618.6</ele>
        <time>2020-07-19T07:30:11Z</time>
      </trkpt>
      <trkpt lat="43.05562" lon="1.21248">
        <ele>618.5</ele>
        <time>2020-07-19T07:30:22Z</time>
      </trkpt>
      <trkpt lat="43.05558" lon="1.21248">
        <ele>618.7</ele>
        <time>2020-07-19T07:30:29Z</time>
      </trkpt>
      <trkpt lat="43.05551" lon="1.21245">
        <ele>619.1</ele>
        <time>2020-07-19T07:30:34Z</time>
      </trkpt>
      <trkpt lat="43.05545" lon="1.21245">
        <ele>619.1</ele>
        <time>2020-07-19T07:30:38Z</time>
      </trkpt>
      <trkpt lat="43.05538" lon="1.21243">
        <ele>619.1</ele>
        <time>2020-07-19T07:30:43Z</time>
      </trkpt>
      <trkpt lat="43.05534" lon="1.21242">
        <ele>619.2</ele>
        <time>2020-07-19T07:30:47Z</time>
      </trkpt>
      <trkpt lat="43.05529" lon="1.21239">
        <ele>619.3</ele>
        <time>2020-07-19T07:30:52Z</time>
      </trkpt>
      <trkpt lat="43.05525" lon="1.21237">
        <ele>619.4</ele>
        <time>2020-07-19T07:30:57Z</time>
      </trkpt>
      <trkpt lat="43.0552" lon="1.21238">
        <ele>619.5</ele>
        <time>2020-07-19T07:31:01Z</time>
      </trkpt>
      <trkpt lat="43.05515" lon="1.21237">
        <ele>619.6</ele>
        <time>2020-07-19T07:31:05Z</time>
      </trkpt>
      <trkpt lat="43.05509" lon="1.21236">
        <ele>619.6</ele>
        <time>2020-07-19T07:31:10Z</time>
      </trkpt>
      <trkpt lat="43.05506" lon="1.21235">
        <ele>619.8</ele>
        <time>2020-07-19T07:31:14Z</time>
      </trkpt>
      <trkpt lat="43.055" lon="1.21233">
        <ele>619.9</ele>
        <time>2020-07-19T07:31:19Z</time>
      </trkpt>
      <trkpt lat="43.05493" lon="1.21229">
        <ele>620.1</ele>
        <time>2020-07-19T07:31:24Z</time>
      </trkpt>
      <trkpt lat="43.05489" lon="1.21226">
        <ele>620.2</ele>
        <time>2020-07-19T07:31:28Z</time>
      </trkpt>
      <trkpt lat="43.05487" lon="1.21222">
        <ele>620.2</ele>
        <time>2020-07-19T07:31:32Z</time>
      </trkpt>
      <trkpt lat="43.05483" lon="1.2122">
        <ele>620.3</ele>
        <time>2020-07-19T07:31:38Z</time>
      </trkpt>
      <trkpt lat="43.05477" lon="1.2122">
        <ele>620.2</ele>
        <time>2020-07-19T07:31:43Z</time>
      </trkpt>
      <trkpt lat="43.05472" lon="1.21219">
        <ele>620.3</ele>
        <time>2020-07-19T07:31:47Z</time>
      </trkpt>
      <trkpt lat="43.05467" lon="1.2122">
        <ele>619.9</ele>
        <time>2020-07-19T07:31:52Z</time>
      </trkpt>
      <trkpt lat="43.05462" lon="1.21221">
        <ele>619.6</ele>
        <time>2020-07-19T07:31:56Z</time>
      </trkpt>
      <trkpt lat="43.05458" lon="1.21223">
        <ele>618.9</ele>
        <time>2020-07-19T07:32:01Z</time>
      </trkpt>
      <trkpt lat="43.05454" lon="1.21221">
        <ele>618.6</ele>
        <time>2020-07-19T07:32:06Z</time>
      </trkpt>
      <trkpt lat="43.05451" lon="1.21217">
        <ele>617.5</ele>
        <time>2020-07-19T07:32:12Z</time>
      </trkpt>
      <trkpt lat="43.05445" lon="1.21215">
        <ele>616.9</ele>
        <time>2020-07-19T07:32:17Z</time>
      </trkpt>
      <trkpt lat="43.0544" lon="1.21215">
        <ele>616.7</ele>
        <time>2020-07-19T07:32:21Z</time>
      </trkpt>
      <trkpt lat="43.05435" lon="1.21212">
        <ele>616.2</ele>
        <time>2020-07-19T07:32:25Z</time>
      </trkpt>
      <trkpt lat="43.05429" lon="1.21208">
        <ele>615.7</ele>
        <time>2020-07-19T07:32:30Z</time>
      </trkpt>
      <trkpt lat="43.05424" lon="1.21203">
        <ele>615.5</ele>
        <time>2020-07-19T07:32:34Z</time>
      </trkpt>
      <trkpt lat="43.05419" lon="1.21201">
        <ele>615.1</ele>
        <time>2020-07-19T07:32:39Z</time>
      </trkpt>
      <trkpt lat="43.05416" lon="1.21199">
        <ele>614.6</ele>
        <time>2020-07-19T07:32:43Z</time>
      </trkpt>
      <trkpt lat="43.05413" lon="1.21203">
        <ele>613.6</ele>
        <time>2020-07-19T07:32:48Z</time>
      </trkpt>
      <trkpt lat="43.0541" lon="1.21207">
        <ele>613.1</ele>
        <time>2020-07-19T07:32:53Z</time>
      </trkpt>
      <trkpt lat="43.05407" lon="1.21208">
        <ele>612.9</ele>
        <time>2020-07-19T07:32:57Z</time>
      </trkpt>
      <trkpt lat="43.05403" lon="1.21209">
        <ele>612.7</ele>
        <time>2020-07-19T07:33:02Z</time>
      </trkpt>
      <trkpt lat="43.05399" lon="1.2121">
        <ele>612.6</ele>
        <time>2020-07-19T07:33:08Z</time>
      </trkpt>
      <trkpt lat="43.05394" lon="1.21211">
        <ele>612.8</ele>
        <time>2020-07-19T07:33:13Z</time>
      </trkpt>
      <trkpt lat="43.0539" lon="1.21214">
        <ele>613</ele>
        <time>2020-07-19T07:33:17Z</time>
      </trkpt>
      <trkpt lat="43.05386" lon="1.21215">
        <ele>613.6</ele>
        <time>2020-07-19T07:33:22Z</time>
      </trkpt>
      <trkpt lat="43.05381" lon="1.21221">
        <ele>613.7</ele>
        <time>2020-07-19T07:33:26Z</time>
      </trkpt>
      <trkpt lat="43.05378" lon="1.21225">
        <ele>613.7</ele>
        <time>2020-07-19T07:33:31Z</time>
      </trkpt>
      <trkpt lat="43.05372" lon="1.21226">
        <ele>613.3</ele>
        <time>2020-07-19T07:33:35Z</time>
      </trkpt>
      <trkpt lat="43.05371" lon="1.21232">
        <ele>613.8</ele>
        <time>2020-07-19T07:33:43Z</time>
      </trkpt>
      <trkpt lat="43.0537" lon="1.21239">
        <ele>614.2</ele>
        <time>2020-07-19T07:33:47Z</time>
      </trkpt>
      <trkpt lat="43.05365" lon="1.21245">
        <ele>615.1</ele>
        <time>2020-07-19T07:33:52Z</time>
      </trkpt>
      <trkpt lat="43.05361" lon="1.21249">
        <ele>616.2</ele>
        <time>2020-07-19T07:33:57Z</time>
      </trkpt>
      <trkpt lat="43.05361" lon="1.21255">
        <ele>616.8</ele>
        <time>2020-07-19T07:34:02Z</time>
      </trkpt>
      <trkpt lat="43.05357" lon="1.2126">
        <ele>616.7</ele>
        <time>2020-07-19T07:34:06Z</time>
      </trkpt>
      <trkpt lat="43.05354" lon="1.21265">
        <ele>618.1</ele>
        <time>2020-07-19T07:34:10Z</time>
      </trkpt>
      <trkpt lat="43.05355" lon="1.2127">
        <ele>619.7</ele>
        <time>2020-07-19T07:34:14Z</time>
      </trkpt>
      <trkpt lat="43.05355" lon="1.21276">
        <ele>620.6</ele>
        <time>2020-07-19T07:34:19Z</time>
      </trkpt>
      <trkpt lat="43.0535" lon="1.21282">
        <ele>621.6</ele>
        <time>2020-07-19T07:34:24Z</time>
      </trkpt>
      <trkpt lat="43.05353" lon="1.21282">
        <ele>623.1</ele>
        <time>2020-07-19T07:34:31Z</time>
      </trkpt>
      <trkpt lat="43.05349" lon="1.21283">
        <ele>623.9</ele>
        <time>2020-07-19T07:34:45Z</time>
      </trkpt>
      <trkpt lat="43.05344" lon="1.21283">
        <ele>624.2</ele>
        <time>2020-07-19T07:34:49Z</time>
      </trkpt>
      <trkpt lat="43.05342" lon="1.21287">
        <ele>624.7</ele>
        <time>2020-07-19T07:34:53Z</time>
      </trkpt>
      <trkpt lat="43.05348" lon="1.21297">
        <ele>625.2</ele>
        <time>2020-07-19T07:34:58Z</time>
      </trkpt>
      <trkpt lat="43.05349" lon="1.21301">
        <ele>625.3</ele>
        <time>2020-07-19T07:35:03Z</time>
      </trkpt>
      <trkpt lat="43.05349" lon="1.21307">
        <ele>625.9</ele>
        <time>2020-07-19T07:35:07Z</time>
      </trkpt>
      <trkpt lat="43.05346" lon="1.2131">
        <ele>627</ele>
        <time>2020-07-19T07:35:13Z</time>
      </trkpt>
      <trkpt lat="43.0534" lon="1.21309">
        <ele>628.5</ele>
        <time>2020-07-19T07:35:17Z</time>
      </trkpt>
      <trkpt lat="43.05334" lon="1.21314">
        <ele>630.7</ele>
        <time>2020-07-19T07:35:22Z</time>
      </trkpt>
      <trkpt lat="43.05332" lon="1.21318">
        <ele>631.7</ele>
        <time>2020-07-19T07:35:27Z</time>
      </trkpt>
      <trkpt lat="43.05332" lon="1.21325">
        <ele>632.8</ele>
        <time>2020-07-19T07:35:31Z</time>
      </trkpt>
      <trkpt lat="43.05332" lon="1.21331">
        <ele>634</ele>
        <time>2020-07-19T07:35:35Z</time>
      </trkpt>
      <trkpt lat="43.0533" lon="1.21336">
        <ele>635.5</ele>
        <time>2020-07-19T07:35:41Z</time>
      </trkpt>
      <trkpt lat="43.0533" lon="1.21341">
        <ele>637.1</ele>
        <time>2020-07-19T07:35:46Z</time>
      </trkpt>
      <trkpt lat="43.05329" lon="1.21346">
        <ele>638.3</ele>
        <time>2020-07-19T07:35:51Z</time>
      </trkpt>
      <trkpt lat="43.0533" lon="1.21351">
        <ele>640.2</ele>
        <time>2020-07-19T07:35:56Z</time>
      </trkpt>
      <trkpt lat="43.05329" lon="1.21355">
        <ele>641.3</ele>
        <time>2020-07-19T07:36:00Z</time>
      </trkpt>
      <trkpt lat="43.0533" lon="1.21361">
        <ele>641.9</ele>
        <time>2020-07-19T07:36:05Z</time>
      </trkpt>
      <trkpt lat="43.05329" lon="1.21367">
        <ele>642.6</ele>
        <time>2020-07-19T07:36:10Z</time>
      </trkpt>
      <trkpt lat="43.05325" lon="1.21371">
        <ele>643</ele>
        <time>2020-07-19T07:36:14Z</time>
      </trkpt>
      <trkpt lat="43.05321" lon="1.21374">
        <ele>644.3</ele>
        <time>2020-07-19T07:36:19Z</time>
      </trkpt>
      <trkpt lat="43.05317" lon="1.21378">
        <ele>646.1</ele>
        <time>2020-07-19T07:36:24Z</time>
      </trkpt>
      <trkpt lat="43.0532" lon="1.21382">
        <ele>645.9</ele>
        <time>2020-07-19T07:36:29Z</time>
      </trkpt>
      <trkpt lat="43.05318" lon="1.21385">
        <ele>645.1</ele>
        <time>2020-07-19T07:36:37Z</time>
      </trkpt>
      <trkpt lat="43.05318" lon="1.21393">
        <ele>645.5</ele>
        <time>2020-07-19T07:36:41Z</time>
      </trkpt>
      <trkpt lat="43.05315" lon="1.214">
        <ele>646.5</ele>
        <time>2020-07-19T07:36:46Z</time>
      </trkpt>
      <trkpt lat="43.05312" lon="1.21404">
        <ele>646.7</ele>
        <time>2020-07-19T07:36:50Z</time>
      </trkpt>
      <trkpt lat="43.05308" lon="1.21409">
        <ele>646.7</ele>
        <time>2020-07-19T07:36:54Z</time>
      </trkpt>
      <trkpt lat="43.05308" lon="1.21415">
        <ele>645.1</ele>
        <time>2020-07-19T07:37:00Z</time>
      </trkpt>
      <trkpt lat="43.05305" lon="1.21419">
        <ele>644</ele>
        <time>2020-07-19T07:37:04Z</time>
      </trkpt>
      <trkpt lat="43.053" lon="1.21423">
        <ele>642.5</ele>
        <time>2020-07-19T07:37:08Z</time>
      </trkpt>
      <trkpt lat="43.05298" lon="1.21425">
        <ele>642</ele>
        <time>2020-07-19T07:37:13Z</time>
      </trkpt>
      <trkpt lat="43.05296" lon="1.21431">
        <ele>641.4</ele>
        <time>2020-07-19T07:37:17Z</time>
      </trkpt>
      <trkpt lat="43.05291" lon="1.21435">
        <ele>642</ele>
        <time>2020-07-19T07:37:22Z</time>
      </trkpt>
      <trkpt lat="43.05289" lon="1.2144">
        <ele>641.6</ele>
        <time>2020-07-19T07:37:31Z</time>
      </trkpt>
      <trkpt lat="43.05286" lon="1.21444">
        <ele>641.1</ele>
        <time>2020-07-19T07:37:35Z</time>
      </trkpt>
      <trkpt lat="43.05281" lon="1.21446">
        <ele>640.5</ele>
        <time>2020-07-19T07:37:42Z</time>
      </trkpt>
      <trkpt lat="43.05278" lon="1.21444">
        <ele>636.7</ele>
        <time>2020-07-19T07:37:52Z</time>
      </trkpt>
      <trkpt lat="43.05271" lon="1.2145">
        <ele>632.2</ele>
        <time>2020-07-19T07:37:57Z</time>
      </trkpt>
      <trkpt lat="43.05267" lon="1.21457">
        <ele>631</ele>
        <time>2020-07-19T07:38:01Z</time>
      </trkpt>
      <trkpt lat="43.05262" lon="1.21464">
        <ele>630</ele>
        <time>2020-07-19T07:38:05Z</time>
      </trkpt>
      <trkpt lat="43.05258" lon="1.21471">
        <ele>628.7</ele>
        <time>2020-07-19T07:38:10Z</time>
      </trkpt>
      <trkpt lat="43.05253" lon="1.21474">
        <ele>628.6</ele>
        <time>2020-07-19T07:38:14Z</time>
      </trkpt>
      <trkpt lat="43.05249" lon="1.21477">
        <ele>628.2</ele>
        <time>2020-07-19T07:38:19Z</time>
      </trkpt>
      <trkpt lat="43.05244" lon="1.21477">
        <ele>625.4</ele>
        <time>2020-07-19T07:38:26Z</time>
      </trkpt>
      <trkpt lat="43.05242" lon="1.2148">
        <ele>623.8</ele>
        <time>2020-07-19T07:38:30Z</time>
      </trkpt>
      <trkpt lat="43.0524" lon="1.21488">
        <ele>621.4</ele>
        <time>2020-07-19T07:38:35Z</time>
      </trkpt>
      <trkpt lat="43.05237" lon="1.21491">
        <ele>618.4</ele>
        <time>2020-07-19T07:38:43Z</time>
      </trkpt>
      <trkpt lat="43.0523" lon="1.21499">
        <ele>617.7</ele>
        <time>2020-07-19T07:38:48Z</time>
      </trkpt>
      <trkpt lat="43.05228" lon="1.21503">
        <ele>617.7</ele>
        <time>2020-07-19T07:38:52Z</time>
      </trkpt>
      <trkpt lat="43.05223" lon="1.21509">
        <ele>617.5</ele>
        <time>2020-07-19T07:38:57Z</time>
      </trkpt>
      <trkpt lat="43.05219" lon="1.2151">
        <ele>617.2</ele>
        <time>2020-07-19T07:39:02Z</time>
      </trkpt>
      <trkpt lat="43.05217" lon="1.21514">
        <ele>615.7</ele>
        <time>2020-07-19T07:39:07Z</time>
      </trkpt>
      <trkpt lat="43.05213" lon="1.21515">
        <ele>614.7</ele>
        <time>2020-07-19T07:39:11Z</time>
      </trkpt>
      <trkpt lat="43.0521" lon="1.21518">
        <ele>613.7</ele>
        <time>2020-07-19T07:39:15Z</time>
      </trkpt>
      <trkpt lat="43.05206" lon="1.21521">
        <ele>612.8</ele>
        <time>2020-07-19T07:39:21Z</time>
      </trkpt>
      <trkpt lat="43.05203" lon="1.21526">
        <ele>611.9</ele>
        <time>2020-07-19T07:39:26Z</time>
      </trkpt>
      <trkpt lat="43.05199" lon="1.2153">
        <ele>611.4</ele>
        <time>2020-07-19T07:39:30Z</time>
      </trkpt>
      <trkpt lat="43.05195" lon="1.2153">
        <ele>612</ele>
        <time>2020-07-19T07:39:35Z</time>
      </trkpt>
      <trkpt lat="43.05196" lon="1.21524">
        <ele>611.4</ele>
        <time>2020-07-19T07:39:44Z</time>
      </trkpt>
      <trkpt lat="43.05197" lon="1.2153">
        <ele>612.5</ele>
        <time>2020-07-19T07:39:58Z</time>
      </trkpt>
      <trkpt lat="43.05197" lon="1.21537">
        <ele>613.3</ele>
        <time>2020-07-19T07:40:03Z</time>
      </trkpt>
      <trkpt lat="43.05194" lon="1.21542">
        <ele>614.6</ele>
        <time>2020-07-19T07:40:09Z</time>
      </trkpt>
      <trkpt lat="43.05192" lon="1.21547">
        <ele>616.8</ele>
        <time>2020-07-19T07:40:19Z</time>
      </trkpt>
      <trkpt lat="43.05195" lon="1.21551">
        <ele>618.4</ele>
        <time>2020-07-19T07:40:25Z</time>
      </trkpt>
      <trkpt lat="43.05194" lon="1.21551">
        <ele>625.8</ele>
        <time>2020-07-19T07:41:31Z</time>
      </trkpt>
      <trkpt lat="43.05192" lon="1.21547">
        <ele>626.2</ele>
        <time>2020-07-19T07:41:39Z</time>
      </trkpt>
      <trkpt lat="43.05195" lon="1.21548">
        <ele>626.2</ele>
        <time>2020-07-19T07:41:54Z</time>
      </trkpt>
      <trkpt lat="43.05199" lon="1.21553">
        <ele>626.2</ele>
        <time>2020-07-19T07:41:59Z</time>
      </trkpt>
      <trkpt lat="43.05199" lon="1.21554">
        <ele>626.2</ele>
        <time>2020-07-19T07:42:11Z</time>
      </trkpt>
      <trkpt lat="43.05207" lon="1.21558">
        <ele>625.8</ele>
        <time>2020-07-19T07:42:15Z</time>
      </trkpt>
      <trkpt lat="43.05207" lon="1.21559">
        <ele>625.6</ele>
        <time>2020-07-19T07:42:35Z</time>
      </trkpt>
      <trkpt lat="43.05203" lon="1.21545">
        <ele>625.4</ele>
        <time>2020-07-19T07:42:39Z</time>
      </trkpt>
      <trkpt lat="43.05201" lon="1.2155">
        <ele>623.1</ele>
        <time>2020-07-19T07:43:05Z</time>
      </trkpt>
      <trkpt lat="43.05203" lon="1.21558">
        <ele>623</ele>
        <time>2020-07-19T07:43:10Z</time>
      </trkpt>
      <trkpt lat="43.05207" lon="1.21558">
        <ele>622.9</ele>
        <time>2020-07-19T07:43:16Z</time>
      </trkpt>
      <trkpt lat="43.05208" lon="1.2156">
        <ele>622.9</ele>
        <time>2020-07-19T07:43:27Z</time>
      </trkpt>
      <trkpt lat="43.05207" lon="1.21572">
        <ele>622.7</ele>
        <time>2020-07-19T07:43:31Z</time>
      </trkpt>
      <trkpt lat="43.05208" lon="1.21583">
        <ele>622.6</ele>
        <time>2020-07-19T07:43:36Z</time>
      </trkpt>
      <trkpt lat="43.0521" lon="1.21593">
        <ele>622.8</ele>
        <time>2020-07-19T07:43:41Z</time>
      </trkpt>
      <trkpt lat="43.0521" lon="1.21601">
        <ele>623.3</ele>
        <time>2020-07-19T07:43:45Z</time>
      </trkpt>
      <trkpt lat="43.0521" lon="1.21609">
        <ele>623.5</ele>
        <time>2020-07-19T07:43:49Z</time>
      </trkpt>
      <trkpt lat="43.05209" lon="1.21622">
        <ele>623.5</ele>
        <time>2020-07-19T07:43:53Z</time>
      </trkpt>
      <trkpt lat="43.05212" lon="1.2163">
        <ele>622.4</ele>
        <time>2020-07-19T07:43:58Z</time>
      </trkpt>
      <trkpt lat="43.05217" lon="1.21637">
        <ele>620.8</ele>
        <time>2020-07-19T07:44:03Z</time>
      </trkpt>
      <trkpt lat="43.0522" lon="1.2164">
        <ele>618.6</ele>
        <time>2020-07-19T07:44:07Z</time>
      </trkpt>
      <trkpt lat="43.05222" lon="1.21644">
        <ele>617.5</ele>
        <time>2020-07-19T07:44:11Z</time>
      </trkpt>
      <trkpt lat="43.05224" lon="1.21656">
        <ele>617</ele>
        <time>2020-07-19T07:44:16Z</time>
      </trkpt>
      <trkpt lat="43.05225" lon="1.21665">
        <ele>616.8</ele>
        <time>2020-07-19T07:44:20Z</time>
      </trkpt>
      <trkpt lat="43.05227" lon="1.21675">
        <ele>615.8</ele>
        <time>2020-07-19T07:44:25Z</time>
      </trkpt>
      <trkpt lat="43.05227" lon="1.2168">
        <ele>614.4</ele>
        <time>2020-07-19T07:44:29Z</time>
      </trkpt>
      <trkpt lat="43.0523" lon="1.2169">
        <ele>611.6</ele>
        <time>2020-07-19T07:44:34Z</time>
      </trkpt>
      <trkpt lat="43.0523" lon="1.217">
        <ele>610.1</ele>
        <time>2020-07-19T07:44:38Z</time>
      </trkpt>
      <trkpt lat="43.05231" lon="1.2171">
        <ele>609.2</ele>
        <time>2020-07-19T07:44:43Z</time>
      </trkpt>
      <trkpt lat="43.05235" lon="1.21712">
        <ele>608.3</ele>
        <time>2020-07-19T07:44:48Z</time>
      </trkpt>
      <trkpt lat="43.05236" lon="1.21721">
        <ele>607.6</ele>
        <time>2020-07-19T07:44:53Z</time>
      </trkpt>
      <trkpt lat="43.05237" lon="1.21726">
        <ele>607.6</ele>
        <time>2020-07-19T07:44:57Z</time>
      </trkpt>
      <trkpt lat="43.05237" lon="1.21732">
        <ele>607.3</ele>
        <time>2020-07-19T07:45:01Z</time>
      </trkpt>
      <trkpt lat="43.05238" lon="1.21737">
        <ele>606.9</ele>
        <time>2020-07-19T07:45:07Z</time>
      </trkpt>
      <trkpt lat="43.05238" lon="1.21744">
        <ele>606.4</ele>
        <time>2020-07-19T07:45:11Z</time>
      </trkpt>
      <trkpt lat="43.0524" lon="1.21749">
        <ele>602.7</ele>
        <time>2020-07-19T07:45:33Z</time>
      </trkpt>
      <trkpt lat="43.05241" lon="1.21754">
        <ele>602.4</ele>
        <time>2020-07-19T07:45:58Z</time>
      </trkpt>
      <trkpt lat="43.05243" lon="1.2176">
        <ele>602.9</ele>
        <time>2020-07-19T07:46:02Z</time>
      </trkpt>
      <trkpt lat="43.05245" lon="1.21768">
        <ele>603.4</ele>
        <time>2020-07-19T07:46:07Z</time>
      </trkpt>
      <trkpt lat="43.05245" lon="1.21776">
        <ele>604.1</ele>
        <time>2020-07-19T07:46:12Z</time>
      </trkpt>
      <trkpt lat="43.05247" lon="1.21784">
        <ele>604.6</ele>
        <time>2020-07-19T07:46:16Z</time>
      </trkpt>
      <trkpt lat="43.05247" lon="1.21793">
        <ele>605.3</ele>
        <time>2020-07-19T07:46:21Z</time>
      </trkpt>
      <trkpt lat="43.05249" lon="1.21798">
        <ele>605.8</ele>
        <time>2020-07-19T07:46:25Z</time>
      </trkpt>
      <trkpt lat="43.0525" lon="1.21805">
        <ele>606.3</ele>
        <time>2020-07-19T07:46:29Z</time>
      </trkpt>
      <trkpt lat="43.0525" lon="1.21813">
        <ele>606.8</ele>
        <time>2020-07-19T07:46:34Z</time>
      </trkpt>
      <trkpt lat="43.0525" lon="1.21821">
        <ele>607</ele>
        <time>2020-07-19T07:46:38Z</time>
      </trkpt>
      <trkpt lat="43.05251" lon="1.21828">
        <ele>607.2</ele>
        <time>2020-07-19T07:46:43Z</time>
      </trkpt>
      <trkpt lat="43.05252" lon="1.21833">
        <ele>607.4</ele>
        <time>2020-07-19T07:46:47Z</time>
      </trkpt>
      <trkpt lat="43.05254" lon="1.21842">
        <ele>608.2</ele>
        <time>2020-07-19T07:46:52Z</time>
      </trkpt>
      <trkpt lat="43.05257" lon="1.21851">
        <ele>608.7</ele>
        <time>2020-07-19T07:46:57Z</time>
      </trkpt>
      <trkpt lat="43.05259" lon="1.21857">
        <ele>609.3</ele>
        <time>2020-07-19T07:47:01Z</time>
      </trkpt>
      <trkpt lat="43.05262" lon="1.21863">
        <ele>610</ele>
        <time>2020-07-19T07:47:05Z</time>
      </trkpt>
      <trkpt lat="43.05261" lon="1.21869">
        <ele>610.9</ele>
        <time>2020-07-19T07:47:10Z</time>
      </trkpt>
      <trkpt lat="43.05261" lon="1.21875">
        <ele>611.5</ele>
        <time>2020-07-19T07:47:14Z</time>
      </trkpt>
      <trkpt lat="43.05261" lon="1.2188">
        <ele>612</ele>
        <time>2020-07-19T07:47:18Z</time>
      </trkpt>
      <trkpt lat="43.0526" lon="1.21886">
        <ele>612.8</ele>
        <time>2020-07-19T07:47:22Z</time>
      </trkpt>
      <trkpt lat="43.05261" lon="1.21892">
        <ele>613</ele>
        <time>2020-07-19T07:47:27Z</time>
      </trkpt>
      <trkpt lat="43.05264" lon="1.21901">
        <ele>613.2</ele>
        <time>2020-07-19T07:47:32Z</time>
      </trkpt>
      <trkpt lat="43.05264" lon="1.21908">
        <ele>613.4</ele>
        <time>2020-07-19T07:47:36Z</time>
      </trkpt>
      <trkpt lat="43.05263" lon="1.21917">
        <ele>614</ele>
        <time>2020-07-19T07:47:41Z</time>
      </trkpt>
      <trkpt lat="43.05263" lon="1.21924">
        <ele>614.6</ele>
        <time>2020-07-19T07:47:46Z</time>
      </trkpt>
      <trkpt lat="43.05263" lon="1.21929">
        <ele>615.5</ele>
        <time>2020-07-19T07:47:53Z</time>
      </trkpt>
      <trkpt lat="43.05264" lon="1.21937">
        <ele>616.4</ele>
        <time>2020-07-19T07:47:58Z</time>
      </trkpt>
      <trkpt lat="43.05263" lon="1.21944">
        <ele>617.1</ele>
        <time>2020-07-19T07:48:02Z</time>
      </trkpt>
      <trkpt lat="43.05263" lon="1.21951">
        <ele>618.1</ele>
        <time>2020-07-19T07:48:07Z</time>
      </trkpt>
      <trkpt lat="43.05263" lon="1.21958">
        <ele>619</ele>
        <time>2020-07-19T07:48:11Z</time>
      </trkpt>
      <trkpt lat="43.05264" lon="1.21965">
        <ele>620.2</ele>
        <time>2020-07-19T07:48:16Z</time>
      </trkpt>
      <trkpt lat="43.05266" lon="1.21975">
        <ele>620.7</ele>
        <time>2020-07-19T07:48:21Z</time>
      </trkpt>
      <trkpt lat="43.05268" lon="1.2198">
        <ele>621</ele>
        <time>2020-07-19T07:48:25Z</time>
      </trkpt>
      <trkpt lat="43.0527" lon="1.21985">
        <ele>621.6</ele>
        <time>2020-07-19T07:48:29Z</time>
      </trkpt>
      <trkpt lat="43.05274" lon="1.2199">
        <ele>622.2</ele>
        <time>2020-07-19T07:48:33Z</time>
      </trkpt>
      <trkpt lat="43.05278" lon="1.21996">
        <ele>622.3</ele>
        <time>2020-07-19T07:48:37Z</time>
      </trkpt>
      <trkpt lat="43.05283" lon="1.21997">
        <ele>622.6</ele>
        <time>2020-07-19T07:48:41Z</time>
      </trkpt>
      <trkpt lat="43.05286" lon="1.22002">
        <ele>622.9</ele>
        <time>2020-07-19T07:48:45Z</time>
      </trkpt>
      <trkpt lat="43.05288" lon="1.22008">
        <ele>623.3</ele>
        <time>2020-07-19T07:48:49Z</time>
      </trkpt>
      <trkpt lat="43.0529" lon="1.22014">
        <ele>623</ele>
        <time>2020-07-19T07:48:53Z</time>
      </trkpt>
      <trkpt lat="43.05295" lon="1.22019">
        <ele>621.1</ele>
        <time>2020-07-19T07:48:58Z</time>
      </trkpt>
      <trkpt lat="43.05297" lon="1.22024">
        <ele>619.9</ele>
        <time>2020-07-19T07:49:02Z</time>
      </trkpt>
      <trkpt lat="43.05299" lon="1.22029">
        <ele>619.5</ele>
        <time>2020-07-19T07:49:06Z</time>
      </trkpt>
      <trkpt lat="43.05304" lon="1.22034">
        <ele>619.2</ele>
        <time>2020-07-19T07:49:11Z</time>
      </trkpt>
      <trkpt lat="43.05307" lon="1.2204">
        <ele>618.6</ele>
        <time>2020-07-19T07:49:15Z</time>
      </trkpt>
      <trkpt lat="43.05311" lon="1.22042">
        <ele>618.3</ele>
        <time>2020-07-19T07:49:19Z</time>
      </trkpt>
      <trkpt lat="43.05315" lon="1.22046">
        <ele>619.2</ele>
        <time>2020-07-19T07:49:24Z</time>
      </trkpt>
      <trkpt lat="43.05316" lon="1.22052">
        <ele>619.3</ele>
        <time>2020-07-19T07:49:28Z</time>
      </trkpt>
      <trkpt lat="43.05321" lon="1.22054">
        <ele>619.3</ele>
        <time>2020-07-19T07:49:32Z</time>
      </trkpt>
      <trkpt lat="43.05325" lon="1.2206">
        <ele>619.2</ele>
        <time>2020-07-19T07:49:36Z</time>
      </trkpt>
      <trkpt lat="43.05326" lon="1.22066">
        <ele>619.3</ele>
        <time>2020-07-19T07:49:40Z</time>
      </trkpt>
      <trkpt lat="43.05327" lon="1.22072">
        <ele>619.3</ele>
        <time>2020-07-19T07:49:46Z</time>
      </trkpt>
      <trkpt lat="43.05329" lon="1.22081">
        <ele>619.1</ele>
        <time>2020-07-19T07:49:51Z</time>
      </trkpt>
      <trkpt lat="43.0533" lon="1.22087">
        <ele>619.9</ele>
        <time>2020-07-19T07:49:55Z</time>
      </trkpt>
      <trkpt lat="43.05332" lon="1.22091">
        <ele>620.6</ele>
        <time>2020-07-19T07:50:00Z</time>
      </trkpt>
      <trkpt lat="43.05335" lon="1.22097">
        <ele>620.8</ele>
        <time>2020-07-19T07:50:05Z</time>
      </trkpt>
      <trkpt lat="43.05341" lon="1.22104">
        <ele>621</ele>
        <time>2020-07-19T07:50:10Z</time>
      </trkpt>
      <trkpt lat="43.05343" lon="1.22109">
        <ele>621.4</ele>
        <time>2020-07-19T07:50:14Z</time>
      </trkpt>
      <trkpt lat="43.05345" lon="1.22116">
        <ele>621.8</ele>
        <time>2020-07-19T07:50:19Z</time>
      </trkpt>
      <trkpt lat="43.05345" lon="1.22122">
        <ele>621.8</ele>
        <time>2020-07-19T07:50:24Z</time>
      </trkpt>
      <trkpt lat="43.05347" lon="1.22127">
        <ele>622.2</ele>
        <time>2020-07-19T07:50:31Z</time>
      </trkpt>
      <trkpt lat="43.05349" lon="1.22131">
        <ele>622.6</ele>
        <time>2020-07-19T07:50:35Z</time>
      </trkpt>
      <trkpt lat="43.05353" lon="1.22138">
        <ele>623.2</ele>
        <time>2020-07-19T07:50:40Z</time>
      </trkpt>
      <trkpt lat="43.05354" lon="1.22143">
        <ele>623.6</ele>
        <time>2020-07-19T07:50:44Z</time>
      </trkpt>
      <trkpt lat="43.05355" lon="1.22148">
        <ele>623.9</ele>
        <time>2020-07-19T07:50:48Z</time>
      </trkpt>
      <trkpt lat="43.05357" lon="1.22155">
        <ele>624.2</ele>
        <time>2020-07-19T07:50:52Z</time>
      </trkpt>
      <trkpt lat="43.05359" lon="1.22162">
        <ele>624.5</ele>
        <time>2020-07-19T07:50:56Z</time>
      </trkpt>
      <trkpt lat="43.0536" lon="1.22169">
        <ele>625.1</ele>
        <time>2020-07-19T07:51:01Z</time>
      </trkpt>
      <trkpt lat="43.05362" lon="1.22173">
        <ele>625.6</ele>
        <time>2020-07-19T07:51:06Z</time>
      </trkpt>
      <trkpt lat="43.05364" lon="1.22179">
        <ele>626.3</ele>
        <time>2020-07-19T07:51:11Z</time>
      </trkpt>
      <trkpt lat="43.05365" lon="1.22184">
        <ele>626.8</ele>
        <time>2020-07-19T07:51:15Z</time>
      </trkpt>
      <trkpt lat="43.05364" lon="1.2219">
        <ele>627.3</ele>
        <time>2020-07-19T07:51:19Z</time>
      </trkpt>
      <trkpt lat="43.05363" lon="1.22197">
        <ele>627.7</ele>
        <time>2020-07-19T07:51:23Z</time>
      </trkpt>
      <trkpt lat="43.05363" lon="1.22205">
        <ele>628.7</ele>
        <time>2020-07-19T07:51:28Z</time>
      </trkpt>
      <trkpt lat="43.05366" lon="1.2221">
        <ele>629.6</ele>
        <time>2020-07-19T07:51:32Z</time>
      </trkpt>
      <trkpt lat="43.0537" lon="1.22212">
        <ele>629.6</ele>
        <time>2020-07-19T07:51:36Z</time>
      </trkpt>
      <trkpt lat="43.05373" lon="1.22208">
        <ele>628.6</ele>
        <time>2020-07-19T07:51:48Z</time>
      </trkpt>
      <trkpt lat="43.05369" lon="1.2221">
        <ele>626.4</ele>
        <time>2020-07-19T07:51:58Z</time>
      </trkpt>
      <trkpt lat="43.05367" lon="1.22212">
        <ele>626.1</ele>
        <time>2020-07-19T07:52:26Z</time>
      </trkpt>
      <trkpt lat="43.05372" lon="1.22203">
        <ele>627.4</ele>
        <time>2020-07-19T07:52:31Z</time>
      </trkpt>
      <trkpt lat="43.05369" lon="1.22203">
        <ele>627.6</ele>
        <time>2020-07-19T07:52:42Z</time>
      </trkpt>
      <trkpt lat="43.05368" lon="1.22197">
        <ele>625.7</ele>
        <time>2020-07-19T07:52:47Z</time>
      </trkpt>
      <trkpt lat="43.05372" lon="1.22198">
        <ele>625</ele>
        <time>2020-07-19T07:52:55Z</time>
      </trkpt>
      <trkpt lat="43.05368" lon="1.22201">
        <ele>625.8</ele>
        <time>2020-07-19T07:53:12Z</time>
      </trkpt>
      <trkpt lat="43.05367" lon="1.22201">
        <ele>626.7</ele>
        <time>2020-07-19T07:53:21Z</time>
      </trkpt>
      <trkpt lat="43.05361" lon="1.222">
        <ele>629.5</ele>
        <time>2020-07-19T07:53:25Z</time>
      </trkpt>
      <trkpt lat="43.05364" lon="1.22202">
        <ele>631.4</ele>
        <time>2020-07-19T07:53:32Z</time>
      </trkpt>
      <trkpt lat="43.05367" lon="1.22204">
        <ele>631.5</ele>
        <time>2020-07-19T07:53:37Z</time>
      </trkpt>
      <trkpt lat="43.05372" lon="1.22202">
        <ele>630.1</ele>
        <time>2020-07-19T07:53:42Z</time>
      </trkpt>
      <trkpt lat="43.05368" lon="1.22204">
        <ele>634.2</ele>
        <time>2020-07-19T07:53:59Z</time>
      </trkpt>
      <trkpt lat="43.05358" lon="1.22209">
        <ele>638.2</ele>
        <time>2020-07-19T07:54:03Z</time>
      </trkpt>
      <trkpt lat="43.05366" lon="1.22204">
        <ele>639</ele>
        <time>2020-07-19T07:54:07Z</time>
      </trkpt>
      <trkpt lat="43.05369" lon="1.22202">
        <ele>639.2</ele>
        <time>2020-07-19T07:54:15Z</time>
      </trkpt>
      <trkpt lat="43.05368" lon="1.222">
        <ele>632.8</ele>
        <time>2020-07-19T07:55:33Z</time>
      </trkpt>
      <trkpt lat="43.05373" lon="1.22209">
        <ele>632.2</ele>
        <time>2020-07-19T07:55:38Z</time>
      </trkpt>
      <trkpt lat="43.05369" lon="1.22207">
        <ele>632.2</ele>
        <time>2020-07-19T07:56:09Z</time>
      </trkpt>
      <trkpt lat="43.05372" lon="1.22207">
        <ele>632.4</ele>
        <time>2020-07-19T07:56:38Z</time>
      </trkpt>
      <trkpt lat="43.05372" lon="1.22201">
        <ele>631.5</ele>
        <time>2020-07-19T07:58:04Z</time>
      </trkpt>
      <trkpt lat="43.05374" lon="1.22201">
        <ele>631.5</ele>
        <time>2020-07-19T07:58:21Z</time>
      </trkpt>
      <trkpt lat="43.05369" lon="1.22208">
        <ele>632.5</ele>
        <time>2020-07-19T07:58:25Z</time>
      </trkpt>
      <trkpt lat="43.05373" lon="1.22209">
        <ele>633.1</ele>
        <time>2020-07-19T07:58:47Z</time>
      </trkpt>
      <trkpt lat="43.05369" lon="1.22207">
        <ele>633.3</ele>
        <time>2020-07-19T07:59:11Z</time>
      </trkpt>
      <trkpt lat="43.0537" lon="1.22207">
        <ele>633.3</ele>
        <time>2020-07-19T07:59:23Z</time>
      </trkpt>
      <trkpt lat="43.0537" lon="1.22212">
        <ele>628.3</ele>
        <time>2020-07-19T08:01:43Z</time>
      </trkpt>
      <trkpt lat="43.05372" lon="1.22217">
        <ele>626.2</ele>
        <time>2020-07-19T08:01:54Z</time>
      </trkpt>
      <trkpt lat="43.05374" lon="1.22223">
        <ele>625.4</ele>
        <time>2020-07-19T08:01:59Z</time>
      </trkpt>
      <trkpt lat="43.05375" lon="1.2223">
        <ele>625.1</ele>
        <time>2020-07-19T08:02:03Z</time>
      </trkpt>
      <trkpt lat="43.05377" lon="1.22237">
        <ele>624.9</ele>
        <time>2020-07-19T08:02:07Z</time>
      </trkpt>
      <trkpt lat="43.05381" lon="1.22245">
        <ele>624.6</ele>
        <time>2020-07-19T08:02:11Z</time>
      </trkpt>
      <trkpt lat="43.05383" lon="1.22253">
        <ele>624.9</ele>
        <time>2020-07-19T08:02:16Z</time>
      </trkpt>
      <trkpt lat="43.05381" lon="1.22258">
        <ele>625</ele>
        <time>2020-07-19T08:02:21Z</time>
      </trkpt>
      <trkpt lat="43.0538" lon="1.22265">
        <ele>624.7</ele>
        <time>2020-07-19T08:02:25Z</time>
      </trkpt>
      <trkpt lat="43.05377" lon="1.22273">
        <ele>624.4</ele>
        <time>2020-07-19T08:02:29Z</time>
      </trkpt>
      <trkpt lat="43.05377" lon="1.2228">
        <ele>624.3</ele>
        <time>2020-07-19T08:02:33Z</time>
      </trkpt>
      <trkpt lat="43.05375" lon="1.22286">
        <ele>624.2</ele>
        <time>2020-07-19T08:02:37Z</time>
      </trkpt>
      <trkpt lat="43.05374" lon="1.22292">
        <ele>624.1</ele>
        <time>2020-07-19T08:02:41Z</time>
      </trkpt>
      <trkpt lat="43.05373" lon="1.22299">
        <ele>623.9</ele>
        <time>2020-07-19T08:02:45Z</time>
      </trkpt>
      <trkpt lat="43.05374" lon="1.22306">
        <ele>623.9</ele>
        <time>2020-07-19T08:02:49Z</time>
      </trkpt>
      <trkpt lat="43.05376" lon="1.22312">
        <ele>623.9</ele>
        <time>2020-07-19T08:02:53Z</time>
      </trkpt>
      <trkpt lat="43.05375" lon="1.22318">
        <ele>624.1</ele>
        <time>2020-07-19T08:02:57Z</time>
      </trkpt>
      <trkpt lat="43.05375" lon="1.22325">
        <ele>624.4</ele>
        <time>2020-07-19T08:03:02Z</time>
      </trkpt>
      <trkpt lat="43.05376" lon="1.22332">
        <ele>624.3</ele>
        <time>2020-07-19T08:03:06Z</time>
      </trkpt>
      <trkpt lat="43.05375" lon="1.22339">
        <ele>624.4</ele>
        <time>2020-07-19T08:03:11Z</time>
      </trkpt>
      <trkpt lat="43.05375" lon="1.22345">
        <ele>624.2</ele>
        <time>2020-07-19T08:03:16Z</time>
      </trkpt>
      <trkpt lat="43.05375" lon="1.22354">
        <ele>624.2</ele>
        <time>2020-07-19T08:03:20Z</time>
      </trkpt>
      <trkpt lat="43.05376" lon="1.22364">
        <ele>624.2</ele>
        <time>2020-07-19T08:03:25Z</time>
      </trkpt>
      <trkpt lat="43.05375" lon="1.2237">
        <ele>624.4</ele>
        <time>2020-07-19T08:03:29Z</time>
      </trkpt>
      <trkpt lat="43.05376" lon="1.22377">
        <ele>624.7</ele>
        <time>2020-07-19T08:03:34Z</time>
      </trkpt>
      <trkpt lat="43.05376" lon="1.22384">
        <ele>624.7</ele>
        <time>2020-07-19T08:03:38Z</time>
      </trkpt>
      <trkpt lat="43.05376" lon="1.22391">
        <ele>624.6</ele>
        <time>2020-07-19T08:03:43Z</time>
      </trkpt>
      <trkpt lat="43.05373" lon="1.22399">
        <ele>624.5</ele>
        <time>2020-07-19T08:03:47Z</time>
      </trkpt>
      <trkpt lat="43.05372" lon="1.22405">
        <ele>624.7</ele>
        <time>2020-07-19T08:03:52Z</time>
      </trkpt>
      <trkpt lat="43.05372" lon="1.22412">
        <ele>624.4</ele>
        <time>2020-07-19T08:03:56Z</time>
      </trkpt>
      <trkpt lat="43.0537" lon="1.2242">
        <ele>624.2</ele>
        <time>2020-07-19T08:04:01Z</time>
      </trkpt>
      <trkpt lat="43.05368" lon="1.22427">
        <ele>624.3</ele>
        <time>2020-07-19T08:04:05Z</time>
      </trkpt>
      <trkpt lat="43.05366" lon="1.22434">
        <ele>624.1</ele>
        <time>2020-07-19T08:04:10Z</time>
      </trkpt>
      <trkpt lat="43.05365" lon="1.22441">
        <ele>624</ele>
        <time>2020-07-19T08:04:14Z</time>
      </trkpt>
      <trkpt lat="43.05363" lon="1.22448">
        <ele>624</ele>
        <time>2020-07-19T08:04:19Z</time>
      </trkpt>
      <trkpt lat="43.05364" lon="1.22454">
        <ele>623.8</ele>
        <time>2020-07-19T08:04:25Z</time>
      </trkpt>
      <trkpt lat="43.05363" lon="1.22461">
        <ele>623.5</ele>
        <time>2020-07-19T08:04:30Z</time>
      </trkpt>
      <trkpt lat="43.05361" lon="1.22467">
        <ele>623.3</ele>
        <time>2020-07-19T08:04:34Z</time>
      </trkpt>
      <trkpt lat="43.0536" lon="1.22474">
        <ele>623.2</ele>
        <time>2020-07-19T08:04:38Z</time>
      </trkpt>
      <trkpt lat="43.05358" lon="1.22481">
        <ele>623.4</ele>
        <time>2020-07-19T08:04:43Z</time>
      </trkpt>
      <trkpt lat="43.05355" lon="1.22488">
        <ele>623.4</ele>
        <time>2020-07-19T08:04:47Z</time>
      </trkpt>
      <trkpt lat="43.05353" lon="1.22494">
        <ele>623.5</ele>
        <time>2020-07-19T08:04:52Z</time>
      </trkpt>
      <trkpt lat="43.0535" lon="1.22499">
        <ele>623.2</ele>
        <time>2020-07-19T08:04:56Z</time>
      </trkpt>
      <trkpt lat="43.05349" lon="1.22504">
        <ele>623.6</ele>
        <time>2020-07-19T08:05:00Z</time>
      </trkpt>
      <trkpt lat="43.05346" lon="1.2251">
        <ele>624.3</ele>
        <time>2020-07-19T08:05:05Z</time>
      </trkpt>
      <trkpt lat="43.05344" lon="1.22518">
        <ele>625</ele>
        <time>2020-07-19T08:05:10Z</time>
      </trkpt>
      <trkpt lat="43.05341" lon="1.22524">
        <ele>625.9</ele>
        <time>2020-07-19T08:05:15Z</time>
      </trkpt>
      <trkpt lat="43.05339" lon="1.22528">
        <ele>626.7</ele>
        <time>2020-07-19T08:05:19Z</time>
      </trkpt>
      <trkpt lat="43.05336" lon="1.22533">
        <ele>627.1</ele>
        <time>2020-07-19T08:05:23Z</time>
      </trkpt>
      <trkpt lat="43.05333" lon="1.22541">
        <ele>627.3</ele>
        <time>2020-07-19T08:05:28Z</time>
      </trkpt>
      <trkpt lat="43.05331" lon="1.22547">
        <ele>627.7</ele>
        <time>2020-07-19T08:05:32Z</time>
      </trkpt>
      <trkpt lat="43.05328" lon="1.22551">
        <ele>628.1</ele>
        <time>2020-07-19T08:05:36Z</time>
      </trkpt>
      <trkpt lat="43.05324" lon="1.22555">
        <ele>628.3</ele>
        <time>2020-07-19T08:05:41Z</time>
      </trkpt>
      <trkpt lat="43.05321" lon="1.22561">
        <ele>628.4</ele>
        <time>2020-07-19T08:05:45Z</time>
      </trkpt>
      <trkpt lat="43.05318" lon="1.22565">
        <ele>628.6</ele>
        <time>2020-07-19T08:05:49Z</time>
      </trkpt>
      <trkpt lat="43.05315" lon="1.22571">
        <ele>629</ele>
        <time>2020-07-19T08:05:53Z</time>
      </trkpt>
      <trkpt lat="43.05312" lon="1.22578">
        <ele>629.2</ele>
        <time>2020-07-19T08:05:58Z</time>
      </trkpt>
      <trkpt lat="43.05312" lon="1.22583">
        <ele>629.6</ele>
        <time>2020-07-19T08:06:02Z</time>
      </trkpt>
      <trkpt lat="43.0531" lon="1.22594">
        <ele>629.4</ele>
        <time>2020-07-19T08:06:07Z</time>
      </trkpt>
      <trkpt lat="43.05307" lon="1.22602">
        <ele>628.9</ele>
        <time>2020-07-19T08:06:11Z</time>
      </trkpt>
      <trkpt lat="43.05307" lon="1.22607">
        <ele>629</ele>
        <time>2020-07-19T08:06:15Z</time>
      </trkpt>
      <trkpt lat="43.05307" lon="1.22614">
        <ele>628.9</ele>
        <time>2020-07-19T08:06:19Z</time>
      </trkpt>
      <trkpt lat="43.05305" lon="1.2262">
        <ele>628.3</ele>
        <time>2020-07-19T08:06:23Z</time>
      </trkpt>
      <trkpt lat="43.05306" lon="1.22628">
        <ele>628</ele>
        <time>2020-07-19T08:06:28Z</time>
      </trkpt>
      <trkpt lat="43.05306" lon="1.22635">
        <ele>627.2</ele>
        <time>2020-07-19T08:06:32Z</time>
      </trkpt>
      <trkpt lat="43.05309" lon="1.22642">
        <ele>626.6</ele>
        <time>2020-07-19T08:06:37Z</time>
      </trkpt>
      <trkpt lat="43.05309" lon="1.22649">
        <ele>626.6</ele>
        <time>2020-07-19T08:06:41Z</time>
      </trkpt>
      <trkpt lat="43.05312" lon="1.22654">
        <ele>627.3</ele>
        <time>2020-07-19T08:06:45Z</time>
      </trkpt>
      <trkpt lat="43.05315" lon="1.22661">
        <ele>626.7</ele>
        <time>2020-07-19T08:06:49Z</time>
      </trkpt>
      <trkpt lat="43.05317" lon="1.22666">
        <ele>626.4</ele>
        <time>2020-07-19T08:06:53Z</time>
      </trkpt>
      <trkpt lat="43.05318" lon="1.22671">
        <ele>625.4</ele>
        <time>2020-07-19T08:06:59Z</time>
      </trkpt>
      <trkpt lat="43.05319" lon="1.22676">
        <ele>624.4</ele>
        <time>2020-07-19T08:07:17Z</time>
      </trkpt>
      <trkpt lat="43.05319" lon="1.22683">
        <ele>624.2</ele>
        <time>2020-07-19T08:07:21Z</time>
      </trkpt>
      <trkpt lat="43.05317" lon="1.22692">
        <ele>623.8</ele>
        <time>2020-07-19T08:07:26Z</time>
      </trkpt>
      <trkpt lat="43.0532" lon="1.22696">
        <ele>622.9</ele>
        <time>2020-07-19T08:07:35Z</time>
      </trkpt>
      <trkpt lat="43.05321" lon="1.22697">
        <ele>622.7</ele>
        <time>2020-07-19T08:08:14Z</time>
      </trkpt>
      <trkpt lat="43.05318" lon="1.22708">
        <ele>622.4</ele>
        <time>2020-07-19T08:08:19Z</time>
      </trkpt>
      <trkpt lat="43.05314" lon="1.22714">
        <ele>622.6</ele>
        <time>2020-07-19T08:08:23Z</time>
      </trkpt>
      <trkpt lat="43.05312" lon="1.22719">
        <ele>623.4</ele>
        <time>2020-07-19T08:08:28Z</time>
      </trkpt>
      <trkpt lat="43.05313" lon="1.22725">
        <ele>624.4</ele>
        <time>2020-07-19T08:08:32Z</time>
      </trkpt>
      <trkpt lat="43.05315" lon="1.22729">
        <ele>624.3</ele>
        <time>2020-07-19T08:08:38Z</time>
      </trkpt>
      <trkpt lat="43.05317" lon="1.22732">
        <ele>624.6</ele>
        <time>2020-07-19T08:08:42Z</time>
      </trkpt>
      <trkpt lat="43.05319" lon="1.22737">
        <ele>625.9</ele>
        <time>2020-07-19T08:08:53Z</time>
      </trkpt>
      <trkpt lat="43.05321" lon="1.22742">
        <ele>626.4</ele>
        <time>2020-07-19T08:08:58Z</time>
      </trkpt>
      <trkpt lat="43.05323" lon="1.2275">
        <ele>626</ele>
        <time>2020-07-19T08:09:03Z</time>
      </trkpt>
      <trkpt lat="43.05321" lon="1.22756">
        <ele>626.3</ele>
        <time>2020-07-19T08:09:07Z</time>
      </trkpt>
      <trkpt lat="43.05323" lon="1.22761">
        <ele>626.5</ele>
        <time>2020-07-19T08:09:17Z</time>
      </trkpt>
      <trkpt lat="43.05324" lon="1.22768">
        <ele>626.5</ele>
        <time>2020-07-19T08:09:22Z</time>
      </trkpt>
      <trkpt lat="43.05326" lon="1.22773">
        <ele>626.1</ele>
        <time>2020-07-19T08:09:28Z</time>
      </trkpt>
      <trkpt lat="43.05327" lon="1.22779">
        <ele>625.7</ele>
        <time>2020-07-19T08:09:33Z</time>
      </trkpt>
      <trkpt lat="43.05327" lon="1.22788">
        <ele>625.6</ele>
        <time>2020-07-19T08:09:38Z</time>
      </trkpt>
      <trkpt lat="43.05327" lon="1.22794">
        <ele>625.7</ele>
        <time>2020-07-19T08:09:43Z</time>
      </trkpt>
      <trkpt lat="43.05327" lon="1.228">
        <ele>625.7</ele>
        <time>2020-07-19T08:09:48Z</time>
      </trkpt>
      <trkpt lat="43.05328" lon="1.22804">
        <ele>626.2</ele>
        <time>2020-07-19T08:09:52Z</time>
      </trkpt>
      <trkpt lat="43.05329" lon="1.22811">
        <ele>626.3</ele>
        <time>2020-07-19T08:09:56Z</time>
      </trkpt>
      <trkpt lat="43.0533" lon="1.22818">
        <ele>626.7</ele>
        <time>2020-07-19T08:10:01Z</time>
      </trkpt>
      <trkpt lat="43.05332" lon="1.22823">
        <ele>626.7</ele>
        <time>2020-07-19T08:10:06Z</time>
      </trkpt>
      <trkpt lat="43.05333" lon="1.2283">
        <ele>627.5</ele>
        <time>2020-07-19T08:10:11Z</time>
      </trkpt>
      <trkpt lat="43.05334" lon="1.22836">
        <ele>627.7</ele>
        <time>2020-07-19T08:10:19Z</time>
      </trkpt>
      <trkpt lat="43.05335" lon="1.22845">
        <ele>628</ele>
        <time>2020-07-19T08:10:24Z</time>
      </trkpt>
      <trkpt lat="43.05337" lon="1.2285">
        <ele>628.1</ele>
        <time>2020-07-19T08:10:29Z</time>
      </trkpt>
      <trkpt lat="43.05339" lon="1.22859">
        <ele>628.1</ele>
        <time>2020-07-19T08:10:34Z</time>
      </trkpt>
      <trkpt lat="43.05341" lon="1.22864">
        <ele>628.9</ele>
        <time>2020-07-19T08:10:39Z</time>
      </trkpt>
      <trkpt lat="43.05342" lon="1.22869">
        <ele>629.5</ele>
        <time>2020-07-19T08:10:43Z</time>
      </trkpt>
      <trkpt lat="43.05343" lon="1.22875">
        <ele>630.1</ele>
        <time>2020-07-19T08:10:47Z</time>
      </trkpt>
      <trkpt lat="43.05345" lon="1.22881">
        <ele>630.8</ele>
        <time>2020-07-19T08:10:51Z</time>
      </trkpt>
      <trkpt lat="43.05347" lon="1.22887">
        <ele>631.4</ele>
        <time>2020-07-19T08:10:55Z</time>
      </trkpt>
      <trkpt lat="43.0535" lon="1.22895">
        <ele>632</ele>
        <time>2020-07-19T08:11:00Z</time>
      </trkpt>
      <trkpt lat="43.05352" lon="1.22902">
        <ele>632.5</ele>
        <time>2020-07-19T08:11:04Z</time>
      </trkpt>
      <trkpt lat="43.05354" lon="1.22906">
        <ele>633</ele>
        <time>2020-07-19T08:11:08Z</time>
      </trkpt>
      <trkpt lat="43.05357" lon="1.22911">
        <ele>633.3</ele>
        <time>2020-07-19T08:11:12Z</time>
      </trkpt>
      <trkpt lat="43.05361" lon="1.22919">
        <ele>633.5</ele>
        <time>2020-07-19T08:11:17Z</time>
      </trkpt>
      <trkpt lat="43.05363" lon="1.22925">
        <ele>633.9</ele>
        <time>2020-07-19T08:11:21Z</time>
      </trkpt>
      <trkpt lat="43.05366" lon="1.22932">
        <ele>634.6</ele>
        <time>2020-07-19T08:11:26Z</time>
      </trkpt>
      <trkpt lat="43.05368" lon="1.22938">
        <ele>634.7</ele>
        <time>2020-07-19T08:11:31Z</time>
      </trkpt>
      <trkpt lat="43.0537" lon="1.22943">
        <ele>635</ele>
        <time>2020-07-19T08:11:35Z</time>
      </trkpt>
      <trkpt lat="43.05373" lon="1.22951">
        <ele>635.6</ele>
        <time>2020-07-19T08:11:40Z</time>
      </trkpt>
      <trkpt lat="43.05374" lon="1.22956">
        <ele>636</ele>
        <time>2020-07-19T08:11:44Z</time>
      </trkpt>
      <trkpt lat="43.05376" lon="1.22964">
        <ele>636.5</ele>
        <time>2020-07-19T08:11:49Z</time>
      </trkpt>
      <trkpt lat="43.05378" lon="1.22969">
        <ele>636.8</ele>
        <time>2020-07-19T08:11:53Z</time>
      </trkpt>
      <trkpt lat="43.0538" lon="1.22974">
        <ele>637.1</ele>
        <time>2020-07-19T08:11:57Z</time>
      </trkpt>
      <trkpt lat="43.05383" lon="1.22977">
        <ele>637.1</ele>
        <time>2020-07-19T08:12:01Z</time>
      </trkpt>
      <trkpt lat="43.05386" lon="1.22982">
        <ele>637.4</ele>
        <time>2020-07-19T08:12:05Z</time>
      </trkpt>
      <trkpt lat="43.05389" lon="1.22988">
        <ele>638.5</ele>
        <time>2020-07-19T08:12:10Z</time>
      </trkpt>
      <trkpt lat="43.05393" lon="1.22993">
        <ele>638.7</ele>
        <time>2020-07-19T08:12:14Z</time>
      </trkpt>
      <trkpt lat="43.05396" lon="1.22999">
        <ele>639.2</ele>
        <time>2020-07-19T08:12:19Z</time>
      </trkpt>
      <trkpt lat="43.05399" lon="1.23004">
        <ele>639.2</ele>
        <time>2020-07-19T08:12:23Z</time>
      </trkpt>
      <trkpt lat="43.05401" lon="1.23011">
        <ele>640.2</ele>
        <time>2020-07-19T08:12:28Z</time>
      </trkpt>
      <trkpt lat="43.05405" lon="1.23014">
        <ele>640.5</ele>
        <time>2020-07-19T08:12:32Z</time>
      </trkpt>
      <trkpt lat="43.05409" lon="1.23019">
        <ele>640.6</ele>
        <time>2020-07-19T08:12:37Z</time>
      </trkpt>
      <trkpt lat="43.05414" lon="1.23022">
        <ele>640.8</ele>
        <time>2020-07-19T08:12:41Z</time>
      </trkpt>
      <trkpt lat="43.05418" lon="1.23025">
        <ele>640.8</ele>
        <time>2020-07-19T08:12:46Z</time>
      </trkpt>
      <trkpt lat="43.05424" lon="1.23029">
        <ele>640.7</ele>
        <time>2020-07-19T08:12:51Z</time>
      </trkpt>
      <trkpt lat="43.05427" lon="1.23032">
        <ele>641.1</ele>
        <time>2020-07-19T08:12:55Z</time>
      </trkpt>
      <trkpt lat="43.05432" lon="1.23034">
        <ele>641.3</ele>
        <time>2020-07-19T08:12:59Z</time>
      </trkpt>
      <trkpt lat="43.0544" lon="1.23038">
        <ele>641.7</ele>
        <time>2020-07-19T08:13:04Z</time>
      </trkpt>
      <trkpt lat="43.05445" lon="1.2304">
        <ele>642</ele>
        <time>2020-07-19T08:13:09Z</time>
      </trkpt>
      <trkpt lat="43.05448" lon="1.23043">
        <ele>641.5</ele>
        <time>2020-07-19T08:13:13Z</time>
      </trkpt>
      <trkpt lat="43.05453" lon="1.23045">
        <ele>641.3</ele>
        <time>2020-07-19T08:13:18Z</time>
      </trkpt>
      <trkpt lat="43.05457" lon="1.23047">
        <ele>641.4</ele>
        <time>2020-07-19T08:13:22Z</time>
      </trkpt>
      <trkpt lat="43.0546" lon="1.23052">
        <ele>641.7</ele>
        <time>2020-07-19T08:13:32Z</time>
      </trkpt>
      <trkpt lat="43.05465" lon="1.23054">
        <ele>641.7</ele>
        <time>2020-07-19T08:13:37Z</time>
      </trkpt>
      <trkpt lat="43.05469" lon="1.23055">
        <ele>642.3</ele>
        <time>2020-07-19T08:13:46Z</time>
      </trkpt>
      <trkpt lat="43.05473" lon="1.23057">
        <ele>642.1</ele>
        <time>2020-07-19T08:13:53Z</time>
      </trkpt>
      <trkpt lat="43.05477" lon="1.23058">
        <ele>642.1</ele>
        <time>2020-07-19T08:13:57Z</time>
      </trkpt>
      <trkpt lat="43.05482" lon="1.2306">
        <ele>641.7</ele>
        <time>2020-07-19T08:14:01Z</time>
      </trkpt>
      <trkpt lat="43.05487" lon="1.23063">
        <ele>641.5</ele>
        <time>2020-07-19T08:14:06Z</time>
      </trkpt>
      <trkpt lat="43.05491" lon="1.23064">
        <ele>641.4</ele>
        <time>2020-07-19T08:14:10Z</time>
      </trkpt>
      <trkpt lat="43.05496" lon="1.23067">
        <ele>641.3</ele>
        <time>2020-07-19T08:14:14Z</time>
      </trkpt>
      <trkpt lat="43.055" lon="1.23069">
        <ele>641.2</ele>
        <time>2020-07-19T08:14:19Z</time>
      </trkpt>
      <trkpt lat="43.05502" lon="1.23069">
        <ele>641.3</ele>
        <time>2020-07-19T08:15:22Z</time>
      </trkpt>
      <trkpt lat="43.05511" lon="1.23068">
        <ele>643</ele>
        <time>2020-07-19T08:15:26Z</time>
      </trkpt>
      <trkpt lat="43.05514" lon="1.2307">
        <ele>643.5</ele>
        <time>2020-07-19T08:15:30Z</time>
      </trkpt>
      <trkpt lat="43.05518" lon="1.23073">
        <ele>644</ele>
        <time>2020-07-19T08:15:34Z</time>
      </trkpt>
      <trkpt lat="43.05522" lon="1.23077">
        <ele>644.7</ele>
        <time>2020-07-19T08:15:39Z</time>
      </trkpt>
      <trkpt lat="43.05526" lon="1.23079">
        <ele>645.1</ele>
        <time>2020-07-19T08:15:43Z</time>
      </trkpt>
      <trkpt lat="43.05529" lon="1.23081">
        <ele>645.5</ele>
        <time>2020-07-19T08:15:47Z</time>
      </trkpt>
      <trkpt lat="43.05534" lon="1.23082">
        <ele>645.8</ele>
        <time>2020-07-19T08:15:52Z</time>
      </trkpt>
      <trkpt lat="43.05538" lon="1.23083">
        <ele>646.2</ele>
        <time>2020-07-19T08:15:56Z</time>
      </trkpt>
      <trkpt lat="43.05543" lon="1.23084">
        <ele>646.5</ele>
        <time>2020-07-19T08:16:01Z</time>
      </trkpt>
      <trkpt lat="43.05547" lon="1.23084">
        <ele>647.1</ele>
        <time>2020-07-19T08:16:06Z</time>
      </trkpt>
      <trkpt lat="43.05551" lon="1.23085">
        <ele>647.8</ele>
        <time>2020-07-19T08:16:11Z</time>
      </trkpt>
      <trkpt lat="43.05554" lon="1.23087">
        <ele>648.5</ele>
        <time>2020-07-19T08:16:15Z</time>
      </trkpt>
      <trkpt lat="43.05558" lon="1.23091">
        <ele>649.3</ele>
        <time>2020-07-19T08:16:20Z</time>
      </trkpt>
      <trkpt lat="43.05561" lon="1.23093">
        <ele>650.3</ele>
        <time>2020-07-19T08:16:26Z</time>
      </trkpt>
      <trkpt lat="43.05565" lon="1.23095">
        <ele>651.2</ele>
        <time>2020-07-19T08:16:32Z</time>
      </trkpt>
      <trkpt lat="43.05569" lon="1.23097">
        <ele>652</ele>
        <time>2020-07-19T08:16:39Z</time>
      </trkpt>
      <trkpt lat="43.05573" lon="1.23099">
        <ele>652.7</ele>
        <time>2020-07-19T08:16:47Z</time>
      </trkpt>
      <trkpt lat="43.05577" lon="1.23101">
        <ele>654.2</ele>
        <time>2020-07-19T08:16:56Z</time>
      </trkpt>
      <trkpt lat="43.05581" lon="1.23103">
        <ele>655.5</ele>
        <time>2020-07-19T08:17:02Z</time>
      </trkpt>
      <trkpt lat="43.05584" lon="1.23107">
        <ele>656.7</ele>
        <time>2020-07-19T08:17:08Z</time>
      </trkpt>
      <trkpt lat="43.05587" lon="1.23109">
        <ele>657.2</ele>
        <time>2020-07-19T08:17:13Z</time>
      </trkpt>
      <trkpt lat="43.05591" lon="1.23111">
        <ele>658</ele>
        <time>2020-07-19T08:17:18Z</time>
      </trkpt>
      <trkpt lat="43.05596" lon="1.23112">
        <ele>658.7</ele>
        <time>2020-07-19T08:17:23Z</time>
      </trkpt>
      <trkpt lat="43.05599" lon="1.23115">
        <ele>660</ele>
        <time>2020-07-19T08:17:34Z</time>
      </trkpt>
      <trkpt lat="43.05603" lon="1.23117">
        <ele>661.4</ele>
        <time>2020-07-19T08:17:42Z</time>
      </trkpt>
      <trkpt lat="43.05606" lon="1.2312">
        <ele>662.1</ele>
        <time>2020-07-19T08:18:46Z</time>
      </trkpt>
      <trkpt lat="43.05612" lon="1.2312">
        <ele>661.8</ele>
        <time>2020-07-19T08:18:50Z</time>
      </trkpt>
      <trkpt lat="43.05616" lon="1.23121">
        <ele>662.4</ele>
        <time>2020-07-19T08:18:55Z</time>
      </trkpt>
      <trkpt lat="43.0562" lon="1.23122">
        <ele>662.7</ele>
        <time>2020-07-19T08:19:00Z</time>
      </trkpt>
      <trkpt lat="43.05624" lon="1.23125">
        <ele>663.6</ele>
        <time>2020-07-19T08:19:13Z</time>
      </trkpt>
      <trkpt lat="43.05628" lon="1.23127">
        <ele>663.5</ele>
        <time>2020-07-19T08:19:19Z</time>
      </trkpt>
      <trkpt lat="43.05632" lon="1.23131">
        <ele>663.8</ele>
        <time>2020-07-19T08:19:23Z</time>
      </trkpt>
      <trkpt lat="43.05636" lon="1.23134">
        <ele>663.7</ele>
        <time>2020-07-19T08:19:27Z</time>
      </trkpt>
      <trkpt lat="43.05639" lon="1.23138">
        <ele>664</ele>
        <time>2020-07-19T08:19:32Z</time>
      </trkpt>
      <trkpt lat="43.05642" lon="1.23141">
        <ele>664.4</ele>
        <time>2020-07-19T08:19:38Z</time>
      </trkpt>
      <trkpt lat="43.05647" lon="1.23144">
        <ele>664.4</ele>
        <time>2020-07-19T08:19:43Z</time>
      </trkpt>
      <trkpt lat="43.05647" lon="1.23149">
        <ele>665.8</ele>
        <time>2020-07-19T08:19:59Z</time>
      </trkpt>
      <trkpt lat="43.05653" lon="1.23152">
        <ele>665.4</ele>
        <time>2020-07-19T08:20:03Z</time>
      </trkpt>
      <trkpt lat="43.05656" lon="1.23156">
        <ele>664.9</ele>
        <time>2020-07-19T08:20:08Z</time>
      </trkpt>
      <trkpt lat="43.05661" lon="1.23158">
        <ele>664.7</ele>
        <time>2020-07-19T08:20:13Z</time>
      </trkpt>
      <trkpt lat="43.05665" lon="1.2316">
        <ele>664.7</ele>
        <time>2020-07-19T08:20:17Z</time>
      </trkpt>
      <trkpt lat="43.0567" lon="1.23161">
        <ele>664.5</ele>
        <time>2020-07-19T08:20:22Z</time>
      </trkpt>
      <trkpt lat="43.05674" lon="1.23162">
        <ele>664.7</ele>
        <time>2020-07-19T08:20:26Z</time>
      </trkpt>
      <trkpt lat="43.05678" lon="1.23164">
        <ele>665</ele>
        <time>2020-07-19T08:20:31Z</time>
      </trkpt>
      <trkpt lat="43.05683" lon="1.23166">
        <ele>665.6</ele>
        <time>2020-07-19T08:20:35Z</time>
      </trkpt>
      <trkpt lat="43.05688" lon="1.23169">
        <ele>665.7</ele>
        <time>2020-07-19T08:20:39Z</time>
      </trkpt>
      <trkpt lat="43.05692" lon="1.23172">
        <ele>666.5</ele>
        <time>2020-07-19T08:20:43Z</time>
      </trkpt>
      <trkpt lat="43.05698" lon="1.23176">
        <ele>666.6</ele>
        <time>2020-07-19T08:20:47Z</time>
      </trkpt>
      <trkpt lat="43.05703" lon="1.23179">
        <ele>666.6</ele>
        <time>2020-07-19T08:20:52Z</time>
      </trkpt>
      <trkpt lat="43.05707" lon="1.23182">
        <ele>666.7</ele>
        <time>2020-07-19T08:20:56Z</time>
      </trkpt>
      <trkpt lat="43.05711" lon="1.23184">
        <ele>667.8</ele>
        <time>2020-07-19T08:21:01Z</time>
      </trkpt>
      <trkpt lat="43.05714" lon="1.23186">
        <ele>668.1</ele>
        <time>2020-07-19T08:21:05Z</time>
      </trkpt>
      <trkpt lat="43.0572" lon="1.2319">
        <ele>668.2</ele>
        <time>2020-07-19T08:21:10Z</time>
      </trkpt>
      <trkpt lat="43.05724" lon="1.23194">
        <ele>668.4</ele>
        <time>2020-07-19T08:21:14Z</time>
      </trkpt>
      <trkpt lat="43.05729" lon="1.23198">
        <ele>668.5</ele>
        <time>2020-07-19T08:21:19Z</time>
      </trkpt>
      <trkpt lat="43.05735" lon="1.23201">
        <ele>668.6</ele>
        <time>2020-07-19T08:21:24Z</time>
      </trkpt>
      <trkpt lat="43.05739" lon="1.23201">
        <ele>668.5</ele>
        <time>2020-07-19T08:21:28Z</time>
      </trkpt>
      <trkpt lat="43.05746" lon="1.23205">
        <ele>667.4</ele>
        <time>2020-07-19T08:21:33Z</time>
      </trkpt>
      <trkpt lat="43.0575" lon="1.23206">
        <ele>667.1</ele>
        <time>2020-07-19T08:21:37Z</time>
      </trkpt>
      <trkpt lat="43.05754" lon="1.23208">
        <ele>666.3</ele>
        <time>2020-07-19T08:21:41Z</time>
      </trkpt>
      <trkpt lat="43.05759" lon="1.23211">
        <ele>664.3</ele>
        <time>2020-07-19T08:21:46Z</time>
      </trkpt>
      <trkpt lat="43.05763" lon="1.23212">
        <ele>663.3</ele>
        <time>2020-07-19T08:21:50Z</time>
      </trkpt>
      <trkpt lat="43.05767" lon="1.23215">
        <ele>662.3</ele>
        <time>2020-07-19T08:21:54Z</time>
      </trkpt>
      <trkpt lat="43.05771" lon="1.2322">
        <ele>661</ele>
        <time>2020-07-19T08:21:59Z</time>
      </trkpt>
      <trkpt lat="43.05774" lon="1.23223">
        <ele>660.3</ele>
        <time>2020-07-19T08:22:03Z</time>
      </trkpt>
      <trkpt lat="43.05777" lon="1.23226">
        <ele>661.3</ele>
        <time>2020-07-19T08:22:08Z</time>
      </trkpt>
      <trkpt lat="43.05782" lon="1.2323">
        <ele>662.7</ele>
        <time>2020-07-19T08:22:13Z</time>
      </trkpt>
      <trkpt lat="43.05786" lon="1.2323">
        <ele>663.5</ele>
        <time>2020-07-19T08:22:19Z</time>
      </trkpt>
      <trkpt lat="43.05791" lon="1.23233">
        <ele>664.5</ele>
        <time>2020-07-19T08:22:24Z</time>
      </trkpt>
      <trkpt lat="43.05795" lon="1.23235">
        <ele>664.9</ele>
        <time>2020-07-19T08:22:29Z</time>
      </trkpt>
      <trkpt lat="43.05799" lon="1.23235">
        <ele>664.9</ele>
        <time>2020-07-19T08:22:33Z</time>
      </trkpt>
      <trkpt lat="43.05803" lon="1.23236">
        <ele>664.5</ele>
        <time>2020-07-19T08:22:37Z</time>
      </trkpt>
      <trkpt lat="43.05808" lon="1.23238">
        <ele>663.9</ele>
        <time>2020-07-19T08:22:41Z</time>
      </trkpt>
      <trkpt lat="43.05811" lon="1.23239">
        <ele>663.6</ele>
        <time>2020-07-19T08:22:45Z</time>
      </trkpt>
      <trkpt lat="43.05815" lon="1.23241">
        <ele>663.1</ele>
        <time>2020-07-19T08:22:49Z</time>
      </trkpt>
      <trkpt lat="43.05819" lon="1.23243">
        <ele>662.5</ele>
        <time>2020-07-19T08:22:53Z</time>
      </trkpt>
      <trkpt lat="43.05823" lon="1.23247">
        <ele>661.4</ele>
        <time>2020-07-19T08:22:58Z</time>
      </trkpt>
      <trkpt lat="43.05827" lon="1.23249">
        <ele>660.7</ele>
        <time>2020-07-19T08:23:02Z</time>
      </trkpt>
      <trkpt lat="43.05831" lon="1.23251">
        <ele>660.2</ele>
        <time>2020-07-19T08:23:06Z</time>
      </trkpt>
      <trkpt lat="43.05834" lon="1.23253">
        <ele>659.9</ele>
        <time>2020-07-19T08:23:10Z</time>
      </trkpt>
      <trkpt lat="43.05838" lon="1.23257">
        <ele>659.4</ele>
        <time>2020-07-19T08:23:14Z</time>
      </trkpt>
      <trkpt lat="43.05841" lon="1.2326">
        <ele>658.8</ele>
        <time>2020-07-19T08:23:18Z</time>
      </trkpt>
      <trkpt lat="43.05845" lon="1.23263">
        <ele>658.5</ele>
        <time>2020-07-19T08:23:23Z</time>
      </trkpt>
      <trkpt lat="43.05848" lon="1.23267">
        <ele>658.1</ele>
        <time>2020-07-19T08:23:27Z</time>
      </trkpt>
      <trkpt lat="43.05851" lon="1.23271">
        <ele>657.7</ele>
        <time>2020-07-19T08:23:32Z</time>
      </trkpt>
      <trkpt lat="43.05856" lon="1.23274">
        <ele>657</ele>
        <time>2020-07-19T08:23:36Z</time>
      </trkpt>
      <trkpt lat="43.05859" lon="1.23277">
        <ele>656.5</ele>
        <time>2020-07-19T08:23:40Z</time>
      </trkpt>
      <trkpt lat="43.05863" lon="1.23282">
        <ele>656.1</ele>
        <time>2020-07-19T08:23:44Z</time>
      </trkpt>
      <trkpt lat="43.05867" lon="1.23289">
        <ele>655.6</ele>
        <time>2020-07-19T08:23:49Z</time>
      </trkpt>
      <trkpt lat="43.05871" lon="1.23296">
        <ele>654.8</ele>
        <time>2020-07-19T08:23:54Z</time>
      </trkpt>
      <trkpt lat="43.05875" lon="1.23297">
        <ele>654</ele>
        <time>2020-07-19T08:23:58Z</time>
      </trkpt>
      <trkpt lat="43.05877" lon="1.23302">
        <ele>654</ele>
        <time>2020-07-19T08:24:02Z</time>
      </trkpt>
      <trkpt lat="43.05878" lon="1.23308">
        <ele>654.5</ele>
        <time>2020-07-19T08:24:06Z</time>
      </trkpt>
      <trkpt lat="43.05882" lon="1.23317">
        <ele>656</ele>
        <time>2020-07-19T08:24:11Z</time>
      </trkpt>
      <trkpt lat="43.05888" lon="1.23323">
        <ele>657.6</ele>
        <time>2020-07-19T08:24:16Z</time>
      </trkpt>
      <trkpt lat="43.05892" lon="1.23328">
        <ele>658.3</ele>
        <time>2020-07-19T08:24:20Z</time>
      </trkpt>
      <trkpt lat="43.05896" lon="1.23335">
        <ele>659.2</ele>
        <time>2020-07-19T08:24:25Z</time>
      </trkpt>
      <trkpt lat="43.059" lon="1.2334">
        <ele>660.5</ele>
        <time>2020-07-19T08:24:29Z</time>
      </trkpt>
      <trkpt lat="43.05904" lon="1.23344">
        <ele>662.1</ele>
        <time>2020-07-19T08:24:33Z</time>
      </trkpt>
      <trkpt lat="43.05907" lon="1.23348">
        <ele>663.5</ele>
        <time>2020-07-19T08:24:37Z</time>
      </trkpt>
      <trkpt lat="43.0591" lon="1.23352">
        <ele>664.8</ele>
        <time>2020-07-19T08:24:41Z</time>
      </trkpt>
      <trkpt lat="43.05913" lon="1.23355">
        <ele>665.8</ele>
        <time>2020-07-19T08:24:45Z</time>
      </trkpt>
      <trkpt lat="43.05918" lon="1.23361">
        <ele>665.7</ele>
        <time>2020-07-19T08:24:50Z</time>
      </trkpt>
      <trkpt lat="43.05921" lon="1.23365">
        <ele>665.5</ele>
        <time>2020-07-19T08:24:55Z</time>
      </trkpt>
      <trkpt lat="43.05924" lon="1.23368">
        <ele>665</ele>
        <time>2020-07-19T08:24:59Z</time>
      </trkpt>
      <trkpt lat="43.05928" lon="1.23372">
        <ele>664.5</ele>
        <time>2020-07-19T08:25:03Z</time>
      </trkpt>
      <trkpt lat="43.05932" lon="1.23377">
        <ele>664.2</ele>
        <time>2020-07-19T08:25:07Z</time>
      </trkpt>
      <trkpt lat="43.05935" lon="1.23383">
        <ele>664.1</ele>
        <time>2020-07-19T08:25:11Z</time>
      </trkpt>
      <trkpt lat="43.05939" lon="1.23389">
        <ele>663.9</ele>
        <time>2020-07-19T08:25:16Z</time>
      </trkpt>
      <trkpt lat="43.05942" lon="1.23393">
        <ele>663.9</ele>
        <time>2020-07-19T08:25:20Z</time>
      </trkpt>
      <trkpt lat="43.05946" lon="1.234">
        <ele>663.6</ele>
        <time>2020-07-19T08:25:25Z</time>
      </trkpt>
      <trkpt lat="43.05948" lon="1.23406">
        <ele>663.6</ele>
        <time>2020-07-19T08:25:29Z</time>
      </trkpt>
      <trkpt lat="43.05951" lon="1.23411">
        <ele>663.1</ele>
        <time>2020-07-19T08:25:34Z</time>
      </trkpt>
      <trkpt lat="43.05955" lon="1.23416">
        <ele>662.8</ele>
        <time>2020-07-19T08:25:38Z</time>
      </trkpt>
      <trkpt lat="43.0596" lon="1.23423">
        <ele>661.9</ele>
        <time>2020-07-19T08:25:43Z</time>
      </trkpt>
      <trkpt lat="43.05964" lon="1.23429">
        <ele>661.3</ele>
        <time>2020-07-19T08:25:48Z</time>
      </trkpt>
      <trkpt lat="43.05966" lon="1.23432">
        <ele>660.3</ele>
        <time>2020-07-19T08:25:52Z</time>
      </trkpt>
      <trkpt lat="43.0597" lon="1.23437">
        <ele>659.8</ele>
        <time>2020-07-19T08:25:57Z</time>
      </trkpt>
      <trkpt lat="43.05973" lon="1.23442">
        <ele>658.1</ele>
        <time>2020-07-19T08:26:02Z</time>
      </trkpt>
      <trkpt lat="43.05976" lon="1.23449">
        <ele>657.2</ele>
        <time>2020-07-19T08:26:07Z</time>
      </trkpt>
      <trkpt lat="43.05982" lon="1.23456">
        <ele>656.6</ele>
        <time>2020-07-19T08:26:12Z</time>
      </trkpt>
      <trkpt lat="43.05984" lon="1.23461">
        <ele>656.7</ele>
        <time>2020-07-19T08:26:16Z</time>
      </trkpt>
      <trkpt lat="43.05985" lon="1.23466">
        <ele>656.7</ele>
        <time>2020-07-19T08:26:20Z</time>
      </trkpt>
      <trkpt lat="43.05987" lon="1.23471">
        <ele>656.5</ele>
        <time>2020-07-19T08:26:24Z</time>
      </trkpt>
      <trkpt lat="43.05992" lon="1.23476">
        <ele>657.4</ele>
        <time>2020-07-19T08:26:29Z</time>
      </trkpt>
      <trkpt lat="43.05994" lon="1.2348">
        <ele>658.3</ele>
        <time>2020-07-19T08:26:33Z</time>
      </trkpt>
      <trkpt lat="43.05996" lon="1.23485">
        <ele>658.4</ele>
        <time>2020-07-19T08:26:37Z</time>
      </trkpt>
      <trkpt lat="43.05998" lon="1.23491">
        <ele>658.8</ele>
        <time>2020-07-19T08:26:41Z</time>
      </trkpt>
      <trkpt lat="43.05999" lon="1.23499">
        <ele>659.9</ele>
        <time>2020-07-19T08:26:46Z</time>
      </trkpt>
      <trkpt lat="43.06001" lon="1.23505">
        <ele>660.9</ele>
        <time>2020-07-19T08:26:51Z</time>
      </trkpt>
      <trkpt lat="43.06002" lon="1.2351">
        <ele>661.2</ele>
        <time>2020-07-19T08:26:56Z</time>
      </trkpt>
      <trkpt lat="43.06002" lon="1.23517">
        <ele>661.7</ele>
        <time>2020-07-19T08:27:01Z</time>
      </trkpt>
      <trkpt lat="43.06004" lon="1.23523">
        <ele>662.3</ele>
        <time>2020-07-19T08:27:05Z</time>
      </trkpt>
      <trkpt lat="43.06005" lon="1.2353">
        <ele>663.2</ele>
        <time>2020-07-19T08:27:10Z</time>
      </trkpt>
      <trkpt lat="43.06005" lon="1.23535">
        <ele>664</ele>
        <time>2020-07-19T08:27:14Z</time>
      </trkpt>
      <trkpt lat="43.06007" lon="1.23541">
        <ele>665.2</ele>
        <time>2020-07-19T08:27:19Z</time>
      </trkpt>
      <trkpt lat="43.06007" lon="1.23547">
        <ele>665.9</ele>
        <time>2020-07-19T08:27:23Z</time>
      </trkpt>
      <trkpt lat="43.06009" lon="1.23553">
        <ele>666.5</ele>
        <time>2020-07-19T08:27:27Z</time>
      </trkpt>
      <trkpt lat="43.0601" lon="1.23559">
        <ele>667.3</ele>
        <time>2020-07-19T08:27:31Z</time>
      </trkpt>
      <trkpt lat="43.06012" lon="1.23563">
        <ele>667.7</ele>
        <time>2020-07-19T08:27:35Z</time>
      </trkpt>
      <trkpt lat="43.06015" lon="1.23569">
        <ele>668</ele>
        <time>2020-07-19T08:27:40Z</time>
      </trkpt>
      <trkpt lat="43.06018" lon="1.23575">
        <ele>668.5</ele>
        <time>2020-07-19T08:27:45Z</time>
      </trkpt>
      <trkpt lat="43.06019" lon="1.2358">
        <ele>668.9</ele>
        <time>2020-07-19T08:27:49Z</time>
      </trkpt>
      <trkpt lat="43.0602" lon="1.23586">
        <ele>669.5</ele>
        <time>2020-07-19T08:27:53Z</time>
      </trkpt>
      <trkpt lat="43.06024" lon="1.23591">
        <ele>670.2</ele>
        <time>2020-07-19T08:27:58Z</time>
      </trkpt>
      <trkpt lat="43.06026" lon="1.23595">
        <ele>671.1</ele>
        <time>2020-07-19T08:28:03Z</time>
      </trkpt>
      <trkpt lat="43.06029" lon="1.23599">
        <ele>671.7</ele>
        <time>2020-07-19T08:28:07Z</time>
      </trkpt>
      <trkpt lat="43.06032" lon="1.23603">
        <ele>672.3</ele>
        <time>2020-07-19T08:28:12Z</time>
      </trkpt>
      <trkpt lat="43.06035" lon="1.23609">
        <ele>672.7</ele>
        <time>2020-07-19T08:28:17Z</time>
      </trkpt>
      <trkpt lat="43.06039" lon="1.23615">
        <ele>673.1</ele>
        <time>2020-07-19T08:28:22Z</time>
      </trkpt>
      <trkpt lat="43.06042" lon="1.23619">
        <ele>673.5</ele>
        <time>2020-07-19T08:28:26Z</time>
      </trkpt>
      <trkpt lat="43.06045" lon="1.23623">
        <ele>673.9</ele>
        <time>2020-07-19T08:28:30Z</time>
      </trkpt>
      <trkpt lat="43.06048" lon="1.23627">
        <ele>674.3</ele>
        <time>2020-07-19T08:28:35Z</time>
      </trkpt>
      <trkpt lat="43.06052" lon="1.2363">
        <ele>674.7</ele>
        <time>2020-07-19T08:28:39Z</time>
      </trkpt>
      <trkpt lat="43.06054" lon="1.23633">
        <ele>674.9</ele>
        <time>2020-07-19T08:28:43Z</time>
      </trkpt>
      <trkpt lat="43.06058" lon="1.23638">
        <ele>675.4</ele>
        <time>2020-07-19T08:28:48Z</time>
      </trkpt>
      <trkpt lat="43.06061" lon="1.23641">
        <ele>675.9</ele>
        <time>2020-07-19T08:28:52Z</time>
      </trkpt>
      <trkpt lat="43.06065" lon="1.23644">
        <ele>676.6</ele>
        <time>2020-07-19T08:28:57Z</time>
      </trkpt>
      <trkpt lat="43.06068" lon="1.23648">
        <ele>677.3</ele>
        <time>2020-07-19T08:29:02Z</time>
      </trkpt>
      <trkpt lat="43.06072" lon="1.23653">
        <ele>678.1</ele>
        <time>2020-07-19T08:29:07Z</time>
      </trkpt>
      <trkpt lat="43.06075" lon="1.23658">
        <ele>678.6</ele>
        <time>2020-07-19T08:29:11Z</time>
      </trkpt>
      <trkpt lat="43.06078" lon="1.23662">
        <ele>679.2</ele>
        <time>2020-07-19T08:29:16Z</time>
      </trkpt>
      <trkpt lat="43.06081" lon="1.23665">
        <ele>680</ele>
        <time>2020-07-19T08:29:20Z</time>
      </trkpt>
      <trkpt lat="43.06085" lon="1.23669">
        <ele>681</ele>
        <time>2020-07-19T08:29:25Z</time>
      </trkpt>
      <trkpt lat="43.06087" lon="1.23672">
        <ele>681.6</ele>
        <time>2020-07-19T08:29:29Z</time>
      </trkpt>
      <trkpt lat="43.06091" lon="1.23676">
        <ele>683</ele>
        <time>2020-07-19T08:29:36Z</time>
      </trkpt>
      <trkpt lat="43.06095" lon="1.23678">
        <ele>684.2</ele>
        <time>2020-07-19T08:30:30Z</time>
      </trkpt>
      <trkpt lat="43.06096" lon="1.23683">
        <ele>683.5</ele>
        <time>2020-07-19T08:30:59Z</time>
      </trkpt>
      <trkpt lat="43.06102" lon="1.23687">
        <ele>683.1</ele>
        <time>2020-07-19T08:31:03Z</time>
      </trkpt>
      <trkpt lat="43.06106" lon="1.23689">
        <ele>682.4</ele>
        <time>2020-07-19T08:31:09Z</time>
      </trkpt>
      <trkpt lat="43.0611" lon="1.23693">
        <ele>682.1</ele>
        <time>2020-07-19T08:31:14Z</time>
      </trkpt>
      <trkpt lat="43.06113" lon="1.23697">
        <ele>682.1</ele>
        <time>2020-07-19T08:31:18Z</time>
      </trkpt>
      <trkpt lat="43.06117" lon="1.23702">
        <ele>682</ele>
        <time>2020-07-19T08:31:23Z</time>
      </trkpt>
      <trkpt lat="43.06121" lon="1.23705">
        <ele>682</ele>
        <time>2020-07-19T08:31:28Z</time>
      </trkpt>
      <trkpt lat="43.06124" lon="1.2371">
        <ele>681.9</ele>
        <time>2020-07-19T08:31:32Z</time>
      </trkpt>
      <trkpt lat="43.06127" lon="1.23715">
        <ele>681.5</ele>
        <time>2020-07-19T08:31:36Z</time>
      </trkpt>
      <trkpt lat="43.06131" lon="1.23722">
        <ele>681.4</ele>
        <time>2020-07-19T08:31:41Z</time>
      </trkpt>
      <trkpt lat="43.06134" lon="1.23726">
        <ele>681.7</ele>
        <time>2020-07-19T08:31:48Z</time>
      </trkpt>
      <trkpt lat="43.06137" lon="1.23731">
        <ele>681.5</ele>
        <time>2020-07-19T08:31:52Z</time>
      </trkpt>
      <trkpt lat="43.06138" lon="1.23738">
        <ele>681.7</ele>
        <time>2020-07-19T08:31:56Z</time>
      </trkpt>
      <trkpt lat="43.0614" lon="1.23743">
        <ele>682.2</ele>
        <time>2020-07-19T08:32:01Z</time>
      </trkpt>
      <trkpt lat="43.06142" lon="1.23748">
        <ele>682.7</ele>
        <time>2020-07-19T08:32:05Z</time>
      </trkpt>
      <trkpt lat="43.06145" lon="1.23755">
        <ele>682.9</ele>
        <time>2020-07-19T08:32:09Z</time>
      </trkpt>
      <trkpt lat="43.06146" lon="1.2376">
        <ele>683.4</ele>
        <time>2020-07-19T08:32:13Z</time>
      </trkpt>
      <trkpt lat="43.06148" lon="1.23766">
        <ele>683.9</ele>
        <time>2020-07-19T08:32:17Z</time>
      </trkpt>
      <trkpt lat="43.06151" lon="1.23771">
        <ele>684.7</ele>
        <time>2020-07-19T08:32:22Z</time>
      </trkpt>
      <trkpt lat="43.06154" lon="1.23775">
        <ele>685.4</ele>
        <time>2020-07-19T08:32:26Z</time>
      </trkpt>
      <trkpt lat="43.06157" lon="1.23781">
        <ele>685.9</ele>
        <time>2020-07-19T08:32:31Z</time>
      </trkpt>
      <trkpt lat="43.0616" lon="1.23785">
        <ele>686.1</ele>
        <time>2020-07-19T08:32:35Z</time>
      </trkpt>
      <trkpt lat="43.06163" lon="1.23789">
        <ele>686.3</ele>
        <time>2020-07-19T08:32:39Z</time>
      </trkpt>
      <trkpt lat="43.06166" lon="1.23792">
        <ele>686.5</ele>
        <time>2020-07-19T08:32:43Z</time>
      </trkpt>
      <trkpt lat="43.0617" lon="1.23797">
        <ele>686.9</ele>
        <time>2020-07-19T08:32:48Z</time>
      </trkpt>
      <trkpt lat="43.06173" lon="1.238">
        <ele>687.2</ele>
        <time>2020-07-19T08:32:52Z</time>
      </trkpt>
      <trkpt lat="43.06177" lon="1.23804">
        <ele>687.6</ele>
        <time>2020-07-19T08:32:56Z</time>
      </trkpt>
      <trkpt lat="43.06181" lon="1.23811">
        <ele>688</ele>
        <time>2020-07-19T08:33:01Z</time>
      </trkpt>
      <trkpt lat="43.06185" lon="1.23814">
        <ele>688.2</ele>
        <time>2020-07-19T08:33:05Z</time>
      </trkpt>
      <trkpt lat="43.06188" lon="1.23816">
        <ele>688.5</ele>
        <time>2020-07-19T08:33:09Z</time>
      </trkpt>
      <trkpt lat="43.06193" lon="1.2382">
        <ele>689</ele>
        <time>2020-07-19T08:33:14Z</time>
      </trkpt>
      <trkpt lat="43.06197" lon="1.23823">
        <ele>689.4</ele>
        <time>2020-07-19T08:33:18Z</time>
      </trkpt>
      <trkpt lat="43.06202" lon="1.23826">
        <ele>689.9</ele>
        <time>2020-07-19T08:33:23Z</time>
      </trkpt>
      <trkpt lat="43.06205" lon="1.23827">
        <ele>690.4</ele>
        <time>2020-07-19T08:33:27Z</time>
      </trkpt>
      <trkpt lat="43.06209" lon="1.23828">
        <ele>691.2</ele>
        <time>2020-07-19T08:33:31Z</time>
      </trkpt>
      <trkpt lat="43.06215" lon="1.2383">
        <ele>691.7</ele>
        <time>2020-07-19T08:33:36Z</time>
      </trkpt>
      <trkpt lat="43.06215" lon="1.23835">
        <ele>692.7</ele>
        <time>2020-07-19T08:33:44Z</time>
      </trkpt>
      <trkpt lat="43.06217" lon="1.23839">
        <ele>693.6</ele>
        <time>2020-07-19T08:34:33Z</time>
      </trkpt>
      <trkpt lat="43.06214" lon="1.23838">
        <ele>694.3</ele>
        <time>2020-07-19T08:35:26Z</time>
      </trkpt>
      <trkpt lat="43.06216" lon="1.23833">
        <ele>695</ele>
        <time>2020-07-19T08:35:30Z</time>
      </trkpt>
      <trkpt lat="43.06214" lon="1.23837">
        <ele>694.6</ele>
        <time>2020-07-19T08:35:47Z</time>
      </trkpt>
      <trkpt lat="43.06214" lon="1.23839">
        <ele>694.7</ele>
        <time>2020-07-19T08:36:44Z</time>
      </trkpt>
      <trkpt lat="43.06216" lon="1.2383">
        <ele>694.1</ele>
        <time>2020-07-19T08:36:48Z</time>
      </trkpt>
      <trkpt lat="43.06212" lon="1.23834">
        <ele>694.1</ele>
        <time>2020-07-19T08:37:07Z</time>
      </trkpt>
      <trkpt lat="43.0621" lon="1.2383">
        <ele>694</ele>
        <time>2020-07-19T08:37:21Z</time>
      </trkpt>
      <trkpt lat="43.06211" lon="1.23824">
        <ele>694.2</ele>
        <time>2020-07-19T08:37:28Z</time>
      </trkpt>
      <trkpt lat="43.06211" lon="1.23821">
        <ele>694.7</ele>
        <time>2020-07-19T08:38:08Z</time>
      </trkpt>
      <trkpt lat="43.06215" lon="1.23834">
        <ele>695.4</ele>
        <time>2020-07-19T08:38:12Z</time>
      </trkpt>
      <trkpt lat="43.06213" lon="1.23836">
        <ele>697.6</ele>
        <time>2020-07-19T08:41:24Z</time>
      </trkpt>
      <trkpt lat="43.06221" lon="1.23826">
        <ele>699.1</ele>
        <time>2020-07-19T08:41:29Z</time>
      </trkpt>
      <trkpt lat="43.0622" lon="1.2382">
        <ele>700.9</ele>
        <time>2020-07-19T08:42:06Z</time>
      </trkpt>
      <trkpt lat="43.06222" lon="1.23813">
        <ele>701</ele>
        <time>2020-07-19T08:42:11Z</time>
      </trkpt>
      <trkpt lat="43.06221" lon="1.23805">
        <ele>701.1</ele>
        <time>2020-07-19T08:42:15Z</time>
      </trkpt>
      <trkpt lat="43.06223" lon="1.23801">
        <ele>700.5</ele>
        <time>2020-07-19T08:42:20Z</time>
      </trkpt>
      <trkpt lat="43.06224" lon="1.23794">
        <ele>699.5</ele>
        <time>2020-07-19T08:42:25Z</time>
      </trkpt>
      <trkpt lat="43.06223" lon="1.23787">
        <ele>699.2</ele>
        <time>2020-07-19T08:42:29Z</time>
      </trkpt>
      <trkpt lat="43.06222" lon="1.2378">
        <ele>698.8</ele>
        <time>2020-07-19T08:42:34Z</time>
      </trkpt>
      <trkpt lat="43.06223" lon="1.23776">
        <ele>698.8</ele>
        <time>2020-07-19T08:42:56Z</time>
      </trkpt>
      <trkpt lat="43.06226" lon="1.23768">
        <ele>698.9</ele>
        <time>2020-07-19T08:43:01Z</time>
      </trkpt>
      <trkpt lat="43.06227" lon="1.23762">
        <ele>698.8</ele>
        <time>2020-07-19T08:43:05Z</time>
      </trkpt>
      <trkpt lat="43.06229" lon="1.23757">
        <ele>698.8</ele>
        <time>2020-07-19T08:43:10Z</time>
      </trkpt>
      <trkpt lat="43.0623" lon="1.2375">
        <ele>698.9</ele>
        <time>2020-07-19T08:43:15Z</time>
      </trkpt>
      <trkpt lat="43.06231" lon="1.23744">
        <ele>698.9</ele>
        <time>2020-07-19T08:43:19Z</time>
      </trkpt>
      <trkpt lat="43.06234" lon="1.23738">
        <ele>698.8</ele>
        <time>2020-07-19T08:43:23Z</time>
      </trkpt>
      <trkpt lat="43.06236" lon="1.23733">
        <ele>698.7</ele>
        <time>2020-07-19T08:43:27Z</time>
      </trkpt>
      <trkpt lat="43.0624" lon="1.23728">
        <ele>698.8</ele>
        <time>2020-07-19T08:43:32Z</time>
      </trkpt>
      <trkpt lat="43.06244" lon="1.23725">
        <ele>698.6</ele>
        <time>2020-07-19T08:43:36Z</time>
      </trkpt>
      <trkpt lat="43.06249" lon="1.23722">
        <ele>698.2</ele>
        <time>2020-07-19T08:43:41Z</time>
      </trkpt>
      <trkpt lat="43.06248" lon="1.23717">
        <ele>698.5</ele>
        <time>2020-07-19T08:44:00Z</time>
      </trkpt>
      <trkpt lat="43.06253" lon="1.23712">
        <ele>698.3</ele>
        <time>2020-07-19T08:44:05Z</time>
      </trkpt>
      <trkpt lat="43.06254" lon="1.23706">
        <ele>698.1</ele>
        <time>2020-07-19T08:44:09Z</time>
      </trkpt>
      <trkpt lat="43.06253" lon="1.23701">
        <ele>697.8</ele>
        <time>2020-07-19T08:44:14Z</time>
      </trkpt>
      <trkpt lat="43.06254" lon="1.23695">
        <ele>697.7</ele>
        <time>2020-07-19T08:44:20Z</time>
      </trkpt>
      <trkpt lat="43.06256" lon="1.2369">
        <ele>697.5</ele>
        <time>2020-07-19T08:44:26Z</time>
      </trkpt>
      <trkpt lat="43.06258" lon="1.23682">
        <ele>697.2</ele>
        <time>2020-07-19T08:44:31Z</time>
      </trkpt>
      <trkpt lat="43.06262" lon="1.23675">
        <ele>696.9</ele>
        <time>2020-07-19T08:44:35Z</time>
      </trkpt>
      <trkpt lat="43.06266" lon="1.23672">
        <ele>696.5</ele>
        <time>2020-07-19T08:44:39Z</time>
      </trkpt>
      <trkpt lat="43.06274" lon="1.23669">
        <ele>695.3</ele>
        <time>2020-07-19T08:44:44Z</time>
      </trkpt>
      <trkpt lat="43.06275" lon="1.23664">
        <ele>694.7</ele>
        <time>2020-07-19T08:44:48Z</time>
      </trkpt>
      <trkpt lat="43.06277" lon="1.23657">
        <ele>694.3</ele>
        <time>2020-07-19T08:44:53Z</time>
      </trkpt>
      <trkpt lat="43.06279" lon="1.23653">
        <ele>693.9</ele>
        <time>2020-07-19T08:44:57Z</time>
      </trkpt>
      <trkpt lat="43.0628" lon="1.23646">
        <ele>693.4</ele>
        <time>2020-07-19T08:45:02Z</time>
      </trkpt>
      <trkpt lat="43.0628" lon="1.23636">
        <ele>692.3</ele>
        <time>2020-07-19T08:45:07Z</time>
      </trkpt>
      <trkpt lat="43.06282" lon="1.23631">
        <ele>691.8</ele>
        <time>2020-07-19T08:45:11Z</time>
      </trkpt>
      <trkpt lat="43.06282" lon="1.23625">
        <ele>691.4</ele>
        <time>2020-07-19T08:45:16Z</time>
      </trkpt>
      <trkpt lat="43.06283" lon="1.23619">
        <ele>692</ele>
        <time>2020-07-19T08:45:20Z</time>
      </trkpt>
      <trkpt lat="43.06285" lon="1.23614">
        <ele>692</ele>
        <time>2020-07-19T08:45:25Z</time>
      </trkpt>
      <trkpt lat="43.06287" lon="1.23607">
        <ele>691.5</ele>
        <time>2020-07-19T08:45:30Z</time>
      </trkpt>
      <trkpt lat="43.06288" lon="1.23603">
        <ele>691.8</ele>
        <time>2020-07-19T08:45:34Z</time>
      </trkpt>
      <trkpt lat="43.0629" lon="1.23595">
        <ele>691.2</ele>
        <time>2020-07-19T08:45:39Z</time>
      </trkpt>
      <trkpt lat="43.06292" lon="1.23589">
        <ele>690.7</ele>
        <time>2020-07-19T08:45:43Z</time>
      </trkpt>
      <trkpt lat="43.06294" lon="1.2358">
        <ele>690.3</ele>
        <time>2020-07-19T08:45:47Z</time>
      </trkpt>
      <trkpt lat="43.06295" lon="1.23573">
        <ele>690.1</ele>
        <time>2020-07-19T08:45:51Z</time>
      </trkpt>
      <trkpt lat="43.06298" lon="1.23567">
        <ele>689.4</ele>
        <time>2020-07-19T08:45:55Z</time>
      </trkpt>
      <trkpt lat="43.06299" lon="1.23562">
        <ele>688.6</ele>
        <time>2020-07-19T08:46:00Z</time>
      </trkpt>
      <trkpt lat="43.06298" lon="1.23556">
        <ele>688.1</ele>
        <time>2020-07-19T08:46:04Z</time>
      </trkpt>
      <trkpt lat="43.06298" lon="1.2355">
        <ele>687.5</ele>
        <time>2020-07-19T08:46:08Z</time>
      </trkpt>
      <trkpt lat="43.06299" lon="1.23544">
        <ele>687.1</ele>
        <time>2020-07-19T08:46:12Z</time>
      </trkpt>
      <trkpt lat="43.06301" lon="1.23538">
        <ele>686.6</ele>
        <time>2020-07-19T08:46:16Z</time>
      </trkpt>
      <trkpt lat="43.06302" lon="1.23531">
        <ele>685.6</ele>
        <time>2020-07-19T08:46:21Z</time>
      </trkpt>
      <trkpt lat="43.06303" lon="1.23526">
        <ele>684.8</ele>
        <time>2020-07-19T08:46:25Z</time>
      </trkpt>
      <trkpt lat="43.06305" lon="1.2352">
        <ele>683.8</ele>
        <time>2020-07-19T08:46:30Z</time>
      </trkpt>
      <trkpt lat="43.06306" lon="1.23514">
        <ele>682.7</ele>
        <time>2020-07-19T08:46:35Z</time>
      </trkpt>
      <trkpt lat="43.06307" lon="1.23509">
        <ele>681.6</ele>
        <time>2020-07-19T08:46:39Z</time>
      </trkpt>
      <trkpt lat="43.06307" lon="1.23503">
        <ele>679.6</ele>
        <time>2020-07-19T08:46:44Z</time>
      </trkpt>
      <trkpt lat="43.06309" lon="1.23494">
        <ele>677.4</ele>
        <time>2020-07-19T08:46:49Z</time>
      </trkpt>
      <trkpt lat="43.06312" lon="1.23493">
        <ele>677.4</ele>
        <time>2020-07-19T08:47:09Z</time>
      </trkpt>
      <trkpt lat="43.06315" lon="1.2349">
        <ele>677.5</ele>
        <time>2020-07-19T08:47:14Z</time>
      </trkpt>
      <trkpt lat="43.0632" lon="1.23486">
        <ele>677.5</ele>
        <time>2020-07-19T08:47:19Z</time>
      </trkpt>
      <trkpt lat="43.06325" lon="1.23482">
        <ele>677.4</ele>
        <time>2020-07-19T08:47:23Z</time>
      </trkpt>
      <trkpt lat="43.06328" lon="1.23479">
        <ele>677.6</ele>
        <time>2020-07-19T08:47:28Z</time>
      </trkpt>
      <trkpt lat="43.06329" lon="1.23473">
        <ele>677.7</ele>
        <time>2020-07-19T08:47:33Z</time>
      </trkpt>
      <trkpt lat="43.06329" lon="1.23468">
        <ele>677.3</ele>
        <time>2020-07-19T08:47:40Z</time>
      </trkpt>
      <trkpt lat="43.06331" lon="1.23463">
        <ele>677</ele>
        <time>2020-07-19T08:47:46Z</time>
      </trkpt>
      <trkpt lat="43.06331" lon="1.23457">
        <ele>677</ele>
        <time>2020-07-19T08:47:51Z</time>
      </trkpt>
      <trkpt lat="43.06334" lon="1.23453">
        <ele>676.7</ele>
        <time>2020-07-19T08:47:55Z</time>
      </trkpt>
      <trkpt lat="43.06336" lon="1.23447">
        <ele>676.5</ele>
        <time>2020-07-19T08:47:59Z</time>
      </trkpt>
      <trkpt lat="43.06339" lon="1.23443">
        <ele>675.4</ele>
        <time>2020-07-19T08:48:05Z</time>
      </trkpt>
      <trkpt lat="43.06341" lon="1.23437">
        <ele>674.7</ele>
        <time>2020-07-19T08:48:12Z</time>
      </trkpt>
      <trkpt lat="43.06343" lon="1.23433">
        <ele>674.7</ele>
        <time>2020-07-19T08:48:19Z</time>
      </trkpt>
      <trkpt lat="43.06345" lon="1.23428">
        <ele>675</ele>
        <time>2020-07-19T08:48:24Z</time>
      </trkpt>
      <trkpt lat="43.06348" lon="1.23424">
        <ele>675.1</ele>
        <time>2020-07-19T08:48:29Z</time>
      </trkpt>
      <trkpt lat="43.06353" lon="1.23419">
        <ele>675.3</ele>
        <time>2020-07-19T08:48:33Z</time>
      </trkpt>
      <trkpt lat="43.06356" lon="1.23414">
        <ele>675.5</ele>
        <time>2020-07-19T08:48:37Z</time>
      </trkpt>
      <trkpt lat="43.06361" lon="1.23407">
        <ele>675.7</ele>
        <time>2020-07-19T08:48:42Z</time>
      </trkpt>
      <trkpt lat="43.06366" lon="1.23402">
        <ele>675.4</ele>
        <time>2020-07-19T08:48:46Z</time>
      </trkpt>
      <trkpt lat="43.0637" lon="1.23401">
        <ele>674.4</ele>
        <time>2020-07-19T08:48:52Z</time>
      </trkpt>
      <trkpt lat="43.06374" lon="1.23398">
        <ele>672.9</ele>
        <time>2020-07-19T08:48:58Z</time>
      </trkpt>
      <trkpt lat="43.06377" lon="1.23394">
        <ele>672</ele>
        <time>2020-07-19T08:49:02Z</time>
      </trkpt>
      <trkpt lat="43.06382" lon="1.23388">
        <ele>670.8</ele>
        <time>2020-07-19T08:49:07Z</time>
      </trkpt>
      <trkpt lat="43.06385" lon="1.23382">
        <ele>670.1</ele>
        <time>2020-07-19T08:49:11Z</time>
      </trkpt>
      <trkpt lat="43.06387" lon="1.23377">
        <ele>668.8</ele>
        <time>2020-07-19T08:49:19Z</time>
      </trkpt>
      <trkpt lat="43.06389" lon="1.23373">
        <ele>668.1</ele>
        <time>2020-07-19T08:49:24Z</time>
      </trkpt>
      <trkpt lat="43.06393" lon="1.2337">
        <ele>667.7</ele>
        <time>2020-07-19T08:49:28Z</time>
      </trkpt>
      <trkpt lat="43.06396" lon="1.23368">
        <ele>667.2</ele>
        <time>2020-07-19T08:49:33Z</time>
      </trkpt>
      <trkpt lat="43.064" lon="1.23365">
        <ele>666.9</ele>
        <time>2020-07-19T08:49:38Z</time>
      </trkpt>
      <trkpt lat="43.06405" lon="1.23364">
        <ele>666.7</ele>
        <time>2020-07-19T08:49:43Z</time>
      </trkpt>
      <trkpt lat="43.06408" lon="1.23364">
        <ele>666.2</ele>
        <time>2020-07-19T08:49:48Z</time>
      </trkpt>
      <trkpt lat="43.06412" lon="1.23363">
        <ele>665.7</ele>
        <time>2020-07-19T08:49:52Z</time>
      </trkpt>
      <trkpt lat="43.06416" lon="1.2336">
        <ele>664.8</ele>
        <time>2020-07-19T08:49:57Z</time>
      </trkpt>
      <trkpt lat="43.0642" lon="1.23361">
        <ele>664.3</ele>
        <time>2020-07-19T08:50:02Z</time>
      </trkpt>
      <trkpt lat="43.06427" lon="1.23358">
        <ele>663</ele>
        <time>2020-07-19T08:50:07Z</time>
      </trkpt>
      <trkpt lat="43.0643" lon="1.23356">
        <ele>662.4</ele>
        <time>2020-07-19T08:50:11Z</time>
      </trkpt>
      <trkpt lat="43.06435" lon="1.23354">
        <ele>661.5</ele>
        <time>2020-07-19T08:50:16Z</time>
      </trkpt>
      <trkpt lat="43.06439" lon="1.23355">
        <ele>660.6</ele>
        <time>2020-07-19T08:50:20Z</time>
      </trkpt>
      <trkpt lat="43.06443" lon="1.23351">
        <ele>659.5</ele>
        <time>2020-07-19T08:50:25Z</time>
      </trkpt>
      <trkpt lat="43.06446" lon="1.2335">
        <ele>658.4</ele>
        <time>2020-07-19T08:50:30Z</time>
      </trkpt>
      <trkpt lat="43.0645" lon="1.23348">
        <ele>657.4</ele>
        <time>2020-07-19T08:50:34Z</time>
      </trkpt>
      <trkpt lat="43.06453" lon="1.23348">
        <ele>656.1</ele>
        <time>2020-07-19T08:50:38Z</time>
      </trkpt>
      <trkpt lat="43.06457" lon="1.23347">
        <ele>654.6</ele>
        <time>2020-07-19T08:50:42Z</time>
      </trkpt>
      <trkpt lat="43.06461" lon="1.23346">
        <ele>653.3</ele>
        <time>2020-07-19T08:50:47Z</time>
      </trkpt>
      <trkpt lat="43.06465" lon="1.23341">
        <ele>651.9</ele>
        <time>2020-07-19T08:50:52Z</time>
      </trkpt>
      <trkpt lat="43.06471" lon="1.23337">
        <ele>651.2</ele>
        <time>2020-07-19T08:50:56Z</time>
      </trkpt>
      <trkpt lat="43.06476" lon="1.23337">
        <ele>649.9</ele>
        <time>2020-07-19T08:51:01Z</time>
      </trkpt>
      <trkpt lat="43.06481" lon="1.23338">
        <ele>648.7</ele>
        <time>2020-07-19T08:51:05Z</time>
      </trkpt>
      <trkpt lat="43.06486" lon="1.23337">
        <ele>647.2</ele>
        <time>2020-07-19T08:51:10Z</time>
      </trkpt>
      <trkpt lat="43.06491" lon="1.23333">
        <ele>646.1</ele>
        <time>2020-07-19T08:51:14Z</time>
      </trkpt>
      <trkpt lat="43.06496" lon="1.23329">
        <ele>644.7</ele>
        <time>2020-07-19T08:51:18Z</time>
      </trkpt>
      <trkpt lat="43.06501" lon="1.23323">
        <ele>643.5</ele>
        <time>2020-07-19T08:51:22Z</time>
      </trkpt>
      <trkpt lat="43.06506" lon="1.23317">
        <ele>642.4</ele>
        <time>2020-07-19T08:51:26Z</time>
      </trkpt>
      <trkpt lat="43.06509" lon="1.23314">
        <ele>640.6</ele>
        <time>2020-07-19T08:51:32Z</time>
      </trkpt>
      <trkpt lat="43.06512" lon="1.2331">
        <ele>639.4</ele>
        <time>2020-07-19T08:51:36Z</time>
      </trkpt>
      <trkpt lat="43.06512" lon="1.23305">
        <ele>637.6</ele>
        <time>2020-07-19T08:51:42Z</time>
      </trkpt>
      <trkpt lat="43.06515" lon="1.23301">
        <ele>635.8</ele>
        <time>2020-07-19T08:51:48Z</time>
      </trkpt>
      <trkpt lat="43.06519" lon="1.23298">
        <ele>634.8</ele>
        <time>2020-07-19T08:51:52Z</time>
      </trkpt>
      <trkpt lat="43.06522" lon="1.23294">
        <ele>633.9</ele>
        <time>2020-07-19T08:51:56Z</time>
      </trkpt>
      <trkpt lat="43.06524" lon="1.23289">
        <ele>632.6</ele>
        <time>2020-07-19T08:52:01Z</time>
      </trkpt>
      <trkpt lat="43.06526" lon="1.23285">
        <ele>631.2</ele>
        <time>2020-07-19T08:52:06Z</time>
      </trkpt>
      <trkpt lat="43.06527" lon="1.23279">
        <ele>630.1</ele>
        <time>2020-07-19T08:52:10Z</time>
      </trkpt>
      <trkpt lat="43.06527" lon="1.23273">
        <ele>629.1</ele>
        <time>2020-07-19T08:52:14Z</time>
      </trkpt>
      <trkpt lat="43.06528" lon="1.23266">
        <ele>627.7</ele>
        <time>2020-07-19T08:52:19Z</time>
      </trkpt>
      <trkpt lat="43.06531" lon="1.23263">
        <ele>626.9</ele>
        <time>2020-07-19T08:52:23Z</time>
      </trkpt>
      <trkpt lat="43.06534" lon="1.23258">
        <ele>625.7</ele>
        <time>2020-07-19T08:52:29Z</time>
      </trkpt>
      <trkpt lat="43.06535" lon="1.23252">
        <ele>624.7</ele>
        <time>2020-07-19T08:52:35Z</time>
      </trkpt>
      <trkpt lat="43.06537" lon="1.23247">
        <ele>623.9</ele>
        <time>2020-07-19T08:52:40Z</time>
      </trkpt>
      <trkpt lat="43.0654" lon="1.23243">
        <ele>623.3</ele>
        <time>2020-07-19T08:52:44Z</time>
      </trkpt>
      <trkpt lat="43.06542" lon="1.23237">
        <ele>622.6</ele>
        <time>2020-07-19T08:52:48Z</time>
      </trkpt>
      <trkpt lat="43.06543" lon="1.23231">
        <ele>621.9</ele>
        <time>2020-07-19T08:52:52Z</time>
      </trkpt>
      <trkpt lat="43.06544" lon="1.23225">
        <ele>621.3</ele>
        <time>2020-07-19T08:52:56Z</time>
      </trkpt>
      <trkpt lat="43.06548" lon="1.23216">
        <ele>620.5</ele>
        <time>2020-07-19T08:53:01Z</time>
      </trkpt>
      <trkpt lat="43.06551" lon="1.23212">
        <ele>619</ele>
        <time>2020-07-19T08:53:08Z</time>
      </trkpt>
      <trkpt lat="43.0655" lon="1.23205">
        <ele>617.7</ele>
        <time>2020-07-19T08:53:13Z</time>
      </trkpt>
      <trkpt lat="43.06549" lon="1.232">
        <ele>616.7</ele>
        <time>2020-07-19T08:53:18Z</time>
      </trkpt>
      <trkpt lat="43.06551" lon="1.23193">
        <ele>615.8</ele>
        <time>2020-07-19T08:53:23Z</time>
      </trkpt>
      <trkpt lat="43.06552" lon="1.23188">
        <ele>615.1</ele>
        <time>2020-07-19T08:53:27Z</time>
      </trkpt>
      <trkpt lat="43.06554" lon="1.23182">
        <ele>614.1</ele>
        <time>2020-07-19T08:53:31Z</time>
      </trkpt>
      <trkpt lat="43.06555" lon="1.23176">
        <ele>612.9</ele>
        <time>2020-07-19T08:53:38Z</time>
      </trkpt>
      <trkpt lat="43.06557" lon="1.23173">
        <ele>611.9</ele>
        <time>2020-07-19T08:53:51Z</time>
      </trkpt>
      <trkpt lat="43.06557" lon="1.23167">
        <ele>610.6</ele>
        <time>2020-07-19T08:53:58Z</time>
      </trkpt>
      <trkpt lat="43.06555" lon="1.2316">
        <ele>609.3</ele>
        <time>2020-07-19T08:54:03Z</time>
      </trkpt>
      <trkpt lat="43.06554" lon="1.23156">
        <ele>608.5</ele>
        <time>2020-07-19T08:54:07Z</time>
      </trkpt>
      <trkpt lat="43.06552" lon="1.23149">
        <ele>607.8</ele>
        <time>2020-07-19T08:54:12Z</time>
      </trkpt>
      <trkpt lat="43.06553" lon="1.23144">
        <ele>607.2</ele>
        <time>2020-07-19T08:54:20Z</time>
      </trkpt>
      <trkpt lat="43.06556" lon="1.2314">
        <ele>606.4</ele>
        <time>2020-07-19T08:54:30Z</time>
      </trkpt>
      <trkpt lat="43.0656" lon="1.23144">
        <ele>606.1</ele>
        <time>2020-07-19T08:54:43Z</time>
      </trkpt>
      <trkpt lat="43.06564" lon="1.23142">
        <ele>606.5</ele>
        <time>2020-07-19T08:54:47Z</time>
      </trkpt>
      <trkpt lat="43.06567" lon="1.23138">
        <ele>605.5</ele>
        <time>2020-07-19T08:54:56Z</time>
      </trkpt>
      <trkpt lat="43.06569" lon="1.23133">
        <ele>606.1</ele>
        <time>2020-07-19T08:55:01Z</time>
      </trkpt>
      <trkpt lat="43.0657" lon="1.2313">
        <ele>606.6</ele>
        <time>2020-07-19T08:55:05Z</time>
      </trkpt>
      <trkpt lat="43.06575" lon="1.23129">
        <ele>608.6</ele>
        <time>2020-07-19T08:55:10Z</time>
      </trkpt>
      <trkpt lat="43.06577" lon="1.23124">
        <ele>609.6</ele>
        <time>2020-07-19T08:55:14Z</time>
      </trkpt>
      <trkpt lat="43.06581" lon="1.23121">
        <ele>611.6</ele>
        <time>2020-07-19T08:55:20Z</time>
      </trkpt>
      <trkpt lat="43.06585" lon="1.23118">
        <ele>613.4</ele>
        <time>2020-07-19T08:55:25Z</time>
      </trkpt>
      <trkpt lat="43.06589" lon="1.23118">
        <ele>615</ele>
        <time>2020-07-19T08:55:29Z</time>
      </trkpt>
      <trkpt lat="43.06595" lon="1.23114">
        <ele>616.3</ele>
        <time>2020-07-19T08:55:34Z</time>
      </trkpt>
      <trkpt lat="43.066" lon="1.23114">
        <ele>617.7</ele>
        <time>2020-07-19T08:55:39Z</time>
      </trkpt>
      <trkpt lat="43.06605" lon="1.23112">
        <ele>618.1</ele>
        <time>2020-07-19T08:55:44Z</time>
      </trkpt>
      <trkpt lat="43.06609" lon="1.23113">
        <ele>618.5</ele>
        <time>2020-07-19T08:55:48Z</time>
      </trkpt>
      <trkpt lat="43.06613" lon="1.2311">
        <ele>618.5</ele>
        <time>2020-07-19T08:55:53Z</time>
      </trkpt>
      <trkpt lat="43.06617" lon="1.23109">
        <ele>618.4</ele>
        <time>2020-07-19T08:55:57Z</time>
      </trkpt>
      <trkpt lat="43.0662" lon="1.23107">
        <ele>617.9</ele>
        <time>2020-07-19T08:56:01Z</time>
      </trkpt>
      <trkpt lat="43.06623" lon="1.23104">
        <ele>617</ele>
        <time>2020-07-19T08:56:06Z</time>
      </trkpt>
      <trkpt lat="43.06627" lon="1.23102">
        <ele>616.5</ele>
        <time>2020-07-19T08:56:10Z</time>
      </trkpt>
      <trkpt lat="43.0663" lon="1.23099">
        <ele>615.4</ele>
        <time>2020-07-19T08:56:18Z</time>
      </trkpt>
      <trkpt lat="43.06636" lon="1.23096">
        <ele>615.3</ele>
        <time>2020-07-19T08:56:23Z</time>
      </trkpt>
      <trkpt lat="43.0664" lon="1.23093">
        <ele>615.1</ele>
        <time>2020-07-19T08:56:27Z</time>
      </trkpt>
      <trkpt lat="43.06644" lon="1.23089">
        <ele>614.1</ele>
        <time>2020-07-19T08:56:31Z</time>
      </trkpt>
      <trkpt lat="43.06648" lon="1.23085">
        <ele>613.6</ele>
        <time>2020-07-19T08:56:36Z</time>
      </trkpt>
      <trkpt lat="43.06652" lon="1.2308">
        <ele>612.5</ele>
        <time>2020-07-19T08:56:41Z</time>
      </trkpt>
      <trkpt lat="43.06656" lon="1.23074">
        <ele>611.6</ele>
        <time>2020-07-19T08:56:45Z</time>
      </trkpt>
      <trkpt lat="43.06661" lon="1.2307">
        <ele>610.2</ele>
        <time>2020-07-19T08:56:50Z</time>
      </trkpt>
      <trkpt lat="43.06666" lon="1.23064">
        <ele>608.9</ele>
        <time>2020-07-19T08:56:55Z</time>
      </trkpt>
      <trkpt lat="43.06669" lon="1.2306">
        <ele>608.2</ele>
        <time>2020-07-19T08:56:59Z</time>
      </trkpt>
      <trkpt lat="43.06672" lon="1.23056">
        <ele>607.5</ele>
        <time>2020-07-19T08:57:04Z</time>
      </trkpt>
      <trkpt lat="43.06675" lon="1.23052">
        <ele>607.2</ele>
        <time>2020-07-19T08:57:08Z</time>
      </trkpt>
      <trkpt lat="43.0668" lon="1.23047">
        <ele>607</ele>
        <time>2020-07-19T08:57:13Z</time>
      </trkpt>
      <trkpt lat="43.06682" lon="1.23042">
        <ele>607.3</ele>
        <time>2020-07-19T08:57:17Z</time>
      </trkpt>
      <trkpt lat="43.06685" lon="1.23037">
        <ele>607.4</ele>
        <time>2020-07-19T08:57:22Z</time>
      </trkpt>
      <trkpt lat="43.06687" lon="1.23033">
        <ele>607.5</ele>
        <time>2020-07-19T08:57:28Z</time>
      </trkpt>
      <trkpt lat="43.0669" lon="1.23028">
        <ele>607.3</ele>
        <time>2020-07-19T08:57:33Z</time>
      </trkpt>
      <trkpt lat="43.06692" lon="1.2302">
        <ele>606.4</ele>
        <time>2020-07-19T08:57:38Z</time>
      </trkpt>
      <trkpt lat="43.06693" lon="1.23013">
        <ele>605.7</ele>
        <time>2020-07-19T08:57:42Z</time>
      </trkpt>
      <trkpt lat="43.06693" lon="1.23006">
        <ele>604.5</ele>
        <time>2020-07-19T08:57:47Z</time>
      </trkpt>
      <trkpt lat="43.06692" lon="1.23">
        <ele>603.5</ele>
        <time>2020-07-19T08:57:51Z</time>
      </trkpt>
      <trkpt lat="43.0669" lon="1.22995">
        <ele>602.9</ele>
        <time>2020-07-19T08:57:55Z</time>
      </trkpt>
      <trkpt lat="43.06688" lon="1.22991">
        <ele>602.2</ele>
        <time>2020-07-19T08:57:59Z</time>
      </trkpt>
      <trkpt lat="43.06684" lon="1.22987">
        <ele>601.1</ele>
        <time>2020-07-19T08:58:04Z</time>
      </trkpt>
      <trkpt lat="43.06681" lon="1.22984">
        <ele>599.3</ele>
        <time>2020-07-19T08:58:13Z</time>
      </trkpt>
      <trkpt lat="43.06678" lon="1.2298">
        <ele>598.5</ele>
        <time>2020-07-19T08:58:17Z</time>
      </trkpt>
      <trkpt lat="43.06674" lon="1.22974">
        <ele>598</ele>
        <time>2020-07-19T08:58:21Z</time>
      </trkpt>
      <trkpt lat="43.06671" lon="1.2297">
        <ele>597.5</ele>
        <time>2020-07-19T08:58:25Z</time>
      </trkpt>
      <trkpt lat="43.06666" lon="1.22967">
        <ele>596.7</ele>
        <time>2020-07-19T08:58:30Z</time>
      </trkpt>
      <trkpt lat="43.06663" lon="1.22962">
        <ele>594.6</ele>
        <time>2020-07-19T08:58:39Z</time>
      </trkpt>
      <trkpt lat="43.06661" lon="1.22958">
        <ele>593.9</ele>
        <time>2020-07-19T08:58:43Z</time>
      </trkpt>
      <trkpt lat="43.06658" lon="1.22953">
        <ele>593</ele>
        <time>2020-07-19T08:58:47Z</time>
      </trkpt>
      <trkpt lat="43.06657" lon="1.22948">
        <ele>591.9</ele>
        <time>2020-07-19T08:58:51Z</time>
      </trkpt>
      <trkpt lat="43.06655" lon="1.22942">
        <ele>591.1</ele>
        <time>2020-07-19T08:58:55Z</time>
      </trkpt>
      <trkpt lat="43.06653" lon="1.22935">
        <ele>590.5</ele>
        <time>2020-07-19T08:58:59Z</time>
      </trkpt>
      <trkpt lat="43.06651" lon="1.22929">
        <ele>589.3</ele>
        <time>2020-07-19T08:59:04Z</time>
      </trkpt>
      <trkpt lat="43.06649" lon="1.22924">
        <ele>588.3</ele>
        <time>2020-07-19T08:59:09Z</time>
      </trkpt>
      <trkpt lat="43.06645" lon="1.22922">
        <ele>587.4</ele>
        <time>2020-07-19T08:59:17Z</time>
      </trkpt>
      <trkpt lat="43.06643" lon="1.22918">
        <ele>587</ele>
        <time>2020-07-19T08:59:22Z</time>
      </trkpt>
      <trkpt lat="43.06644" lon="1.2291">
        <ele>586.4</ele>
        <time>2020-07-19T08:59:27Z</time>
      </trkpt>
      <trkpt lat="43.06646" lon="1.22902">
        <ele>585.8</ele>
        <time>2020-07-19T08:59:31Z</time>
      </trkpt>
      <trkpt lat="43.06646" lon="1.22893">
        <ele>585.1</ele>
        <time>2020-07-19T08:59:36Z</time>
      </trkpt>
      <trkpt lat="43.06646" lon="1.22882">
        <ele>584.8</ele>
        <time>2020-07-19T08:59:41Z</time>
      </trkpt>
      <trkpt lat="43.06647" lon="1.22875">
        <ele>584.5</ele>
        <time>2020-07-19T08:59:45Z</time>
      </trkpt>
      <trkpt lat="43.06647" lon="1.22869">
        <ele>584</ele>
        <time>2020-07-19T08:59:49Z</time>
      </trkpt>
      <trkpt lat="43.06647" lon="1.22864">
        <ele>583.2</ele>
        <time>2020-07-19T08:59:54Z</time>
      </trkpt>
      <trkpt lat="43.06644" lon="1.2286">
        <ele>582.8</ele>
        <time>2020-07-19T08:59:59Z</time>
      </trkpt>
      <trkpt lat="43.0664" lon="1.22855">
        <ele>582.2</ele>
        <time>2020-07-19T09:00:03Z</time>
      </trkpt>
      <trkpt lat="43.06639" lon="1.2285">
        <ele>581.3</ele>
        <time>2020-07-19T09:00:07Z</time>
      </trkpt>
      <trkpt lat="43.0664" lon="1.22843">
        <ele>580.5</ele>
        <time>2020-07-19T09:00:11Z</time>
      </trkpt>
      <trkpt lat="43.0664" lon="1.22836">
        <ele>579.7</ele>
        <time>2020-07-19T09:00:16Z</time>
      </trkpt>
      <trkpt lat="43.0664" lon="1.22827">
        <ele>579.3</ele>
        <time>2020-07-19T09:00:20Z</time>
      </trkpt>
      <trkpt lat="43.0664" lon="1.2282">
        <ele>578.7</ele>
        <time>2020-07-19T09:00:24Z</time>
      </trkpt>
      <trkpt lat="43.06638" lon="1.22813">
        <ele>578.2</ele>
        <time>2020-07-19T09:00:28Z</time>
      </trkpt>
      <trkpt lat="43.06639" lon="1.22808">
        <ele>577.6</ele>
        <time>2020-07-19T09:00:32Z</time>
      </trkpt>
      <trkpt lat="43.06639" lon="1.22802">
        <ele>576.8</ele>
        <time>2020-07-19T09:00:37Z</time>
      </trkpt>
      <trkpt lat="43.06639" lon="1.22796">
        <ele>575.6</ele>
        <time>2020-07-19T09:00:42Z</time>
      </trkpt>
      <trkpt lat="43.06642" lon="1.2279">
        <ele>574.4</ele>
        <time>2020-07-19T09:00:47Z</time>
      </trkpt>
      <trkpt lat="43.06645" lon="1.22783">
        <ele>573.3</ele>
        <time>2020-07-19T09:00:51Z</time>
      </trkpt>
      <trkpt lat="43.06648" lon="1.22775">
        <ele>571.9</ele>
        <time>2020-07-19T09:00:56Z</time>
      </trkpt>
      <trkpt lat="43.06649" lon="1.22769">
        <ele>569.8</ele>
        <time>2020-07-19T09:01:03Z</time>
      </trkpt>
      <trkpt lat="43.06648" lon="1.22764">
        <ele>568.9</ele>
        <time>2020-07-19T09:01:08Z</time>
      </trkpt>
      <trkpt lat="43.06651" lon="1.22756">
        <ele>568.3</ele>
        <time>2020-07-19T09:01:12Z</time>
      </trkpt>
      <trkpt lat="43.06653" lon="1.22751">
        <ele>568.2</ele>
        <time>2020-07-19T09:01:16Z</time>
      </trkpt>
      <trkpt lat="43.06655" lon="1.22742">
        <ele>568.3</ele>
        <time>2020-07-19T09:01:20Z</time>
      </trkpt>
      <trkpt lat="43.06657" lon="1.22735">
        <ele>567.9</ele>
        <time>2020-07-19T09:01:25Z</time>
      </trkpt>
      <trkpt lat="43.06658" lon="1.2273">
        <ele>567.3</ele>
        <time>2020-07-19T09:01:30Z</time>
      </trkpt>
      <trkpt lat="43.06658" lon="1.22725">
        <ele>566.8</ele>
        <time>2020-07-19T09:01:34Z</time>
      </trkpt>
      <trkpt lat="43.06659" lon="1.22716">
        <ele>566.4</ele>
        <time>2020-07-19T09:01:39Z</time>
      </trkpt>
      <trkpt lat="43.06658" lon="1.2271">
        <ele>565.8</ele>
        <time>2020-07-19T09:01:44Z</time>
      </trkpt>
      <trkpt lat="43.06657" lon="1.22705">
        <ele>565.2</ele>
        <time>2020-07-19T09:01:48Z</time>
      </trkpt>
      <trkpt lat="43.0666" lon="1.227">
        <ele>564.5</ele>
        <time>2020-07-19T09:01:53Z</time>
      </trkpt>
      <trkpt lat="43.06663" lon="1.22696">
        <ele>563.8</ele>
        <time>2020-07-19T09:01:57Z</time>
      </trkpt>
      <trkpt lat="43.06664" lon="1.22688">
        <ele>563.2</ele>
        <time>2020-07-19T09:02:01Z</time>
      </trkpt>
      <trkpt lat="43.06666" lon="1.22678">
        <ele>562.1</ele>
        <time>2020-07-19T09:02:06Z</time>
      </trkpt>
      <trkpt lat="43.06667" lon="1.22672">
        <ele>561.3</ele>
        <time>2020-07-19T09:02:10Z</time>
      </trkpt>
      <trkpt lat="43.06668" lon="1.22667">
        <ele>560.6</ele>
        <time>2020-07-19T09:02:15Z</time>
      </trkpt>
      <trkpt lat="43.06669" lon="1.22658">
        <ele>559.6</ele>
        <time>2020-07-19T09:02:20Z</time>
      </trkpt>
      <trkpt lat="43.0667" lon="1.22653">
        <ele>558.8</ele>
        <time>2020-07-19T09:02:24Z</time>
      </trkpt>
      <trkpt lat="43.0667" lon="1.22647">
        <ele>558.2</ele>
        <time>2020-07-19T09:02:28Z</time>
      </trkpt>
      <trkpt lat="43.0667" lon="1.22641">
        <ele>557.4</ele>
        <time>2020-07-19T09:02:32Z</time>
      </trkpt>
      <trkpt lat="43.06671" lon="1.22633">
        <ele>556.6</ele>
        <time>2020-07-19T09:02:37Z</time>
      </trkpt>
      <trkpt lat="43.06672" lon="1.22626">
        <ele>556</ele>
        <time>2020-07-19T09:02:41Z</time>
      </trkpt>
      <trkpt lat="43.06673" lon="1.22619">
        <ele>555</ele>
        <time>2020-07-19T09:02:46Z</time>
      </trkpt>
      <trkpt lat="43.06673" lon="1.22612">
        <ele>554.3</ele>
        <time>2020-07-19T09:02:50Z</time>
      </trkpt>
      <trkpt lat="43.06674" lon="1.22603">
        <ele>553.3</ele>
        <time>2020-07-19T09:02:55Z</time>
      </trkpt>
      <trkpt lat="43.06675" lon="1.22598">
        <ele>552.8</ele>
        <time>2020-07-19T09:02:59Z</time>
      </trkpt>
      <trkpt lat="43.06678" lon="1.22591">
        <ele>551.8</ele>
        <time>2020-07-19T09:03:04Z</time>
      </trkpt>
      <trkpt lat="43.0668" lon="1.22584">
        <ele>551.1</ele>
        <time>2020-07-19T09:03:08Z</time>
      </trkpt>
      <trkpt lat="43.06683" lon="1.2258">
        <ele>550.1</ele>
        <time>2020-07-19T09:03:17Z</time>
      </trkpt>
      <trkpt lat="43.06686" lon="1.22575">
        <ele>549.2</ele>
        <time>2020-07-19T09:03:33Z</time>
      </trkpt>
      <trkpt lat="43.06689" lon="1.22571">
        <ele>548.8</ele>
        <time>2020-07-19T09:03:37Z</time>
      </trkpt>
      <trkpt lat="43.06693" lon="1.22566">
        <ele>548.4</ele>
        <time>2020-07-19T09:03:42Z</time>
      </trkpt>
      <trkpt lat="43.06698" lon="1.22565">
        <ele>548</ele>
        <time>2020-07-19T09:03:46Z</time>
      </trkpt>
      <trkpt lat="43.06703" lon="1.22565">
        <ele>547.3</ele>
        <time>2020-07-19T09:03:50Z</time>
      </trkpt>
      <trkpt lat="43.06709" lon="1.22566">
        <ele>546.5</ele>
        <time>2020-07-19T09:03:55Z</time>
      </trkpt>
      <trkpt lat="43.06714" lon="1.22565">
        <ele>545.6</ele>
        <time>2020-07-19T09:04:00Z</time>
      </trkpt>
      <trkpt lat="43.06718" lon="1.22563">
        <ele>545.1</ele>
        <time>2020-07-19T09:04:04Z</time>
      </trkpt>
      <trkpt lat="43.06722" lon="1.2256">
        <ele>544.4</ele>
        <time>2020-07-19T09:04:09Z</time>
      </trkpt>
      <trkpt lat="43.06724" lon="1.22555">
        <ele>543.8</ele>
        <time>2020-07-19T09:04:13Z</time>
      </trkpt>
      <trkpt lat="43.06726" lon="1.2255">
        <ele>543.3</ele>
        <time>2020-07-19T09:04:17Z</time>
      </trkpt>
      <trkpt lat="43.06728" lon="1.22544">
        <ele>542.6</ele>
        <time>2020-07-19T09:04:21Z</time>
      </trkpt>
      <trkpt lat="43.06731" lon="1.22537">
        <ele>542.2</ele>
        <time>2020-07-19T09:04:25Z</time>
      </trkpt>
      <trkpt lat="43.06731" lon="1.22531">
        <ele>541.6</ele>
        <time>2020-07-19T09:04:30Z</time>
      </trkpt>
      <trkpt lat="43.06734" lon="1.22526">
        <ele>540.9</ele>
        <time>2020-07-19T09:04:35Z</time>
      </trkpt>
      <trkpt lat="43.06737" lon="1.22525">
        <ele>539.3</ele>
        <time>2020-07-19T09:05:04Z</time>
      </trkpt>
      <trkpt lat="43.06742" lon="1.22517">
        <ele>540.5</ele>
        <time>2020-07-19T09:05:09Z</time>
      </trkpt>
      <trkpt lat="43.06746" lon="1.22512">
        <ele>540.6</ele>
        <time>2020-07-19T09:05:13Z</time>
      </trkpt>
      <trkpt lat="43.06748" lon="1.22507">
        <ele>540.7</ele>
        <time>2020-07-19T09:05:18Z</time>
      </trkpt>
      <trkpt lat="43.06752" lon="1.22504">
        <ele>540.9</ele>
        <time>2020-07-19T09:05:23Z</time>
      </trkpt>
      <trkpt lat="43.06755" lon="1.225">
        <ele>541</ele>
        <time>2020-07-19T09:05:28Z</time>
      </trkpt>
      <trkpt lat="43.06758" lon="1.22495">
        <ele>541.1</ele>
        <time>2020-07-19T09:05:33Z</time>
      </trkpt>
      <trkpt lat="43.06762" lon="1.22487">
        <ele>540.9</ele>
        <time>2020-07-19T09:05:37Z</time>
      </trkpt>
      <trkpt lat="43.06764" lon="1.22483">
        <ele>540.1</ele>
        <time>2020-07-19T09:05:41Z</time>
      </trkpt>
      <trkpt lat="43.06768" lon="1.22474">
        <ele>539.7</ele>
        <time>2020-07-19T09:05:46Z</time>
      </trkpt>
      <trkpt lat="43.06769" lon="1.22469">
        <ele>538.5</ele>
        <time>2020-07-19T09:05:51Z</time>
      </trkpt>
      <trkpt lat="43.06773" lon="1.22463">
        <ele>537.9</ele>
        <time>2020-07-19T09:05:55Z</time>
      </trkpt>
      <trkpt lat="43.06777" lon="1.22456">
        <ele>537.5</ele>
        <time>2020-07-19T09:05:59Z</time>
      </trkpt>
      <trkpt lat="43.06781" lon="1.2245">
        <ele>537</ele>
        <time>2020-07-19T09:06:03Z</time>
      </trkpt>
      <trkpt lat="43.06784" lon="1.22446">
        <ele>536.6</ele>
        <time>2020-07-19T09:06:07Z</time>
      </trkpt>
      <trkpt lat="43.06786" lon="1.2244">
        <ele>535.9</ele>
        <time>2020-07-19T09:06:12Z</time>
      </trkpt>
      <trkpt lat="43.06787" lon="1.22432">
        <ele>535</ele>
        <time>2020-07-19T09:06:17Z</time>
      </trkpt>
      <trkpt lat="43.06788" lon="1.22427">
        <ele>534.5</ele>
        <time>2020-07-19T09:06:22Z</time>
      </trkpt>
      <trkpt lat="43.06791" lon="1.22423">
        <ele>534.3</ele>
        <time>2020-07-19T09:06:27Z</time>
      </trkpt>
      <trkpt lat="43.06795" lon="1.2242">
        <ele>534.3</ele>
        <time>2020-07-19T09:06:31Z</time>
      </trkpt>
      <trkpt lat="43.06797" lon="1.22415">
        <ele>534</ele>
        <time>2020-07-19T09:06:35Z</time>
      </trkpt>
      <trkpt lat="43.068" lon="1.22408">
        <ele>533.4</ele>
        <time>2020-07-19T09:06:40Z</time>
      </trkpt>
      <trkpt lat="43.06802" lon="1.22403">
        <ele>533.1</ele>
        <time>2020-07-19T09:06:44Z</time>
      </trkpt>
      <trkpt lat="43.06802" lon="1.22397">
        <ele>531.8</ele>
        <time>2020-07-19T09:06:55Z</time>
      </trkpt>
      <trkpt lat="43.06803" lon="1.22391">
        <ele>531.3</ele>
        <time>2020-07-19T09:07:45Z</time>
      </trkpt>
      <trkpt lat="43.06806" lon="1.22391">
        <ele>531.3</ele>
        <time>2020-07-19T09:07:50Z</time>
      </trkpt>
      <trkpt lat="43.06811" lon="1.22387">
        <ele>531.3</ele>
        <time>2020-07-19T09:07:55Z</time>
      </trkpt>
      <trkpt lat="43.06812" lon="1.22382">
        <ele>531.2</ele>
        <time>2020-07-19T09:07:59Z</time>
      </trkpt>
      <trkpt lat="43.06816" lon="1.22383">
        <ele>531</ele>
        <time>2020-07-19T09:08:07Z</time>
      </trkpt>
      <trkpt lat="43.06819" lon="1.22378">
        <ele>530.7</ele>
        <time>2020-07-19T09:08:15Z</time>
      </trkpt>
      <trkpt lat="43.06815" lon="1.22372">
        <ele>530.3</ele>
        <time>2020-07-19T09:08:19Z</time>
      </trkpt>
      <trkpt lat="43.06814" lon="1.22366">
        <ele>530.2</ele>
        <time>2020-07-19T09:08:23Z</time>
      </trkpt>
      <trkpt lat="43.06812" lon="1.22362">
        <ele>530</ele>
        <time>2020-07-19T09:08:27Z</time>
      </trkpt>
      <trkpt lat="43.06812" lon="1.22367">
        <ele>529.2</ele>
        <time>2020-07-19T09:08:53Z</time>
      </trkpt>
      <trkpt lat="43.06814" lon="1.22373">
        <ele>529.5</ele>
        <time>2020-07-19T09:08:58Z</time>
      </trkpt>
      <trkpt lat="43.0681" lon="1.22375">
        <ele>530</ele>
        <time>2020-07-19T09:09:11Z</time>
      </trkpt>
      <trkpt lat="43.06808" lon="1.2238">
        <ele>530.4</ele>
        <time>2020-07-19T09:09:18Z</time>
      </trkpt>
      <trkpt lat="43.06809" lon="1.22382">
        <ele>530.2</ele>
        <time>2020-07-19T09:09:52Z</time>
      </trkpt>
      <trkpt lat="43.06812" lon="1.22374">
        <ele>528.8</ele>
        <time>2020-07-19T09:09:56Z</time>
      </trkpt>
      <trkpt lat="43.06809" lon="1.22364">
        <ele>528.5</ele>
        <time>2020-07-19T09:10:01Z</time>
      </trkpt>
      <trkpt lat="43.06807" lon="1.22354">
        <ele>528</ele>
        <time>2020-07-19T09:10:06Z</time>
      </trkpt>
      <trkpt lat="43.06804" lon="1.22346">
        <ele>527.3</ele>
        <time>2020-07-19T09:10:10Z</time>
      </trkpt>
      <trkpt lat="43.068" lon="1.22343">
        <ele>526.2</ele>
        <time>2020-07-19T09:10:16Z</time>
      </trkpt>
      <trkpt lat="43.06797" lon="1.22339">
        <ele>525.7</ele>
        <time>2020-07-19T09:10:20Z</time>
      </trkpt>
      <trkpt lat="43.06794" lon="1.22335">
        <ele>523.9</ele>
        <time>2020-07-19T09:10:27Z</time>
      </trkpt>
      <trkpt lat="43.0679" lon="1.22331">
        <ele>523.3</ele>
        <time>2020-07-19T09:10:31Z</time>
      </trkpt>
      <trkpt lat="43.06786" lon="1.22331">
        <ele>522</ele>
        <time>2020-07-19T09:10:37Z</time>
      </trkpt>
      <trkpt lat="43.06782" lon="1.22329">
        <ele>521.2</ele>
        <time>2020-07-19T09:10:41Z</time>
      </trkpt>
      <trkpt lat="43.06777" lon="1.22328">
        <ele>520.3</ele>
        <time>2020-07-19T09:10:45Z</time>
      </trkpt>
      <trkpt lat="43.06772" lon="1.22327">
        <ele>519.6</ele>
        <time>2020-07-19T09:10:49Z</time>
      </trkpt>
      <trkpt lat="43.06768" lon="1.22327">
        <ele>518.9</ele>
        <time>2020-07-19T09:10:53Z</time>
      </trkpt>
      <trkpt lat="43.06765" lon="1.22324">
        <ele>518.7</ele>
        <time>2020-07-19T09:10:57Z</time>
      </trkpt>
      <trkpt lat="43.06759" lon="1.22325">
        <ele>519</ele>
        <time>2020-07-19T09:11:01Z</time>
      </trkpt>
      <trkpt lat="43.06753" lon="1.22325">
        <ele>518.7</ele>
        <time>2020-07-19T09:11:05Z</time>
      </trkpt>
      <trkpt lat="43.06748" lon="1.22328">
        <ele>518.4</ele>
        <time>2020-07-19T09:11:10Z</time>
      </trkpt>
      <trkpt lat="43.06752" lon="1.22329">
        <ele>517.7</ele>
        <time>2020-07-19T09:11:32Z</time>
      </trkpt>
      <trkpt lat="43.0675" lon="1.22331">
        <ele>517.3</ele>
        <time>2020-07-19T09:11:37Z</time>
      </trkpt>
      <trkpt lat="43.06747" lon="1.22338">
        <ele>517</ele>
        <time>2020-07-19T09:11:41Z</time>
      </trkpt>
      <trkpt lat="43.06742" lon="1.22345">
        <ele>516.9</ele>
        <time>2020-07-19T09:11:46Z</time>
      </trkpt>
      <trkpt lat="43.06739" lon="1.22349">
        <ele>516.8</ele>
        <time>2020-07-19T09:11:50Z</time>
      </trkpt>
      <trkpt lat="43.06735" lon="1.2235">
        <ele>516.6</ele>
        <time>2020-07-19T09:11:54Z</time>
      </trkpt>
      <trkpt lat="43.06738" lon="1.22348">
        <ele>516</ele>
        <time>2020-07-19T09:12:08Z</time>
      </trkpt>
      <trkpt lat="43.06741" lon="1.22345">
        <ele>515.6</ele>
        <time>2020-07-19T09:12:12Z</time>
      </trkpt>
      <trkpt lat="43.06738" lon="1.22343">
        <ele>512.7</ele>
        <time>2020-07-19T09:13:08Z</time>
      </trkpt>
      <trkpt lat="43.06734" lon="1.22342">
        <ele>512.7</ele>
        <time>2020-07-19T09:13:13Z</time>
      </trkpt>
      <trkpt lat="43.06729" lon="1.22336">
        <ele>512.7</ele>
        <time>2020-07-19T09:13:18Z</time>
      </trkpt>
      <trkpt lat="43.06725" lon="1.22335">
        <ele>512.6</ele>
        <time>2020-07-19T09:13:34Z</time>
      </trkpt>
      <trkpt lat="43.06723" lon="1.2233">
        <ele>512.5</ele>
        <time>2020-07-19T09:13:39Z</time>
      </trkpt>
      <trkpt lat="43.0672" lon="1.22326">
        <ele>512.5</ele>
        <time>2020-07-19T09:13:43Z</time>
      </trkpt>
      <trkpt lat="43.06715" lon="1.22324">
        <ele>512.6</ele>
        <time>2020-07-19T09:13:47Z</time>
      </trkpt>
      <trkpt lat="43.0671" lon="1.22329">
        <ele>512.4</ele>
        <time>2020-07-19T09:13:52Z</time>
      </trkpt>
      <trkpt lat="43.06707" lon="1.22335">
        <ele>512.1</ele>
        <time>2020-07-19T09:13:56Z</time>
      </trkpt>
      <trkpt lat="43.06705" lon="1.22343">
        <ele>511.9</ele>
        <time>2020-07-19T09:14:00Z</time>
      </trkpt>
      <trkpt lat="43.06707" lon="1.22348">
        <ele>511.8</ele>
        <time>2020-07-19T09:14:05Z</time>
      </trkpt>
      <trkpt lat="43.06706" lon="1.22354">
        <ele>511.2</ele>
        <time>2020-07-19T09:14:10Z</time>
      </trkpt>
      <trkpt lat="43.06704" lon="1.22359">
        <ele>510.6</ele>
        <time>2020-07-19T09:14:14Z</time>
      </trkpt>
      <trkpt lat="43.06701" lon="1.22364">
        <ele>510</ele>
        <time>2020-07-19T09:14:19Z</time>
      </trkpt>
      <trkpt lat="43.06697" lon="1.22365">
        <ele>509.4</ele>
        <time>2020-07-19T09:14:24Z</time>
      </trkpt>
      <trkpt lat="43.06692" lon="1.2237">
        <ele>508.3</ele>
        <time>2020-07-19T09:14:29Z</time>
      </trkpt>
      <trkpt lat="43.0669" lon="1.22365">
        <ele>506.8</ele>
        <time>2020-07-19T09:14:44Z</time>
      </trkpt>
      <trkpt lat="43.06691" lon="1.2236">
        <ele>505.7</ele>
        <time>2020-07-19T09:14:50Z</time>
      </trkpt>
      <trkpt lat="43.06694" lon="1.22356">
        <ele>504.6</ele>
        <time>2020-07-19T09:14:56Z</time>
      </trkpt>
      <trkpt lat="43.06695" lon="1.22351">
        <ele>504.6</ele>
        <time>2020-07-19T09:15:06Z</time>
      </trkpt>
      <trkpt lat="43.06694" lon="1.22342">
        <ele>504.1</ele>
        <time>2020-07-19T09:15:10Z</time>
      </trkpt>
      <trkpt lat="43.06691" lon="1.22339">
        <ele>502.8</ele>
        <time>2020-07-19T09:15:18Z</time>
      </trkpt>
      <trkpt lat="43.06688" lon="1.22334">
        <ele>502.5</ele>
        <time>2020-07-19T09:15:22Z</time>
      </trkpt>
      <trkpt lat="43.06685" lon="1.2233">
        <ele>502</ele>
        <time>2020-07-19T09:15:26Z</time>
      </trkpt>
      <trkpt lat="43.06685" lon="1.22324">
        <ele>500.8</ele>
        <time>2020-07-19T09:15:34Z</time>
      </trkpt>
      <trkpt lat="43.06688" lon="1.22328">
        <ele>500.3</ele>
        <time>2020-07-19T09:16:05Z</time>
      </trkpt>
      <trkpt lat="43.06696" lon="1.22317">
        <ele>499.8</ele>
        <time>2020-07-19T09:16:09Z</time>
      </trkpt>
      <trkpt lat="43.06695" lon="1.22307">
        <ele>499.8</ele>
        <time>2020-07-19T09:16:13Z</time>
      </trkpt>
      <trkpt lat="43.06693" lon="1.22298">
        <ele>499.6</ele>
        <time>2020-07-19T09:16:17Z</time>
      </trkpt>
      <trkpt lat="43.06687" lon="1.22294">
        <ele>499.3</ele>
        <time>2020-07-19T09:16:21Z</time>
      </trkpt>
      <trkpt lat="43.06683" lon="1.2229">
        <ele>499.2</ele>
        <time>2020-07-19T09:16:26Z</time>
      </trkpt>
      <trkpt lat="43.06679" lon="1.22289">
        <ele>498.7</ele>
        <time>2020-07-19T09:16:40Z</time>
      </trkpt>
      <trkpt lat="43.06678" lon="1.2229">
        <ele>498.2</ele>
        <time>2020-07-19T09:16:58Z</time>
      </trkpt>
      <trkpt lat="43.06685" lon="1.22291">
        <ele>497.4</ele>
        <time>2020-07-19T09:17:02Z</time>
      </trkpt>
      <trkpt lat="43.06684" lon="1.22286">
        <ele>495.9</ele>
        <time>2020-07-19T09:17:24Z</time>
      </trkpt>
      <trkpt lat="43.06682" lon="1.22281">
        <ele>495.7</ele>
        <time>2020-07-19T09:17:29Z</time>
      </trkpt>
      <trkpt lat="43.06677" lon="1.22282">
        <ele>495.3</ele>
        <time>2020-07-19T09:17:40Z</time>
      </trkpt>
      <trkpt lat="43.06677" lon="1.22278">
        <ele>495</ele>
        <time>2020-07-19T09:18:04Z</time>
      </trkpt>
      <trkpt lat="43.06676" lon="1.22267">
        <ele>494.3</ele>
        <time>2020-07-19T09:18:08Z</time>
      </trkpt>
      <trkpt lat="43.06676" lon="1.22258">
        <ele>493.9</ele>
        <time>2020-07-19T09:18:12Z</time>
      </trkpt>
      <trkpt lat="43.06675" lon="1.22247">
        <ele>493.1</ele>
        <time>2020-07-19T09:18:17Z</time>
      </trkpt>
      <trkpt lat="43.06674" lon="1.22239">
        <ele>492</ele>
        <time>2020-07-19T09:18:22Z</time>
      </trkpt>
      <trkpt lat="43.06676" lon="1.22235">
        <ele>490.7</ele>
        <time>2020-07-19T09:18:34Z</time>
      </trkpt>
      <trkpt lat="43.06672" lon="1.22233">
        <ele>491.5</ele>
        <time>2020-07-19T09:18:45Z</time>
      </trkpt>
      <trkpt lat="43.06674" lon="1.22228">
        <ele>492.8</ele>
        <time>2020-07-19T09:18:52Z</time>
      </trkpt>
      <trkpt lat="43.06674" lon="1.22223">
        <ele>493.3</ele>
        <time>2020-07-19T09:18:57Z</time>
      </trkpt>
      <trkpt lat="43.06675" lon="1.22218">
        <ele>493.7</ele>
        <time>2020-07-19T09:19:02Z</time>
      </trkpt>
      <trkpt lat="43.06675" lon="1.22213">
        <ele>493.7</ele>
        <time>2020-07-19T09:19:08Z</time>
      </trkpt>
      <trkpt lat="43.06676" lon="1.22204">
        <ele>494</ele>
        <time>2020-07-19T09:19:13Z</time>
      </trkpt>
      <trkpt lat="43.06679" lon="1.222">
        <ele>492.8</ele>
        <time>2020-07-19T09:19:21Z</time>
      </trkpt>
      <trkpt lat="43.06682" lon="1.22196">
        <ele>492</ele>
        <time>2020-07-19T09:19:26Z</time>
      </trkpt>
      <trkpt lat="43.06682" lon="1.22191">
        <ele>492.7</ele>
        <time>2020-07-19T09:19:38Z</time>
      </trkpt>
      <trkpt lat="43.06679" lon="1.22188">
        <ele>492.3</ele>
        <time>2020-07-19T09:19:42Z</time>
      </trkpt>
      <trkpt lat="43.06675" lon="1.22185">
        <ele>491.6</ele>
        <time>2020-07-19T09:19:49Z</time>
      </trkpt>
      <trkpt lat="43.06668" lon="1.22192">
        <ele>490.2</ele>
        <time>2020-07-19T09:19:53Z</time>
      </trkpt>
      <trkpt lat="43.06665" lon="1.22196">
        <ele>488.8</ele>
        <time>2020-07-19T09:19:57Z</time>
      </trkpt>
      <trkpt lat="43.06663" lon="1.22202">
        <ele>487</ele>
        <time>2020-07-19T09:20:06Z</time>
      </trkpt>
      <trkpt lat="43.0666" lon="1.22205">
        <ele>485.8</ele>
        <time>2020-07-19T09:20:12Z</time>
      </trkpt>
      <trkpt lat="43.06657" lon="1.22209">
        <ele>484.5</ele>
        <time>2020-07-19T09:20:18Z</time>
      </trkpt>
      <trkpt lat="43.06654" lon="1.22212">
        <ele>482</ele>
        <time>2020-07-19T09:20:26Z</time>
      </trkpt>
      <trkpt lat="43.06648" lon="1.22212">
        <ele>480.4</ele>
        <time>2020-07-19T09:20:31Z</time>
      </trkpt>
      <trkpt lat="43.06648" lon="1.22218">
        <ele>481.2</ele>
        <time>2020-07-19T09:20:38Z</time>
      </trkpt>
      <trkpt lat="43.06645" lon="1.22215">
        <ele>481.3</ele>
        <time>2020-07-19T09:20:45Z</time>
      </trkpt>
      <trkpt lat="43.06645" lon="1.22207">
        <ele>482.4</ele>
        <time>2020-07-19T09:20:49Z</time>
      </trkpt>
      <trkpt lat="43.0664" lon="1.22201">
        <ele>482.9</ele>
        <time>2020-07-19T09:20:53Z</time>
      </trkpt>
      <trkpt lat="43.06636" lon="1.22198">
        <ele>482.5</ele>
        <time>2020-07-19T09:20:58Z</time>
      </trkpt>
      <trkpt lat="43.06632" lon="1.22195">
        <ele>482.1</ele>
        <time>2020-07-19T09:21:04Z</time>
      </trkpt>
      <trkpt lat="43.06629" lon="1.22194">
        <ele>481</ele>
        <time>2020-07-19T09:21:08Z</time>
      </trkpt>
      <trkpt lat="43.06624" lon="1.22187">
        <ele>480.8</ele>
        <time>2020-07-19T09:21:13Z</time>
      </trkpt>
      <trkpt lat="43.06623" lon="1.22183">
        <ele>480.5</ele>
        <time>2020-07-19T09:21:23Z</time>
      </trkpt>
      <trkpt lat="43.06619" lon="1.2218">
        <ele>479.4</ele>
        <time>2020-07-19T09:21:27Z</time>
      </trkpt>
      <trkpt lat="43.06614" lon="1.22175">
        <ele>478.7</ele>
        <time>2020-07-19T09:21:31Z</time>
      </trkpt>
      <trkpt lat="43.06611" lon="1.22171">
        <ele>477.2</ele>
        <time>2020-07-19T09:21:39Z</time>
      </trkpt>
      <trkpt lat="43.06608" lon="1.22168">
        <ele>475.1</ele>
        <time>2020-07-19T09:21:45Z</time>
      </trkpt>
      <trkpt lat="43.06606" lon="1.22158">
        <ele>474.1</ele>
        <time>2020-07-19T09:21:50Z</time>
      </trkpt>
      <trkpt lat="43.06604" lon="1.22152">
        <ele>474</ele>
        <time>2020-07-19T09:21:54Z</time>
      </trkpt>
      <trkpt lat="43.06601" lon="1.22148">
        <ele>473.6</ele>
        <time>2020-07-19T09:21:58Z</time>
      </trkpt>
      <trkpt lat="43.066" lon="1.2214">
        <ele>472.7</ele>
        <time>2020-07-19T09:22:02Z</time>
      </trkpt>
      <trkpt lat="43.06599" lon="1.22134">
        <ele>471.1</ele>
        <time>2020-07-19T09:22:08Z</time>
      </trkpt>
      <trkpt lat="43.06593" lon="1.2213">
        <ele>468.8</ele>
        <time>2020-07-19T09:22:13Z</time>
      </trkpt>
      <trkpt lat="43.06589" lon="1.22129">
        <ele>467</ele>
        <time>2020-07-19T09:22:17Z</time>
      </trkpt>
      <trkpt lat="43.06584" lon="1.22133">
        <ele>463.6</ele>
        <time>2020-07-19T09:22:22Z</time>
      </trkpt>
      <trkpt lat="43.0658" lon="1.22138">
        <ele>460.4</ele>
        <time>2020-07-19T09:22:26Z</time>
      </trkpt>
      <trkpt lat="43.0658" lon="1.22138">
        <ele>459.2</ele>
        <time>2020-07-19T09:22:48Z</time>
      </trkpt>
      <trkpt lat="43.06577" lon="1.22126">
        <ele>446.7</ele>
        <time>2020-07-19T09:22:53Z</time>
      </trkpt>
      <trkpt lat="43.06573" lon="1.22126">
        <ele>444</ele>
        <time>2020-07-19T09:23:19Z</time>
      </trkpt>
      <trkpt lat="43.06569" lon="1.22129">
        <ele>444.1</ele>
        <time>2020-07-19T09:23:24Z</time>
      </trkpt>
      <trkpt lat="43.06569" lon="1.22134">
        <ele>444.1</ele>
        <time>2020-07-19T09:23:29Z</time>
      </trkpt>
      <trkpt lat="43.06569" lon="1.22133">
        <ele>444.6</ele>
        <time>2020-07-19T09:23:45Z</time>
      </trkpt>
      <trkpt lat="43.06565" lon="1.22124">
        <ele>446.2</ele>
        <time>2020-07-19T09:23:49Z</time>
      </trkpt>
      <trkpt lat="43.06562" lon="1.2212">
        <ele>447</ele>
        <time>2020-07-19T09:23:55Z</time>
      </trkpt>
      <trkpt lat="43.06557" lon="1.22119">
        <ele>448.2</ele>
        <time>2020-07-19T09:24:00Z</time>
      </trkpt>
      <trkpt lat="43.06553" lon="1.22116">
        <ele>448.6</ele>
        <time>2020-07-19T09:24:06Z</time>
      </trkpt>
      <trkpt lat="43.06549" lon="1.2211">
        <ele>449.3</ele>
        <time>2020-07-19T09:24:11Z</time>
      </trkpt>
      <trkpt lat="43.06544" lon="1.22112">
        <ele>450.4</ele>
        <time>2020-07-19T09:24:15Z</time>
      </trkpt>
      <trkpt lat="43.0654" lon="1.22112">
        <ele>451.5</ele>
        <time>2020-07-19T09:24:25Z</time>
      </trkpt>
      <trkpt lat="43.06537" lon="1.22107">
        <ele>449.8</ele>
        <time>2020-07-19T09:25:00Z</time>
      </trkpt>
      <trkpt lat="43.0654" lon="1.22102">
        <ele>450.9</ele>
        <time>2020-07-19T09:25:04Z</time>
      </trkpt>
      <trkpt lat="43.06541" lon="1.22107">
        <ele>450.7</ele>
        <time>2020-07-19T09:25:10Z</time>
      </trkpt>
      <trkpt lat="43.0654" lon="1.22114">
        <ele>449</ele>
        <time>2020-07-19T09:25:14Z</time>
      </trkpt>
      <trkpt lat="43.06536" lon="1.22114">
        <ele>447</ele>
        <time>2020-07-19T09:25:23Z</time>
      </trkpt>
      <trkpt lat="43.0653" lon="1.22107">
        <ele>447.5</ele>
        <time>2020-07-19T09:25:27Z</time>
      </trkpt>
      <trkpt lat="43.06525" lon="1.22103">
        <ele>447.2</ele>
        <time>2020-07-19T09:25:31Z</time>
      </trkpt>
      <trkpt lat="43.0652" lon="1.22102">
        <ele>446.9</ele>
        <time>2020-07-19T09:25:39Z</time>
      </trkpt>
      <trkpt lat="43.06517" lon="1.22099">
        <ele>447.2</ele>
        <time>2020-07-19T09:25:47Z</time>
      </trkpt>
      <trkpt lat="43.06508" lon="1.22096">
        <ele>446.7</ele>
        <time>2020-07-19T09:25:52Z</time>
      </trkpt>
      <trkpt lat="43.06504" lon="1.22095">
        <ele>446.5</ele>
        <time>2020-07-19T09:25:56Z</time>
      </trkpt>
      <trkpt lat="43.06504" lon="1.221">
        <ele>444.2</ele>
        <time>2020-07-19T09:26:04Z</time>
      </trkpt>
      <trkpt lat="43.06503" lon="1.221">
        <ele>443.8</ele>
        <time>2020-07-19T09:26:09Z</time>
      </trkpt>
      <trkpt lat="43.06495" lon="1.22099">
        <ele>442.6</ele>
        <time>2020-07-19T09:26:13Z</time>
      </trkpt>
      <trkpt lat="43.06491" lon="1.22102">
        <ele>441.3</ele>
        <time>2020-07-19T09:26:17Z</time>
      </trkpt>
      <trkpt lat="43.0649" lon="1.2211">
        <ele>438.6</ele>
        <time>2020-07-19T09:26:21Z</time>
      </trkpt>
      <trkpt lat="43.06486" lon="1.22111">
        <ele>434.9</ele>
        <time>2020-07-19T09:26:32Z</time>
      </trkpt>
      <trkpt lat="43.06482" lon="1.22111">
        <ele>433.3</ele>
        <time>2020-07-19T09:26:38Z</time>
      </trkpt>
      <trkpt lat="43.06479" lon="1.22113">
        <ele>431.8</ele>
        <time>2020-07-19T09:26:55Z</time>
      </trkpt>
      <trkpt lat="43.06476" lon="1.22115">
        <ele>431.1</ele>
        <time>2020-07-19T09:27:01Z</time>
      </trkpt>
      <trkpt lat="43.06472" lon="1.2212">
        <ele>430.8</ele>
        <time>2020-07-19T09:27:05Z</time>
      </trkpt>
      <trkpt lat="43.0647" lon="1.2212">
        <ele>431.7</ele>
        <time>2020-07-19T09:27:23Z</time>
      </trkpt>
      <trkpt lat="43.06468" lon="1.22126">
        <ele>436.1</ele>
        <time>2020-07-19T09:27:37Z</time>
      </trkpt>
      <trkpt lat="43.06469" lon="1.22131">
        <ele>436.8</ele>
        <time>2020-07-19T09:27:48Z</time>
      </trkpt>
      <trkpt lat="43.06467" lon="1.22127">
        <ele>438</ele>
        <time>2020-07-19T09:28:01Z</time>
      </trkpt>
      <trkpt lat="43.06466" lon="1.22116">
        <ele>438.4</ele>
        <time>2020-07-19T09:28:05Z</time>
      </trkpt>
      <trkpt lat="43.06465" lon="1.22109">
        <ele>438.8</ele>
        <time>2020-07-19T09:28:09Z</time>
      </trkpt>
      <trkpt lat="43.06463" lon="1.22105">
        <ele>439.3</ele>
        <time>2020-07-19T09:28:14Z</time>
      </trkpt>
      <trkpt lat="43.06457" lon="1.22105">
        <ele>439.9</ele>
        <time>2020-07-19T09:28:19Z</time>
      </trkpt>
      <trkpt lat="43.06459" lon="1.22099">
        <ele>441</ele>
        <time>2020-07-19T09:28:34Z</time>
      </trkpt>
      <trkpt lat="43.06457" lon="1.22092">
        <ele>441.5</ele>
        <time>2020-07-19T09:28:38Z</time>
      </trkpt>
      <trkpt lat="43.06457" lon="1.22086">
        <ele>441.8</ele>
        <time>2020-07-19T09:28:43Z</time>
      </trkpt>
      <trkpt lat="43.0645" lon="1.22083">
        <ele>442.8</ele>
        <time>2020-07-19T09:28:48Z</time>
      </trkpt>
      <trkpt lat="43.06447" lon="1.2208">
        <ele>443.2</ele>
        <time>2020-07-19T09:28:52Z</time>
      </trkpt>
      <trkpt lat="43.06443" lon="1.22079">
        <ele>443.6</ele>
        <time>2020-07-19T09:28:56Z</time>
      </trkpt>
      <trkpt lat="43.0644" lon="1.22083">
        <ele>448.8</ele>
        <time>2020-07-19T09:29:14Z</time>
      </trkpt>
      <trkpt lat="43.06436" lon="1.22082">
        <ele>451.2</ele>
        <time>2020-07-19T09:29:34Z</time>
      </trkpt>
      <trkpt lat="43.06432" lon="1.22081">
        <ele>450.7</ele>
        <time>2020-07-19T09:29:39Z</time>
      </trkpt>
      <trkpt lat="43.06431" lon="1.22076">
        <ele>448.8</ele>
        <time>2020-07-19T09:29:48Z</time>
      </trkpt>
      <trkpt lat="43.06437" lon="1.22066">
        <ele>447.8</ele>
        <time>2020-07-19T09:29:52Z</time>
      </trkpt>
      <trkpt lat="43.06439" lon="1.22072">
        <ele>443.3</ele>
        <time>2020-07-19T09:30:01Z</time>
      </trkpt>
      <trkpt lat="43.06435" lon="1.2207">
        <ele>443.3</ele>
        <time>2020-07-19T09:30:10Z</time>
      </trkpt>
      <trkpt lat="43.06431" lon="1.22063">
        <ele>443.2</ele>
        <time>2020-07-19T09:30:15Z</time>
      </trkpt>
      <trkpt lat="43.06427" lon="1.2206">
        <ele>442.7</ele>
        <time>2020-07-19T09:30:20Z</time>
      </trkpt>
      <trkpt lat="43.06423" lon="1.22054">
        <ele>442.9</ele>
        <time>2020-07-19T09:30:25Z</time>
      </trkpt>
      <trkpt lat="43.0642" lon="1.2205">
        <ele>443.6</ele>
        <time>2020-07-19T09:30:29Z</time>
      </trkpt>
      <trkpt lat="43.06414" lon="1.22046">
        <ele>445</ele>
        <time>2020-07-19T09:30:33Z</time>
      </trkpt>
      <trkpt lat="43.06409" lon="1.22045">
        <ele>446</ele>
        <time>2020-07-19T09:30:37Z</time>
      </trkpt>
      <trkpt lat="43.0641" lon="1.22034">
        <ele>446.8</ele>
        <time>2020-07-19T09:30:42Z</time>
      </trkpt>
      <trkpt lat="43.06409" lon="1.2203">
        <ele>447.5</ele>
        <time>2020-07-19T09:30:46Z</time>
      </trkpt>
      <trkpt lat="43.06406" lon="1.22025">
        <ele>448.9</ele>
        <time>2020-07-19T09:30:50Z</time>
      </trkpt>
      <trkpt lat="43.064" lon="1.22021">
        <ele>449.4</ele>
        <time>2020-07-19T09:30:55Z</time>
      </trkpt>
      <trkpt lat="43.06393" lon="1.22018">
        <ele>450</ele>
        <time>2020-07-19T09:30:59Z</time>
      </trkpt>
      <trkpt lat="43.0639" lon="1.22013">
        <ele>450.7</ele>
        <time>2020-07-19T09:31:04Z</time>
      </trkpt>
      <trkpt lat="43.06386" lon="1.22012">
        <ele>451.6</ele>
        <time>2020-07-19T09:31:09Z</time>
      </trkpt>
      <trkpt lat="43.06382" lon="1.22009">
        <ele>452.9</ele>
        <time>2020-07-19T09:31:15Z</time>
      </trkpt>
      <trkpt lat="43.06379" lon="1.22007">
        <ele>454</ele>
        <time>2020-07-19T09:31:20Z</time>
      </trkpt>
      <trkpt lat="43.06372" lon="1.22005">
        <ele>455.1</ele>
        <time>2020-07-19T09:31:25Z</time>
      </trkpt>
      <trkpt lat="43.06368" lon="1.22004">
        <ele>456.2</ele>
        <time>2020-07-19T09:31:29Z</time>
      </trkpt>
      <trkpt lat="43.06364" lon="1.22005">
        <ele>457.6</ele>
        <time>2020-07-19T09:31:33Z</time>
      </trkpt>
      <trkpt lat="43.06359" lon="1.22004">
        <ele>457.7</ele>
        <time>2020-07-19T09:31:37Z</time>
      </trkpt>
      <trkpt lat="43.06354" lon="1.22">
        <ele>456.5</ele>
        <time>2020-07-19T09:31:41Z</time>
      </trkpt>
      <trkpt lat="43.0635" lon="1.21998">
        <ele>457.1</ele>
        <time>2020-07-19T09:31:46Z</time>
      </trkpt>
      <trkpt lat="43.06345" lon="1.21996">
        <ele>458</ele>
        <time>2020-07-19T09:31:50Z</time>
      </trkpt>
      <trkpt lat="43.0634" lon="1.21989">
        <ele>459.3</ele>
        <time>2020-07-19T09:31:55Z</time>
      </trkpt>
      <trkpt lat="43.06338" lon="1.21989">
        <ele>460.6</ele>
        <time>2020-07-19T09:32:01Z</time>
      </trkpt>
      <trkpt lat="43.06333" lon="1.21985">
        <ele>461.7</ele>
        <time>2020-07-19T09:32:05Z</time>
      </trkpt>
      <trkpt lat="43.0633" lon="1.21981">
        <ele>463.4</ele>
        <time>2020-07-19T09:32:15Z</time>
      </trkpt>
      <trkpt lat="43.06328" lon="1.21975">
        <ele>464.1</ele>
        <time>2020-07-19T09:32:21Z</time>
      </trkpt>
      <trkpt lat="43.06326" lon="1.2197">
        <ele>464.7</ele>
        <time>2020-07-19T09:32:25Z</time>
      </trkpt>
      <trkpt lat="43.06323" lon="1.21968">
        <ele>466.1</ele>
        <time>2020-07-19T09:32:29Z</time>
      </trkpt>
      <trkpt lat="43.06319" lon="1.21967">
        <ele>468.4</ele>
        <time>2020-07-19T09:32:33Z</time>
      </trkpt>
      <trkpt lat="43.06315" lon="1.21968">
        <ele>471.3</ele>
        <time>2020-07-19T09:32:39Z</time>
      </trkpt>
      <trkpt lat="43.06311" lon="1.21967">
        <ele>471.9</ele>
        <time>2020-07-19T09:32:45Z</time>
      </trkpt>
      <trkpt lat="43.06308" lon="1.21964">
        <ele>472.3</ele>
        <time>2020-07-19T09:32:50Z</time>
      </trkpt>
      <trkpt lat="43.06302" lon="1.21961">
        <ele>471.5</ele>
        <time>2020-07-19T09:32:55Z</time>
      </trkpt>
      <trkpt lat="43.06296" lon="1.21965">
        <ele>471.7</ele>
        <time>2020-07-19T09:32:59Z</time>
      </trkpt>
      <trkpt lat="43.06292" lon="1.21972">
        <ele>471.9</ele>
        <time>2020-07-19T09:33:03Z</time>
      </trkpt>
      <trkpt lat="43.06289" lon="1.21973">
        <ele>471.9</ele>
        <time>2020-07-19T09:33:07Z</time>
      </trkpt>
      <trkpt lat="43.06285" lon="1.21974">
        <ele>472</ele>
        <time>2020-07-19T09:33:12Z</time>
      </trkpt>
      <trkpt lat="43.0628" lon="1.21976">
        <ele>471.8</ele>
        <time>2020-07-19T09:33:16Z</time>
      </trkpt>
      <trkpt lat="43.06276" lon="1.21975">
        <ele>472.4</ele>
        <time>2020-07-19T09:33:21Z</time>
      </trkpt>
      <trkpt lat="43.06273" lon="1.21977">
        <ele>472.7</ele>
        <time>2020-07-19T09:33:28Z</time>
      </trkpt>
      <trkpt lat="43.06269" lon="1.21978">
        <ele>473.1</ele>
        <time>2020-07-19T09:33:33Z</time>
      </trkpt>
      <trkpt lat="43.06265" lon="1.21976">
        <ele>474.1</ele>
        <time>2020-07-19T09:33:37Z</time>
      </trkpt>
      <trkpt lat="43.06263" lon="1.2197">
        <ele>474.6</ele>
        <time>2020-07-19T09:33:41Z</time>
      </trkpt>
      <trkpt lat="43.0626" lon="1.21966">
        <ele>475.5</ele>
        <time>2020-07-19T09:33:48Z</time>
      </trkpt>
      <trkpt lat="43.06263" lon="1.2197">
        <ele>475.5</ele>
        <time>2020-07-19T09:34:00Z</time>
      </trkpt>
      <trkpt lat="43.06267" lon="1.2197">
        <ele>475.7</ele>
        <time>2020-07-19T09:34:18Z</time>
      </trkpt>
      <trkpt lat="43.0627" lon="1.21965">
        <ele>472.5</ele>
        <time>2020-07-19T09:34:35Z</time>
      </trkpt>
      <trkpt lat="43.06276" lon="1.21964">
        <ele>471.3</ele>
        <time>2020-07-19T09:34:40Z</time>
      </trkpt>
      <trkpt lat="43.0628" lon="1.21964">
        <ele>467.8</ele>
        <time>2020-07-19T09:34:45Z</time>
      </trkpt>
      <trkpt lat="43.06283" lon="1.21961">
        <ele>466.4</ele>
        <time>2020-07-19T09:34:49Z</time>
      </trkpt>
      <trkpt lat="43.06287" lon="1.21956">
        <ele>466</ele>
        <time>2020-07-19T09:34:53Z</time>
      </trkpt>
      <trkpt lat="43.06288" lon="1.21951">
        <ele>466.2</ele>
        <time>2020-07-19T09:34:57Z</time>
      </trkpt>
      <trkpt lat="43.06291" lon="1.21947">
        <ele>467</ele>
        <time>2020-07-19T09:35:03Z</time>
      </trkpt>
      <trkpt lat="43.06295" lon="1.21943">
        <ele>466.1</ele>
        <time>2020-07-19T09:35:07Z</time>
      </trkpt>
      <trkpt lat="43.06298" lon="1.21945">
        <ele>465.6</ele>
        <time>2020-07-19T09:35:13Z</time>
      </trkpt>
      <trkpt lat="43.06304" lon="1.21944">
        <ele>464.6</ele>
        <time>2020-07-19T09:35:18Z</time>
      </trkpt>
      <trkpt lat="43.06307" lon="1.21942">
        <ele>464.4</ele>
        <time>2020-07-19T09:35:22Z</time>
      </trkpt>
      <trkpt lat="43.06312" lon="1.2194">
        <ele>464.6</ele>
        <time>2020-07-19T09:35:26Z</time>
      </trkpt>
      <trkpt lat="43.06316" lon="1.21936">
        <ele>464.9</ele>
        <time>2020-07-19T09:35:31Z</time>
      </trkpt>
      <trkpt lat="43.06313" lon="1.21928">
        <ele>464.6</ele>
        <time>2020-07-19T09:35:36Z</time>
      </trkpt>
      <trkpt lat="43.06317" lon="1.21919">
        <ele>465</ele>
        <time>2020-07-19T09:35:40Z</time>
      </trkpt>
      <trkpt lat="43.06321" lon="1.21916">
        <ele>465.6</ele>
        <time>2020-07-19T09:35:44Z</time>
      </trkpt>
      <trkpt lat="43.06324" lon="1.21913">
        <ele>467.2</ele>
        <time>2020-07-19T09:35:48Z</time>
      </trkpt>
      <trkpt lat="43.06325" lon="1.21908">
        <ele>466</ele>
        <time>2020-07-19T09:35:53Z</time>
      </trkpt>
      <trkpt lat="43.06327" lon="1.219">
        <ele>465.4</ele>
        <time>2020-07-19T09:35:57Z</time>
      </trkpt>
      <trkpt lat="43.06326" lon="1.21892">
        <ele>465.7</ele>
        <time>2020-07-19T09:36:01Z</time>
      </trkpt>
      <trkpt lat="43.06325" lon="1.21885">
        <ele>465.7</ele>
        <time>2020-07-19T09:36:06Z</time>
      </trkpt>
      <trkpt lat="43.06326" lon="1.21879">
        <ele>465.4</ele>
        <time>2020-07-19T09:36:10Z</time>
      </trkpt>
      <trkpt lat="43.06325" lon="1.21872">
        <ele>465.7</ele>
        <time>2020-07-19T09:36:14Z</time>
      </trkpt>
      <trkpt lat="43.06321" lon="1.21872">
        <ele>464.4</ele>
        <time>2020-07-19T09:36:25Z</time>
      </trkpt>
      <trkpt lat="43.06317" lon="1.21874">
        <ele>465.5</ele>
        <time>2020-07-19T09:36:37Z</time>
      </trkpt>
      <trkpt lat="43.06313" lon="1.21874">
        <ele>466</ele>
        <time>2020-07-19T09:36:41Z</time>
      </trkpt>
      <trkpt lat="43.06309" lon="1.21883">
        <ele>466.4</ele>
        <time>2020-07-19T09:36:46Z</time>
      </trkpt>
      <trkpt lat="43.06304" lon="1.21882">
        <ele>468.2</ele>
        <time>2020-07-19T09:36:53Z</time>
      </trkpt>
      <trkpt lat="43.06301" lon="1.21882">
        <ele>467.4</ele>
        <time>2020-07-19T09:37:00Z</time>
      </trkpt>
      <trkpt lat="43.06295" lon="1.21882">
        <ele>467</ele>
        <time>2020-07-19T09:37:05Z</time>
      </trkpt>
      <trkpt lat="43.06292" lon="1.21885">
        <ele>467.8</ele>
        <time>2020-07-19T09:37:14Z</time>
      </trkpt>
      <trkpt lat="43.06288" lon="1.21889">
        <ele>469.5</ele>
        <time>2020-07-19T09:37:19Z</time>
      </trkpt>
      <trkpt lat="43.06284" lon="1.21887">
        <ele>473.1</ele>
        <time>2020-07-19T09:37:32Z</time>
      </trkpt>
      <trkpt lat="43.0628" lon="1.21887">
        <ele>475.9</ele>
        <time>2020-07-19T09:37:38Z</time>
      </trkpt>
      <trkpt lat="43.06274" lon="1.21884">
        <ele>477.7</ele>
        <time>2020-07-19T09:37:43Z</time>
      </trkpt>
      <trkpt lat="43.06278" lon="1.21883">
        <ele>480</ele>
        <time>2020-07-19T09:37:53Z</time>
      </trkpt>
      <trkpt lat="43.06282" lon="1.2188">
        <ele>483.4</ele>
        <time>2020-07-19T09:38:21Z</time>
      </trkpt>
      <trkpt lat="43.06283" lon="1.21874">
        <ele>485.4</ele>
        <time>2020-07-19T09:38:28Z</time>
      </trkpt>
      <trkpt lat="43.06282" lon="1.21869">
        <ele>484.4</ele>
        <time>2020-07-19T09:38:39Z</time>
      </trkpt>
      <trkpt lat="43.06283" lon="1.21864">
        <ele>483.3</ele>
        <time>2020-07-19T09:38:44Z</time>
      </trkpt>
      <trkpt lat="43.06287" lon="1.21857">
        <ele>483.7</ele>
        <time>2020-07-19T09:38:49Z</time>
      </trkpt>
      <trkpt lat="43.06289" lon="1.21852">
        <ele>482.8</ele>
        <time>2020-07-19T09:38:54Z</time>
      </trkpt>
      <trkpt lat="43.06291" lon="1.21847">
        <ele>482.1</ele>
        <time>2020-07-19T09:38:59Z</time>
      </trkpt>
      <trkpt lat="43.06291" lon="1.21841">
        <ele>481.2</ele>
        <time>2020-07-19T09:39:03Z</time>
      </trkpt>
      <trkpt lat="43.06295" lon="1.21833">
        <ele>478.1</ele>
        <time>2020-07-19T09:39:08Z</time>
      </trkpt>
      <trkpt lat="43.06295" lon="1.21828">
        <ele>477</ele>
        <time>2020-07-19T09:39:13Z</time>
      </trkpt>
      <trkpt lat="43.06292" lon="1.21824">
        <ele>477.9</ele>
        <time>2020-07-19T09:39:24Z</time>
      </trkpt>
      <trkpt lat="43.0629" lon="1.21823">
        <ele>478.8</ele>
        <time>2020-07-19T09:39:30Z</time>
      </trkpt>
      <trkpt lat="43.06287" lon="1.21816">
        <ele>480.6</ele>
        <time>2020-07-19T09:39:34Z</time>
      </trkpt>
      <trkpt lat="43.06285" lon="1.21812">
        <ele>481</ele>
        <time>2020-07-19T09:39:39Z</time>
      </trkpt>
      <trkpt lat="43.06283" lon="1.21806">
        <ele>482</ele>
        <time>2020-07-19T09:39:44Z</time>
      </trkpt>
      <trkpt lat="43.06283" lon="1.21801">
        <ele>482.9</ele>
        <time>2020-07-19T09:39:49Z</time>
      </trkpt>
      <trkpt lat="43.0628" lon="1.21798">
        <ele>484.4</ele>
        <time>2020-07-19T09:39:55Z</time>
      </trkpt>
      <trkpt lat="43.06281" lon="1.21792">
        <ele>486</ele>
        <time>2020-07-19T09:39:59Z</time>
      </trkpt>
      <trkpt lat="43.06281" lon="1.21788">
        <ele>487</ele>
        <time>2020-07-19T09:40:04Z</time>
      </trkpt>
      <trkpt lat="43.06278" lon="1.21782">
        <ele>488.1</ele>
        <time>2020-07-19T09:40:08Z</time>
      </trkpt>
      <trkpt lat="43.06275" lon="1.21778">
        <ele>489.1</ele>
        <time>2020-07-19T09:40:13Z</time>
      </trkpt>
      <trkpt lat="43.06275" lon="1.21773">
        <ele>491.3</ele>
        <time>2020-07-19T09:40:20Z</time>
      </trkpt>
      <trkpt lat="43.06277" lon="1.21768">
        <ele>493.5</ele>
        <time>2020-07-19T09:40:27Z</time>
      </trkpt>
      <trkpt lat="43.06274" lon="1.21765">
        <ele>496.1</ele>
        <time>2020-07-19T09:40:36Z</time>
      </trkpt>
      <trkpt lat="43.06273" lon="1.21759">
        <ele>498.2</ele>
        <time>2020-07-19T09:40:41Z</time>
      </trkpt>
      <trkpt lat="43.06272" lon="1.21753">
        <ele>499.6</ele>
        <time>2020-07-19T09:40:46Z</time>
      </trkpt>
      <trkpt lat="43.06271" lon="1.21748">
        <ele>500.6</ele>
        <time>2020-07-19T09:40:50Z</time>
      </trkpt>
      <trkpt lat="43.06269" lon="1.2174">
        <ele>502.9</ele>
        <time>2020-07-19T09:40:55Z</time>
      </trkpt>
      <trkpt lat="43.06266" lon="1.21738">
        <ele>504.7</ele>
        <time>2020-07-19T09:41:01Z</time>
      </trkpt>
      <trkpt lat="43.06258" lon="1.21734">
        <ele>505.3</ele>
        <time>2020-07-19T09:41:06Z</time>
      </trkpt>
      <trkpt lat="43.06255" lon="1.21731">
        <ele>506.4</ele>
        <time>2020-07-19T09:41:10Z</time>
      </trkpt>
      <trkpt lat="43.06251" lon="1.21728">
        <ele>506.8</ele>
        <time>2020-07-19T09:41:14Z</time>
      </trkpt>
      <trkpt lat="43.06245" lon="1.21727">
        <ele>507.8</ele>
        <time>2020-07-19T09:41:19Z</time>
      </trkpt>
      <trkpt lat="43.06241" lon="1.21724">
        <ele>507</ele>
        <time>2020-07-19T09:41:30Z</time>
      </trkpt>
      <trkpt lat="43.06241" lon="1.2172">
        <ele>507</ele>
        <time>2020-07-19T09:41:38Z</time>
      </trkpt>
      <trkpt lat="43.06233" lon="1.21714">
        <ele>506.9</ele>
        <time>2020-07-19T09:41:43Z</time>
      </trkpt>
      <trkpt lat="43.06231" lon="1.21711">
        <ele>507.4</ele>
        <time>2020-07-19T09:41:47Z</time>
      </trkpt>
      <trkpt lat="43.06231" lon="1.21704">
        <ele>508.2</ele>
        <time>2020-07-19T09:41:52Z</time>
      </trkpt>
      <trkpt lat="43.06228" lon="1.217">
        <ele>508.6</ele>
        <time>2020-07-19T09:41:57Z</time>
      </trkpt>
      <trkpt lat="43.06227" lon="1.21694">
        <ele>509.2</ele>
        <time>2020-07-19T09:42:02Z</time>
      </trkpt>
      <trkpt lat="43.06226" lon="1.2169">
        <ele>510</ele>
        <time>2020-07-19T09:42:06Z</time>
      </trkpt>
      <trkpt lat="43.06225" lon="1.21683">
        <ele>510.9</ele>
        <time>2020-07-19T09:42:11Z</time>
      </trkpt>
      <trkpt lat="43.06222" lon="1.2168">
        <ele>512.5</ele>
        <time>2020-07-19T09:42:17Z</time>
      </trkpt>
      <trkpt lat="43.0622" lon="1.21677">
        <ele>513.2</ele>
        <time>2020-07-19T09:42:21Z</time>
      </trkpt>
      <trkpt lat="43.06215" lon="1.2167">
        <ele>512.5</ele>
        <time>2020-07-19T09:42:25Z</time>
      </trkpt>
      <trkpt lat="43.06213" lon="1.21663">
        <ele>512.4</ele>
        <time>2020-07-19T09:42:30Z</time>
      </trkpt>
      <trkpt lat="43.06213" lon="1.21657">
        <ele>511.6</ele>
        <time>2020-07-19T09:42:40Z</time>
      </trkpt>
      <trkpt lat="43.06215" lon="1.21652">
        <ele>512</ele>
        <time>2020-07-19T09:42:50Z</time>
      </trkpt>
      <trkpt lat="43.06213" lon="1.21646">
        <ele>512.8</ele>
        <time>2020-07-19T09:42:55Z</time>
      </trkpt>
      <trkpt lat="43.06213" lon="1.2164">
        <ele>513.7</ele>
        <time>2020-07-19T09:43:00Z</time>
      </trkpt>
      <trkpt lat="43.06213" lon="1.21633">
        <ele>515.3</ele>
        <time>2020-07-19T09:43:05Z</time>
      </trkpt>
      <trkpt lat="43.06214" lon="1.21626">
        <ele>516.3</ele>
        <time>2020-07-19T09:43:10Z</time>
      </trkpt>
      <trkpt lat="43.06215" lon="1.21621">
        <ele>518</ele>
        <time>2020-07-19T09:43:14Z</time>
      </trkpt>
      <trkpt lat="43.06213" lon="1.21611">
        <ele>520.2</ele>
        <time>2020-07-19T09:43:19Z</time>
      </trkpt>
      <trkpt lat="43.06212" lon="1.21604">
        <ele>521.5</ele>
        <time>2020-07-19T09:43:23Z</time>
      </trkpt>
      <trkpt lat="43.06214" lon="1.216">
        <ele>521.8</ele>
        <time>2020-07-19T09:43:29Z</time>
      </trkpt>
      <trkpt lat="43.06216" lon="1.21594">
        <ele>522.7</ele>
        <time>2020-07-19T09:43:33Z</time>
      </trkpt>
      <trkpt lat="43.06213" lon="1.21592">
        <ele>522.6</ele>
        <time>2020-07-19T09:43:41Z</time>
      </trkpt>
      <trkpt lat="43.06213" lon="1.21584">
        <ele>523.5</ele>
        <time>2020-07-19T09:43:46Z</time>
      </trkpt>
      <trkpt lat="43.06211" lon="1.21577">
        <ele>523.7</ele>
        <time>2020-07-19T09:43:50Z</time>
      </trkpt>
      <trkpt lat="43.06212" lon="1.21572">
        <ele>521.7</ele>
        <time>2020-07-19T09:43:57Z</time>
      </trkpt>
      <trkpt lat="43.06211" lon="1.21566">
        <ele>520.8</ele>
        <time>2020-07-19T09:44:03Z</time>
      </trkpt>
      <trkpt lat="43.06209" lon="1.2156">
        <ele>520.9</ele>
        <time>2020-07-19T09:44:07Z</time>
      </trkpt>
      <trkpt lat="43.06212" lon="1.21556">
        <ele>521.9</ele>
        <time>2020-07-19T09:44:11Z</time>
      </trkpt>
      <trkpt lat="43.06215" lon="1.2155">
        <ele>522.3</ele>
        <time>2020-07-19T09:44:16Z</time>
      </trkpt>
      <trkpt lat="43.06216" lon="1.21545">
        <ele>521.9</ele>
        <time>2020-07-19T09:44:21Z</time>
      </trkpt>
      <trkpt lat="43.0622" lon="1.21541">
        <ele>522.4</ele>
        <time>2020-07-19T09:44:28Z</time>
      </trkpt>
      <trkpt lat="43.06221" lon="1.21533">
        <ele>522.9</ele>
        <time>2020-07-19T09:44:33Z</time>
      </trkpt>
      <trkpt lat="43.06223" lon="1.21527">
        <ele>523.7</ele>
        <time>2020-07-19T09:44:37Z</time>
      </trkpt>
      <trkpt lat="43.06222" lon="1.2152">
        <ele>524.6</ele>
        <time>2020-07-19T09:44:41Z</time>
      </trkpt>
      <trkpt lat="43.06223" lon="1.21514">
        <ele>525.4</ele>
        <time>2020-07-19T09:44:47Z</time>
      </trkpt>
      <trkpt lat="43.06228" lon="1.2151">
        <ele>526.8</ele>
        <time>2020-07-19T09:44:52Z</time>
      </trkpt>
      <trkpt lat="43.06232" lon="1.21508">
        <ele>528</ele>
        <time>2020-07-19T09:44:57Z</time>
      </trkpt>
      <trkpt lat="43.06231" lon="1.21503">
        <ele>528.4</ele>
        <time>2020-07-19T09:45:02Z</time>
      </trkpt>
      <trkpt lat="43.06227" lon="1.21495">
        <ele>528.3</ele>
        <time>2020-07-19T09:45:07Z</time>
      </trkpt>
      <trkpt lat="43.06227" lon="1.21489">
        <ele>528.3</ele>
        <time>2020-07-19T09:45:13Z</time>
      </trkpt>
      <trkpt lat="43.06224" lon="1.21485">
        <ele>529</ele>
        <time>2020-07-19T09:45:18Z</time>
      </trkpt>
      <trkpt lat="43.06224" lon="1.21479">
        <ele>528.7</ele>
        <time>2020-07-19T09:45:23Z</time>
      </trkpt>
      <trkpt lat="43.06224" lon="1.21473">
        <ele>527.9</ele>
        <time>2020-07-19T09:45:29Z</time>
      </trkpt>
      <trkpt lat="43.06223" lon="1.21467">
        <ele>528.2</ele>
        <time>2020-07-19T09:45:33Z</time>
      </trkpt>
      <trkpt lat="43.06226" lon="1.21464">
        <ele>527.8</ele>
        <time>2020-07-19T09:45:39Z</time>
      </trkpt>
      <trkpt lat="43.0623" lon="1.21459">
        <ele>527.9</ele>
        <time>2020-07-19T09:45:44Z</time>
      </trkpt>
      <trkpt lat="43.06233" lon="1.21456">
        <ele>527.5</ele>
        <time>2020-07-19T09:45:51Z</time>
      </trkpt>
      <trkpt lat="43.06233" lon="1.2145">
        <ele>527.9</ele>
        <time>2020-07-19T09:45:57Z</time>
      </trkpt>
      <trkpt lat="43.06236" lon="1.21444">
        <ele>530</ele>
        <time>2020-07-19T09:46:02Z</time>
      </trkpt>
      <trkpt lat="43.06234" lon="1.21439">
        <ele>529.9</ele>
        <time>2020-07-19T09:46:07Z</time>
      </trkpt>
      <trkpt lat="43.06235" lon="1.21433">
        <ele>530</ele>
        <time>2020-07-19T09:46:12Z</time>
      </trkpt>
      <trkpt lat="43.06235" lon="1.21428">
        <ele>530.6</ele>
        <time>2020-07-19T09:46:17Z</time>
      </trkpt>
      <trkpt lat="43.06235" lon="1.21423">
        <ele>532</ele>
        <time>2020-07-19T09:46:23Z</time>
      </trkpt>
      <trkpt lat="43.06237" lon="1.21419">
        <ele>533.3</ele>
        <time>2020-07-19T09:46:27Z</time>
      </trkpt>
      <trkpt lat="43.0624" lon="1.21414">
        <ele>535.2</ele>
        <time>2020-07-19T09:46:32Z</time>
      </trkpt>
      <trkpt lat="43.0624" lon="1.21408">
        <ele>538.6</ele>
        <time>2020-07-19T09:46:36Z</time>
      </trkpt>
      <trkpt lat="43.06241" lon="1.21403">
        <ele>541.4</ele>
        <time>2020-07-19T09:46:41Z</time>
      </trkpt>
      <trkpt lat="43.06243" lon="1.21396">
        <ele>543.3</ele>
        <time>2020-07-19T09:46:45Z</time>
      </trkpt>
      <trkpt lat="43.06242" lon="1.21388">
        <ele>544.1</ele>
        <time>2020-07-19T09:46:50Z</time>
      </trkpt>
      <trkpt lat="43.06242" lon="1.21381">
        <ele>545</ele>
        <time>2020-07-19T09:46:55Z</time>
      </trkpt>
      <trkpt lat="43.06244" lon="1.21372">
        <ele>545.7</ele>
        <time>2020-07-19T09:47:00Z</time>
      </trkpt>
      <trkpt lat="43.06247" lon="1.21368">
        <ele>545.9</ele>
        <time>2020-07-19T09:47:05Z</time>
      </trkpt>
      <trkpt lat="43.06249" lon="1.21362">
        <ele>545.8</ele>
        <time>2020-07-19T09:47:09Z</time>
      </trkpt>
      <trkpt lat="43.0625" lon="1.21356">
        <ele>545.5</ele>
        <time>2020-07-19T09:47:15Z</time>
      </trkpt>
      <trkpt lat="43.06246" lon="1.21354">
        <ele>544.8</ele>
        <time>2020-07-19T09:47:37Z</time>
      </trkpt>
      <trkpt lat="43.06241" lon="1.2135">
        <ele>544.6</ele>
        <time>2020-07-19T09:47:41Z</time>
      </trkpt>
      <trkpt lat="43.06235" lon="1.21347">
        <ele>544.5</ele>
        <time>2020-07-19T09:47:46Z</time>
      </trkpt>
      <trkpt lat="43.06231" lon="1.21347">
        <ele>544.3</ele>
        <time>2020-07-19T09:47:51Z</time>
      </trkpt>
      <trkpt lat="43.06226" lon="1.21349">
        <ele>544.3</ele>
        <time>2020-07-19T09:47:55Z</time>
      </trkpt>
      <trkpt lat="43.06222" lon="1.21347">
        <ele>544.9</ele>
        <time>2020-07-19T09:48:00Z</time>
      </trkpt>
      <trkpt lat="43.06214" lon="1.21347">
        <ele>544.9</ele>
        <time>2020-07-19T09:48:05Z</time>
      </trkpt>
      <trkpt lat="43.06209" lon="1.21348">
        <ele>545.2</ele>
        <time>2020-07-19T09:48:09Z</time>
      </trkpt>
      <trkpt lat="43.06205" lon="1.21346">
        <ele>545.2</ele>
        <time>2020-07-19T09:48:13Z</time>
      </trkpt>
      <trkpt lat="43.06201" lon="1.21345">
        <ele>545.6</ele>
        <time>2020-07-19T09:48:17Z</time>
      </trkpt>
      <trkpt lat="43.06197" lon="1.21348">
        <ele>545.5</ele>
        <time>2020-07-19T09:48:21Z</time>
      </trkpt>
      <trkpt lat="43.06193" lon="1.21346">
        <ele>545.4</ele>
        <time>2020-07-19T09:48:26Z</time>
      </trkpt>
      <trkpt lat="43.06188" lon="1.21345">
        <ele>545.9</ele>
        <time>2020-07-19T09:48:31Z</time>
      </trkpt>
      <trkpt lat="43.06184" lon="1.21344">
        <ele>546.5</ele>
        <time>2020-07-19T09:48:35Z</time>
      </trkpt>
      <trkpt lat="43.06179" lon="1.21342">
        <ele>547.5</ele>
        <time>2020-07-19T09:48:40Z</time>
      </trkpt>
      <trkpt lat="43.06172" lon="1.21342">
        <ele>547.9</ele>
        <time>2020-07-19T09:48:44Z</time>
      </trkpt>
      <trkpt lat="43.06168" lon="1.21339">
        <ele>548.7</ele>
        <time>2020-07-19T09:48:48Z</time>
      </trkpt>
      <trkpt lat="43.06164" lon="1.21337">
        <ele>549.4</ele>
        <time>2020-07-19T09:48:53Z</time>
      </trkpt>
      <trkpt lat="43.0616" lon="1.21337">
        <ele>550.1</ele>
        <time>2020-07-19T09:48:57Z</time>
      </trkpt>
      <trkpt lat="43.06154" lon="1.21335">
        <ele>550.7</ele>
        <time>2020-07-19T09:49:02Z</time>
      </trkpt>
      <trkpt lat="43.0615" lon="1.21333">
        <ele>551.3</ele>
        <time>2020-07-19T09:49:07Z</time>
      </trkpt>
      <trkpt lat="43.06145" lon="1.21334">
        <ele>552.2</ele>
        <time>2020-07-19T09:49:17Z</time>
      </trkpt>
      <trkpt lat="43.06142" lon="1.21331">
        <ele>552.6</ele>
        <time>2020-07-19T09:49:23Z</time>
      </trkpt>
      <trkpt lat="43.06136" lon="1.21329">
        <ele>552.8</ele>
        <time>2020-07-19T09:49:27Z</time>
      </trkpt>
      <trkpt lat="43.06134" lon="1.2133">
        <ele>554.7</ele>
        <time>2020-07-19T09:50:05Z</time>
      </trkpt>
      <trkpt lat="43.0613" lon="1.21331">
        <ele>556.3</ele>
        <time>2020-07-19T09:50:16Z</time>
      </trkpt>
      <trkpt lat="43.06128" lon="1.21324">
        <ele>556.3</ele>
        <time>2020-07-19T09:50:20Z</time>
      </trkpt>
      <trkpt lat="43.06119" lon="1.21324">
        <ele>555.9</ele>
        <time>2020-07-19T09:50:24Z</time>
      </trkpt>
      <trkpt lat="43.06114" lon="1.21324">
        <ele>555.6</ele>
        <time>2020-07-19T09:50:28Z</time>
      </trkpt>
      <trkpt lat="43.06115" lon="1.21318">
        <ele>555.5</ele>
        <time>2020-07-19T09:50:40Z</time>
      </trkpt>
      <trkpt lat="43.06113" lon="1.21322">
        <ele>555.2</ele>
        <time>2020-07-19T09:51:03Z</time>
      </trkpt>
      <trkpt lat="43.06108" lon="1.21323">
        <ele>556.2</ele>
        <time>2020-07-19T09:51:07Z</time>
      </trkpt>
      <trkpt lat="43.06104" lon="1.21325">
        <ele>557.1</ele>
        <time>2020-07-19T09:51:12Z</time>
      </trkpt>
      <trkpt lat="43.061" lon="1.21331">
        <ele>557.5</ele>
        <time>2020-07-19T09:51:17Z</time>
      </trkpt>
      <trkpt lat="43.06096" lon="1.21336">
        <ele>557.8</ele>
        <time>2020-07-19T09:51:21Z</time>
      </trkpt>
      <trkpt lat="43.0609" lon="1.21341">
        <ele>557.3</ele>
        <time>2020-07-19T09:51:26Z</time>
      </trkpt>
      <trkpt lat="43.06087" lon="1.21344">
        <ele>557</ele>
        <time>2020-07-19T09:51:30Z</time>
      </trkpt>
      <trkpt lat="43.06084" lon="1.2135">
        <ele>557</ele>
        <time>2020-07-19T09:51:35Z</time>
      </trkpt>
      <trkpt lat="43.06079" lon="1.21354">
        <ele>556.8</ele>
        <time>2020-07-19T09:51:40Z</time>
      </trkpt>
      <trkpt lat="43.06075" lon="1.21357">
        <ele>556.9</ele>
        <time>2020-07-19T09:51:44Z</time>
      </trkpt>
      <trkpt lat="43.06071" lon="1.21358">
        <ele>557.9</ele>
        <time>2020-07-19T09:51:49Z</time>
      </trkpt>
      <trkpt lat="43.06065" lon="1.21363">
        <ele>558.1</ele>
        <time>2020-07-19T09:51:53Z</time>
      </trkpt>
      <trkpt lat="43.06061" lon="1.21368">
        <ele>558.5</ele>
        <time>2020-07-19T09:51:58Z</time>
      </trkpt>
      <trkpt lat="43.06058" lon="1.21375">
        <ele>556.9</ele>
        <time>2020-07-19T09:52:02Z</time>
      </trkpt>
      <trkpt lat="43.06052" lon="1.2138">
        <ele>554.8</ele>
        <time>2020-07-19T09:52:07Z</time>
      </trkpt>
      <trkpt lat="43.06047" lon="1.21382">
        <ele>553.5</ele>
        <time>2020-07-19T09:52:11Z</time>
      </trkpt>
      <trkpt lat="43.06042" lon="1.21382">
        <ele>553.8</ele>
        <time>2020-07-19T09:52:15Z</time>
      </trkpt>
      <trkpt lat="43.06036" lon="1.21382">
        <ele>553.5</ele>
        <time>2020-07-19T09:52:19Z</time>
      </trkpt>
      <trkpt lat="43.06029" lon="1.21383">
        <ele>553.8</ele>
        <time>2020-07-19T09:52:23Z</time>
      </trkpt>
      <trkpt lat="43.06023" lon="1.21383">
        <ele>553.9</ele>
        <time>2020-07-19T09:52:27Z</time>
      </trkpt>
      <trkpt lat="43.06019" lon="1.21387">
        <ele>554.3</ele>
        <time>2020-07-19T09:52:31Z</time>
      </trkpt>
      <trkpt lat="43.06016" lon="1.21392">
        <ele>554.6</ele>
        <time>2020-07-19T09:52:35Z</time>
      </trkpt>
      <trkpt lat="43.06012" lon="1.21395">
        <ele>554.9</ele>
        <time>2020-07-19T09:52:39Z</time>
      </trkpt>
      <trkpt lat="43.06008" lon="1.21396">
        <ele>555.8</ele>
        <time>2020-07-19T09:52:44Z</time>
      </trkpt>
      <trkpt lat="43.06002" lon="1.21396">
        <ele>556.1</ele>
        <time>2020-07-19T09:52:49Z</time>
      </trkpt>
      <trkpt lat="43.05997" lon="1.21395">
        <ele>556.9</ele>
        <time>2020-07-19T09:52:53Z</time>
      </trkpt>
      <trkpt lat="43.05993" lon="1.21398">
        <ele>556.7</ele>
        <time>2020-07-19T09:52:58Z</time>
      </trkpt>
      <trkpt lat="43.05989" lon="1.21399">
        <ele>556.8</ele>
        <time>2020-07-19T09:53:02Z</time>
      </trkpt>
      <trkpt lat="43.05982" lon="1.21396">
        <ele>557</ele>
        <time>2020-07-19T09:53:07Z</time>
      </trkpt>
      <trkpt lat="43.05976" lon="1.21393">
        <ele>556.8</ele>
        <time>2020-07-19T09:53:11Z</time>
      </trkpt>
      <trkpt lat="43.05969" lon="1.21391">
        <ele>556.7</ele>
        <time>2020-07-19T09:53:16Z</time>
      </trkpt>
      <trkpt lat="43.05962" lon="1.21389">
        <ele>556.6</ele>
        <time>2020-07-19T09:53:20Z</time>
      </trkpt>
      <trkpt lat="43.05957" lon="1.21389">
        <ele>556.1</ele>
        <time>2020-07-19T09:53:24Z</time>
      </trkpt>
      <trkpt lat="43.05951" lon="1.2139">
        <ele>555.5</ele>
        <time>2020-07-19T09:53:29Z</time>
      </trkpt>
      <trkpt lat="43.05946" lon="1.21389">
        <ele>555.2</ele>
        <time>2020-07-19T09:53:34Z</time>
      </trkpt>
      <trkpt lat="43.05942" lon="1.21387">
        <ele>555.4</ele>
        <time>2020-07-19T09:53:38Z</time>
      </trkpt>
      <trkpt lat="43.05938" lon="1.21384">
        <ele>555.5</ele>
        <time>2020-07-19T09:53:43Z</time>
      </trkpt>
      <trkpt lat="43.05935" lon="1.21381">
        <ele>556</ele>
        <time>2020-07-19T09:53:47Z</time>
      </trkpt>
      <trkpt lat="43.05933" lon="1.21376">
        <ele>557.7</ele>
        <time>2020-07-19T09:54:36Z</time>
      </trkpt>
      <trkpt lat="43.05929" lon="1.21371">
        <ele>557.8</ele>
        <time>2020-07-19T09:54:40Z</time>
      </trkpt>
      <trkpt lat="43.05925" lon="1.21368">
        <ele>557.9</ele>
        <time>2020-07-19T09:54:44Z</time>
      </trkpt>
      <trkpt lat="43.05922" lon="1.21362">
        <ele>557.7</ele>
        <time>2020-07-19T09:54:49Z</time>
      </trkpt>
      <trkpt lat="43.0592" lon="1.21354">
        <ele>557.7</ele>
        <time>2020-07-19T09:54:54Z</time>
      </trkpt>
      <trkpt lat="43.05919" lon="1.21347">
        <ele>558</ele>
        <time>2020-07-19T09:54:58Z</time>
      </trkpt>
      <trkpt lat="43.05917" lon="1.21339">
        <ele>558.4</ele>
        <time>2020-07-19T09:55:03Z</time>
      </trkpt>
      <trkpt lat="43.05917" lon="1.21333">
        <ele>558.4</ele>
        <time>2020-07-19T09:55:07Z</time>
      </trkpt>
      <trkpt lat="43.05915" lon="1.21327">
        <ele>558.9</ele>
        <time>2020-07-19T09:55:11Z</time>
      </trkpt>
      <trkpt lat="43.05909" lon="1.21321">
        <ele>559.3</ele>
        <time>2020-07-19T09:55:16Z</time>
      </trkpt>
      <trkpt lat="43.05905" lon="1.21316">
        <ele>559.7</ele>
        <time>2020-07-19T09:55:20Z</time>
      </trkpt>
      <trkpt lat="43.05909" lon="1.21317">
        <ele>560.9</ele>
        <time>2020-07-19T09:55:43Z</time>
      </trkpt>
      <trkpt lat="43.05909" lon="1.21323">
        <ele>560.9</ele>
        <time>2020-07-19T09:55:48Z</time>
      </trkpt>
      <trkpt lat="43.05908" lon="1.21329">
        <ele>560.8</ele>
        <time>2020-07-19T09:55:52Z</time>
      </trkpt>
      <trkpt lat="43.05906" lon="1.21336">
        <ele>561.1</ele>
        <time>2020-07-19T09:55:56Z</time>
      </trkpt>
      <trkpt lat="43.05906" lon="1.21343">
        <ele>561.4</ele>
        <time>2020-07-19T09:56:00Z</time>
      </trkpt>
      <trkpt lat="43.05905" lon="1.21349">
        <ele>560.9</ele>
        <time>2020-07-19T09:56:04Z</time>
      </trkpt>
      <trkpt lat="43.05907" lon="1.21355">
        <ele>560.7</ele>
        <time>2020-07-19T09:56:08Z</time>
      </trkpt>
      <trkpt lat="43.05906" lon="1.21361">
        <ele>560.5</ele>
        <time>2020-07-19T09:56:12Z</time>
      </trkpt>
      <trkpt lat="43.05908" lon="1.21366">
        <ele>560.4</ele>
        <time>2020-07-19T09:56:16Z</time>
      </trkpt>
      <trkpt lat="43.0591" lon="1.21371">
        <ele>560.1</ele>
        <time>2020-07-19T09:56:23Z</time>
      </trkpt>
      <trkpt lat="43.05913" lon="1.21378">
        <ele>560.2</ele>
        <time>2020-07-19T09:56:27Z</time>
      </trkpt>
      <trkpt lat="43.05912" lon="1.21383">
        <ele>560.3</ele>
        <time>2020-07-19T09:56:31Z</time>
      </trkpt>
      <trkpt lat="43.05909" lon="1.21388">
        <ele>560.8</ele>
        <time>2020-07-19T09:56:36Z</time>
      </trkpt>
      <trkpt lat="43.0591" lon="1.21394">
        <ele>561.7</ele>
        <time>2020-07-19T09:56:44Z</time>
      </trkpt>
      <trkpt lat="43.0591" lon="1.21394">
        <ele>561.7</ele>
        <time>2020-07-19T09:56:45Z</time>
      </trkpt>
    </trkseg>
  </trk>
</gpx>